Provisional Data: West Creek near Weber City, PA


Please select a monitoring station.
Please select start date.
Please select start date.

Toggle Unit: C/F Toggle Unit: C/F
Sample Time Temperature (C) Temperature (F) Specific Conductivity (mS/cm) pH   Turbidity (NTU+) DO (mg/L)
2/4/2021 12:00:00 AM -0.08 31.856 0.096 6.85 5.84 13.93
2/4/2021 12:15:00 AM -0.08 31.856 0.096 6.85 5.28 13.93
2/4/2021 12:30:00 AM -0.08 31.856 0.096 6.85 4.94 13.93
2/4/2021 12:45:00 AM -0.08 31.856 0.096 6.85 4.61 13.93
2/4/2021 1:00:00 AM -0.08 31.856 0.096 6.85 4.33 13.93
2/4/2021 1:15:00 AM -0.08 31.856 0.096 6.85 3.97 13.93
2/4/2021 1:30:00 AM -0.08 31.856 0.096 6.85 3.75 13.92
2/4/2021 1:45:00 AM -0.08 31.856 0.096 6.84 3.78 13.92
2/4/2021 2:00:00 AM -0.08 31.856 0.097 6.85 3.4 13.93
2/4/2021 2:15:00 AM -0.08 31.856 0.097 6.85 3.43 13.93
2/4/2021 2:30:00 AM -0.08 31.856 0.097 6.85 4 13.93
2/4/2021 2:45:00 AM -0.08 31.856 0.097 6.85 3.72 13.93
2/4/2021 3:00:00 AM -0.08 31.856 0.097 6.85 3.98 13.93
2/4/2021 3:15:00 AM -0.08 31.856 0.097 6.85 3.53 13.93
2/4/2021 3:30:00 AM -0.08 31.856 0.097 6.85 3.58 13.93
2/4/2021 3:45:00 AM -0.08 31.856 0.097 6.84 3.79 13.93
2/4/2021 4:00:00 AM -0.07 31.874 0.097 6.84 4.19 13.93
2/4/2021 4:15:00 AM -0.07 31.874 0.098 6.84 4.35 13.93
2/4/2021 4:30:00 AM -0.08 31.856 0.098 6.83 4.48 13.93
2/4/2021 4:45:00 AM -0.08 31.856 0.098 6.84 4.39 13.93
2/4/2021 5:00:00 AM -0.07 31.874 0.098 6.85 4.65 13.93
2/4/2021 5:15:00 AM -0.07 31.874 0.099 6.84 4.62 13.93
2/4/2021 5:30:00 AM -0.07 31.874 0.099 6.85 4.54 13.93
2/4/2021 5:45:00 AM -0.07 31.874 0.099 6.83 4.64 13.93
2/4/2021 6:00:00 AM -0.08 31.856 0.099 6.84 4.67 13.93
2/4/2021 6:15:00 AM -0.07 31.874 0.099 6.84 4.98 13.93
2/4/2021 6:30:00 AM -0.07 31.874 0.099 6.84 4.93 13.93
2/4/2021 6:45:00 AM -0.07 31.874 0.099 6.84 5.09 13.93
2/4/2021 7:00:00 AM -0.07 31.874 0.1 6.84 5.09 13.93
2/4/2021 7:15:00 AM -0.07 31.874 0.1 6.85 5.17 13.93
2/4/2021 7:30:00 AM -0.07 31.874 0.1 6.85 5.3 13.95
2/4/2021 7:45:00 AM -0.07 31.874 0.1 6.85 5.32 13.97
2/4/2021 8:00:00 AM -0.07 31.874 0.1 6.85 5.62 14.01
2/4/2021 8:15:00 AM -0.07 31.874 0.1 6.87 5.14 14.04
2/4/2021 8:30:00 AM -0.07 31.874 0.1 6.87 4.91 14.08
2/4/2021 8:45:00 AM -0.07 31.874 0.1 6.87 6.09 14.11
2/4/2021 9:00:00 AM -0.06 31.892 0.1 6.85 4.98 14.15
2/4/2021 9:15:00 AM -0.06 31.892 0.1 6.86 5.06 14.17
2/4/2021 9:30:00 AM -0.06 31.892 0.1 6.86 5.05 14.19
2/4/2021 9:45:00 AM -0.06 31.892 0.1 6.87 4.66 14.2
2/4/2021 10:00:00 AM -0.05 31.91 0.099 6.87 4.62 14.22
2/4/2021 10:15:00 AM -0.05 31.91 0.099 6.89 4.47 14.25
2/4/2021 10:30:00 AM -0.05 31.91 0.099 6.88 4.61 14.26
2/4/2021 10:45:00 AM -0.04 31.928 0.098 6.9 3.41 14.28
2/4/2021 11:00:00 AM -0.04 31.928 0.098 6.91 14.79 14.3
2/4/2021 11:15:00 AM -0.04 31.928 0.098 6.91 3.35 14.32
2/4/2021 11:30:00 AM -0.05 31.91 0.098 6.93 3.73 14.33
2/4/2021 11:45:00 AM -0.04 31.928 0.098 6.93 3.5 14.34
2/4/2021 12:00:00 PM -0.05 31.91 0.097 6.93 5.92 14.36
2/4/2021 12:15:00 PM -0.05 31.91 0.097 6.94 3.71 14.37
2/4/2021 12:30:00 PM -0.05 31.91 0.097 6.92 4.33 14.38
2/4/2021 12:45:00 PM -0.05 31.91 0.097 6.94 5.24 14.39
2/4/2021 1:00:00 PM -0.05 31.91 0.097 6.94 3.77 14.4
2/4/2021 1:15:00 PM -0.05 31.91 0.097 6.96 3.4 14.41
2/4/2021 1:30:00 PM -0.04 31.928 0.097 6.95 2.78 14.41
2/4/2021 1:45:00 PM -0.03 31.946 0.097 6.93 1.73 14.41
2/4/2021 2:00:00 PM -0.02 31.964 0.097 6.93 1.81 14.41
2/4/2021 2:15:00 PM -0.01 31.982 0.097 6.92 1.81 14.42
2/4/2021 2:30:00 PM -0.01 31.982 0.097 6.91 1.8 14.43
2/4/2021 2:45:00 PM 0 32 0.097 6.92 1.72 14.43
2/4/2021 3:00:00 PM 0 32 0.096 6.93 1.77 14.44
2/4/2021 3:15:00 PM -0.01 31.982 0.096 6.95 1.75 14.45
2/4/2021 3:30:00 PM -0.03 31.946 0.096 6.96 1.79 14.45
2/4/2021 3:45:00 PM -0.04 31.928 0.096 6.96 1.78 14.45
2/4/2021 4:00:00 PM -0.04 31.928 0.096 6.97 1.77 14.45
2/4/2021 4:15:00 PM -0.05 31.91 0.096 6.96 1.74 14.45
2/4/2021 4:30:00 PM -0.06 31.892 0.096 6.96 1.71 14.43
2/4/2021 4:45:00 PM -0.07 31.874 0.096 6.95 1.71 14.41
2/4/2021 5:00:00 PM -0.07 31.874 0.096 6.95 1.74 14.4
2/4/2021 5:15:00 PM -0.07 31.874 0.096 6.95 1.91 14.37
2/4/2021 5:30:00 PM -0.07 31.874 0.096 6.94 1.7 14.34
2/4/2021 5:45:00 PM -0.08 31.856 0.097 6.93 1.71 14.31
2/4/2021 6:00:00 PM -0.08 31.856 0.097 6.93 1.69 14.27
2/4/2021 6:15:00 PM -0.08 31.856 0.097 6.9 1.69 14.25
2/4/2021 6:30:00 PM -0.08 31.856 0.097 6.91 1.72 14.22
2/4/2021 6:45:00 PM -0.07 31.874 0.097 6.9 1.69 14.2
2/4/2021 7:00:00 PM -0.07 31.874 0.097 6.89 1.63 14.17
2/4/2021 7:15:00 PM -0.07 31.874 0.098 6.88 1.65 14.15
2/4/2021 7:30:00 PM -0.07 31.874 0.098 6.88 1.71 14.12
2/4/2021 7:45:00 PM -0.07 31.874 0.098 6.87 1.68 14.1
2/4/2021 8:00:00 PM -0.07 31.874 0.098 6.87 1.79 14.08
2/4/2021 8:15:00 PM -0.07 31.874 0.098 6.86 1.73 14.06
2/4/2021 8:30:00 PM -0.07 31.874 0.099 6.86 1.8 14.04
2/4/2021 8:45:00 PM -0.07 31.874 0.099 6.85 1.69 14.02
2/4/2021 9:00:00 PM -0.07 31.874 0.099 6.85 1.71 14
2/4/2021 9:15:00 PM -0.07 31.874 0.099 6.84 1.69 13.98
2/4/2021 9:30:00 PM -0.07 31.874 0.099 6.84 1.69 13.96
2/4/2021 9:45:00 PM -0.07 31.874 0.099 6.84 1.73 13.95
2/4/2021 10:00:00 PM -0.07 31.874 0.099 6.84 1.72 13.93
2/4/2021 10:15:00 PM -0.07 31.874 0.099 6.84 1.7 13.91
2/4/2021 10:30:00 PM -0.07 31.874 0.099 6.84 1.7 13.9
2/4/2021 10:45:00 PM -0.07 31.874 0.099 6.84 1.65 13.88
2/4/2021 11:00:00 PM -0.06 31.892 0.099 6.84 1.72 13.87
2/4/2021 11:15:00 PM -0.06 31.892 0.099 6.84 1.67 13.86
2/4/2021 11:30:00 PM -0.06 31.892 0.099 6.84 1.71 13.86
2/4/2021 11:45:00 PM -0.07 31.874 0.099 6.83 1.75 13.85
2/5/2021 12:00:00 AM -0.07 31.874 0.099 6.84 1.73 13.84
2/5/2021 12:15:00 AM -0.06 31.892 0.099 6.84 1.74 13.83
2/5/2021 12:30:00 AM -0.06 31.892 0.099 6.84 1.71 13.82
2/5/2021 12:45:00 AM -0.06 31.892 0.099 6.84 1.71 13.81
2/5/2021 1:00:00 AM -0.06 31.892 0.099 6.84 1.7 13.8
2/5/2021 1:15:00 AM -0.06 31.892 0.099 6.84 1.74 13.79
2/5/2021 1:30:00 AM -0.06 31.892 0.099 6.84 1.76 13.79
2/5/2021 1:45:00 AM -0.06 31.892 0.099 6.84 1.68 13.78
2/5/2021 2:00:00 AM -0.07 31.874 0.099 6.83 1.8 13.77
2/5/2021 2:15:00 AM -0.07 31.874 0.099 6.83 1.75 13.76
2/5/2021 2:30:00 AM -0.06 31.892 0.099 6.83 1.75 13.76
2/5/2021 2:45:00 AM -0.06 31.892 0.1 6.83 1.78 13.75
2/5/2021 3:00:00 AM -0.06 31.892 0.099 6.83 1.74 13.74
2/5/2021 3:15:00 AM -0.06 31.892 0.1 6.83 1.78 13.73
2/5/2021 3:30:00 AM -0.06 31.892 0.1 6.83 1.7 13.73
2/5/2021 3:45:00 AM -0.06 31.892 0.1 6.83 1.72 13.72
2/5/2021 4:00:00 AM -0.06 31.892 0.1 6.83 1.74 13.71
2/5/2021 4:15:00 AM -0.06 31.892 0.1 6.83 1.74 13.71
2/5/2021 4:30:00 AM -0.06 31.892 0.1 6.83 1.74 13.7
2/5/2021 4:45:00 AM -0.06 31.892 0.1 6.83 1.73 13.7
2/5/2021 5:00:00 AM -0.06 31.892 0.1 6.83 1.74 13.69
2/5/2021 5:15:00 AM -0.06 31.892 0.1 6.83 1.74 13.69
2/5/2021 5:30:00 AM -0.06 31.892 0.1 6.83 1.73 13.68
2/5/2021 5:45:00 AM -0.06 31.892 0.1 6.83 1.74 13.68
2/5/2021 6:00:00 AM -0.06 31.892 0.1 6.83 1.69 13.67
2/5/2021 6:15:00 AM -0.06 31.892 0.1 6.83 1.72 13.67
2/5/2021 6:30:00 AM -0.05 31.91 0.1 6.83 1.74 13.67
2/5/2021 6:45:00 AM -0.06 31.892 0.099 6.84 1.71 13.66
2/5/2021 7:00:00 AM -0.06 31.892 0.099 6.83 1.68 13.66
2/5/2021 7:15:00 AM -0.06 31.892 0.099 6.84 1.73 13.66
2/5/2021 7:30:00 AM -0.05 31.91 0.099 6.84 1.72 13.67
2/5/2021 7:45:00 AM -0.05 31.91 0.099 6.84 1.69 13.68
2/5/2021 8:00:00 AM -0.05 31.91 0.099 6.84 1.71 13.71
2/5/2021 8:15:00 AM -0.04 31.928 0.099 6.85 1.68 13.75
2/5/2021 8:30:00 AM -0.03 31.946 0.099 6.86 1.71 13.79
2/5/2021 8:45:00 AM -0.04 31.928 0.099 6.86 1.69 13.83
2/5/2021 9:00:00 AM -0.04 31.928 0.099 6.86 1.73 13.86
2/5/2021 9:15:00 AM -0.04 31.928 0.099 6.86 1.69 13.89
2/5/2021 9:30:00 AM -0.03 31.946 0.099 6.87 1.71 13.93
2/5/2021 9:45:00 AM -0.03 31.946 0.099 6.88 1.71 13.97
2/5/2021 10:00:00 AM -0.03 31.946 0.099 6.88 1.76 14.01
2/5/2021 10:15:00 AM -0.02 31.964 0.099 6.89 1.65 14.05
2/5/2021 10:30:00 AM -0.01 31.982 0.099 6.91 1.74 14.09
2/5/2021 10:45:00 AM 0 32 0.099 6.91 1.76 14.12
2/5/2021 11:00:00 AM 0 32 0.099 6.92 1.68 14.15
2/5/2021 11:15:00 AM -0.01 31.982 0.099 6.93 1.7 14.17
2/5/2021 11:30:00 AM 0 32 0.099 6.94 1.75 14.2
2/5/2021 11:45:00 AM -0.01 31.982 0.099 6.94 1.72 14.23
2/5/2021 12:00:00 PM -0.01 31.982 0.1 6.95 1.74 14.25
2/5/2021 12:15:00 PM -0.01 31.982 0.1 6.95 1.76 14.27
2/5/2021 12:30:00 PM -0.02 31.964 0.1 6.96 1.75 14.29
2/5/2021 12:45:00 PM -0.01 31.982 0.101 6.97 1.7 14.31
2/5/2021 1:00:00 PM -0.02 31.964 0.101 6.97 1.72 14.32
2/5/2021 1:15:00 PM -0.02 31.964 0.101 6.97 1.73 14.33
2/5/2021 1:30:00 PM -0.01 31.982 0.101 6.97 1.74 14.34
2/5/2021 1:45:00 PM 0.01 32.018 0.101 6.97 1.69 14.36
2/5/2021 2:00:00 PM 0.02 32.036 0.101 6.98 1.72 14.37
2/5/2021 2:15:00 PM 0.01 32.018 0.101 6.97 1.71 14.37
2/5/2021 2:30:00 PM 0 32 0.102 6.97 1.7 14.38
2/5/2021 2:45:00 PM 0 32 0.102 6.97 1.72 14.39
2/5/2021 3:00:00 PM 0 32 0.102 6.97 1.76 14.39
2/5/2021 3:15:00 PM -0.01 31.982 0.102 6.97 1.76 14.4
2/5/2021 3:30:00 PM -0.03 31.946 0.102 6.97 1.73 14.4
2/5/2021 3:45:00 PM -0.03 31.946 0.102 6.97 1.67 14.39
2/5/2021 4:00:00 PM -0.03 31.946 0.102 6.98 1.71 14.4
2/5/2021 4:15:00 PM -0.04 31.928 0.102 6.98 1.65 14.39
2/5/2021 4:30:00 PM -0.05 31.91 0.102 6.97 1.73 14.38
2/5/2021 4:45:00 PM -0.05 31.91 0.102 6.97 1.68 14.36
2/5/2021 5:00:00 PM -0.06 31.892 0.102 6.96 1.72 14.33
2/5/2021 5:15:00 PM -0.06 31.892 0.102 6.96 1.72 14.3
2/5/2021 5:30:00 PM -0.07 31.874 0.102 6.95 1.72 14.26
2/5/2021 5:45:00 PM -0.07 31.874 0.102 6.94 1.69 14.21
2/5/2021 6:00:00 PM -0.08 31.856 0.102 6.94 1.67 14.18
2/5/2021 6:15:00 PM -0.08 31.856 0.102 6.91 1.71 14.15
2/5/2021 6:30:00 PM -0.08 31.856 0.102 6.89 1.77 14.11
2/5/2021 6:45:00 PM -0.08 31.856 0.102 6.87 1.77 14.09
2/5/2021 7:00:00 PM -0.08 31.856 0.102 6.86 1.83 14.07
2/5/2021 7:15:00 PM -0.08 31.856 0.103 6.86 1.89 14.04
2/5/2021 7:30:00 PM -0.08 31.856 0.103 6.85 1.85 14.02
2/5/2021 7:45:00 PM -0.08 31.856 0.103 6.84 1.91 14
2/5/2021 8:00:00 PM -0.07 31.874 0.103 6.85 1.79 13.99
2/5/2021 8:15:00 PM -0.07 31.874 0.103 6.84 1.86 13.98
2/5/2021 8:30:00 PM -0.07 31.874 0.103 6.84 1.9 13.96
2/5/2021 8:45:00 PM -0.07 31.874 0.103 6.84 1.84 13.95
2/5/2021 9:00:00 PM -0.08 31.856 0.103 6.84 1.91 13.94
2/5/2021 9:15:00 PM -0.07 31.874 0.103 6.83 1.91 13.93
2/5/2021 9:30:00 PM -0.07 31.874 0.103 6.83 2.27 13.92
2/5/2021 9:45:00 PM -0.07 31.874 0.103 6.83 1.95 13.91
2/5/2021 10:00:00 PM -0.07 31.874 0.103 6.83 1.96 13.91
2/5/2021 10:15:00 PM -0.08 31.856 0.103 6.83 2.01 13.9
2/5/2021 10:30:00 PM -0.08 31.856 0.103 6.83 2.07 13.9
2/5/2021 10:45:00 PM -0.08 31.856 0.103 6.83 2.17 13.89
2/5/2021 11:00:00 PM -0.08 31.856 0.104 6.85 2.18 13.89
2/5/2021 11:15:00 PM -0.08 31.856 0.104 6.85 2.2 13.88
2/5/2021 11:30:00 PM -0.08 31.856 0.104 6.86 2.19 13.88
2/5/2021 11:45:00 PM -0.07 31.874 0.104 6.86 2.21 13.87
2/6/2021 12:00:00 AM -0.07 31.874 0.104 6.86 2.2 13.87
2/6/2021 12:15:00 AM -0.07 31.874 0.104 6.87 2.21 13.86
2/6/2021 12:30:00 AM -0.07 31.874 0.104 6.86 2.26 13.86
2/6/2021 12:45:00 AM -0.07 31.874 0.104 6.86 2.27 13.86
2/6/2021 1:00:00 AM -0.07 31.874 0.104 6.86 2.34 13.85
2/6/2021 1:15:00 AM -0.07 31.874 0.104 6.86 2.27 13.85
2/6/2021 1:30:00 AM -0.07 31.874 0.104 6.86 2.37 13.85
2/6/2021 1:45:00 AM -0.07 31.874 0.104 6.86 2.31 13.85
2/6/2021 2:00:00 AM -0.07 31.874 0.104 6.86 2.31 13.84
2/6/2021 2:15:00 AM -0.07 31.874 0.104 6.85 2.31 13.84
2/6/2021 2:30:00 AM -0.07 31.874 0.104 6.85 2.28 13.84
2/6/2021 2:45:00 AM -0.07 31.874 0.105 6.85 2.34 13.84
2/6/2021 3:00:00 AM -0.07 31.874 0.105 6.85 2.43 13.83
2/6/2021 3:15:00 AM -0.07 31.874 0.105 6.85 2.54 13.83
2/6/2021 3:30:00 AM -0.07 31.874 0.105 6.85 2.4 13.83
2/6/2021 3:45:00 AM -0.07 31.874 0.105 6.85 2.57 13.83
2/6/2021 4:00:00 AM -0.07 31.874 0.106 6.85 2.6 13.84
2/6/2021 4:15:00 AM -0.07 31.874 0.106 6.85 7.82 13.84
2/6/2021 4:30:00 AM -0.07 31.874 0.106 6.85 2.54 13.84
2/6/2021 4:45:00 AM -0.07 31.874 0.106 6.84 2.54 13.84
2/6/2021 5:00:00 AM -0.07 31.874 0.106 6.84 2.46 13.84
2/6/2021 5:15:00 AM -0.08 31.856 0.106 6.84 2.39 13.84
2/6/2021 5:30:00 AM -0.08 31.856 0.106 6.83 2.33 13.85
2/6/2021 5:45:00 AM -0.08 31.856 0.106 6.83 2.41 13.85
2/6/2021 6:00:00 AM -0.08 31.856 0.106 6.84 2.38 13.86
2/6/2021 6:15:00 AM -0.08 31.856 0.106 6.83 2.32 13.86
2/6/2021 6:30:00 AM -0.08 31.856 0.106 6.83 2.5 13.86
2/6/2021 6:45:00 AM -0.08 31.856 0.105 6.84 2.58 13.86
2/6/2021 7:00:00 AM -0.08 31.856 0.106 6.85 2.65 13.87
2/6/2021 7:15:00 AM -0.08 31.856 0.106 6.85 2.63 13.87
2/6/2021 7:30:00 AM -0.07 31.874 0.106 6.85 2.63 13.9
2/6/2021 7:45:00 AM -0.08 31.856 0.105 6.86 2.66 13.93
2/6/2021 8:00:00 AM -0.07 31.874 0.105 6.87 2.82 13.96
2/6/2021 8:15:00 AM -0.07 31.874 0.105 6.88 2.78 13.99
2/6/2021 8:30:00 AM -0.07 31.874 0.105 6.88 3.02 14.03
2/6/2021 8:45:00 AM -0.07 31.874 0.105 6.89 3.03 14.07
2/6/2021 9:00:00 AM -0.07 31.874 0.105 6.9 3.06 14.1
2/6/2021 9:15:00 AM -0.07 31.874 0.105 6.9 3.08 14.13
2/6/2021 9:30:00 AM -0.06 31.892 0.105 6.9 3.48 14.17
2/6/2021 9:45:00 AM -0.06 31.892 0.105 6.92 3.76 14.2
2/6/2021 10:00:00 AM -0.06 31.892 0.105 6.93 3.67 14.23
2/6/2021 10:15:00 AM -0.06 31.892 0.105 6.92 4.46 14.26
2/6/2021 10:30:00 AM -0.06 31.892 0.105 6.94 3.93 14.29
2/6/2021 10:45:00 AM -0.05 31.91 0.105 6.93 3.84 14.32
2/6/2021 11:00:00 AM -0.05 31.91 0.105 6.9 4.25 14.34
2/6/2021 11:15:00 AM -0.04 31.928 0.105 6.9 2.47 14.37
2/6/2021 11:30:00 AM -0.03 31.946 0.104 6.9 1.8 14.39
2/6/2021 11:45:00 AM -0.02 31.964 0.104 6.91 1.9 14.41
2/6/2021 12:00:00 PM 0 32 0.104 6.9 1.57 14.43
2/6/2021 12:15:00 PM 0 32 0.104 6.91 1.6 14.45
2/6/2021 12:30:00 PM 0.01 32.018 0.104 6.91 1.59 14.46
2/6/2021 12:45:00 PM 0.01 32.018 0.104 6.91 1.55 14.48
2/6/2021 1:00:00 PM 0.02 32.036 0.104 6.92 1.55 14.48
2/6/2021 1:15:00 PM 0.02 32.036 0.104 6.92 1.55 14.49
2/6/2021 1:30:00 PM 0.02 32.036 0.104 6.92 1.56 14.5
2/6/2021 1:45:00 PM 0.02 32.036 0.104 6.93 1.56 14.51
2/6/2021 2:00:00 PM 0.02 32.036 0.104 6.92 1.57 14.52
2/6/2021 2:15:00 PM 0.02 32.036 0.104 6.92 1.56 14.52
2/6/2021 2:30:00 PM 0.01 32.018 0.104 6.93 1.57 14.53
2/6/2021 2:45:00 PM 0 32 0.104 6.93 1.59 14.54
2/6/2021 3:00:00 PM -0.01 31.982 0.104 6.92 1.56 14.54
2/6/2021 3:15:00 PM -0.02 31.964 0.105 6.95 1.71 14.54
2/6/2021 3:30:00 PM -0.02 31.964 0.105 6.96 1.68 14.54
2/6/2021 3:45:00 PM -0.03 31.946 0.105 6.94 1.68 14.54
2/6/2021 4:00:00 PM -0.04 31.928 0.105 6.97 1.64 14.54
2/6/2021 4:15:00 PM -0.05 31.91 0.105 6.97 1.62 14.54
2/6/2021 4:30:00 PM -0.06 31.892 0.105 6.98 1.55 14.53
2/6/2021 4:45:00 PM -0.08 31.856 0.105 6.98 1.56 14.52
2/6/2021 5:00:00 PM -0.08 31.856 0.105 6.97 1.56 14.5
2/6/2021 5:15:00 PM -0.09 31.838 0.106 6.96 1.53 14.48
2/6/2021 5:30:00 PM -0.09 31.838 0.106 6.96 1.53 14.44
2/6/2021 5:45:00 PM -0.09 31.838 0.106 6.96 1.57 14.41
2/6/2021 6:00:00 PM -0.09 31.838 0.106 6.96 1.56 14.37
2/6/2021 6:15:00 PM -0.09 31.838 0.106 6.94 1.59 14.34
2/6/2021 6:30:00 PM -0.09 31.838 0.106 6.93 1.58 14.32
2/6/2021 6:45:00 PM -0.08 31.856 0.106 6.93 1.59 14.3
2/6/2021 7:00:00 PM -0.08 31.856 0.107 6.91 1.59 14.27
2/6/2021 7:15:00 PM -0.08 31.856 0.107 6.9 1.65 14.26
2/6/2021 7:30:00 PM -0.08 31.856 0.107 6.91 1.63 14.24
2/6/2021 7:45:00 PM -0.08 31.856 0.107 6.92 1.58 14.22
2/6/2021 8:00:00 PM -0.08 31.856 0.107 6.92 1.59 14.21
2/6/2021 8:15:00 PM -0.08 31.856 0.107 6.92 1.66 14.2
2/6/2021 8:30:00 PM -0.08 31.856 0.108 6.91 1.64 14.18
2/6/2021 8:45:00 PM -0.08 31.856 0.108 6.9 1.65 14.17
2/6/2021 9:00:00 PM -0.08 31.856 0.108 6.91 1.6 14.17
2/6/2021 9:15:00 PM -0.08 31.856 0.108 6.9 1.61 14.16
2/6/2021 9:30:00 PM -0.08 31.856 0.108 6.9 1.61 14.15
2/6/2021 9:45:00 PM -0.08 31.856 0.109 6.9 1.61 14.14
2/6/2021 10:00:00 PM -0.08 31.856 0.109 6.9 1.61 14.14
2/6/2021 10:15:00 PM -0.08 31.856 0.109 6.9 1.56 14.14
2/6/2021 10:30:00 PM -0.08 31.856 0.109 6.9 1.55 14.13
2/6/2021 10:45:00 PM -0.08 31.856 0.11 6.9 1.59 14.12
2/6/2021 11:00:00 PM -0.08 31.856 0.11 6.89 1.58 14.12
2/6/2021 11:15:00 PM -0.08 31.856 0.11 6.89 1.59 14.12
2/6/2021 11:30:00 PM -0.08 31.856 0.11 6.89 1.55 14.11
2/6/2021 11:45:00 PM -0.08 31.856 0.11 6.89 1.59 14.11
2/7/2021 12:00:00 AM -0.08 31.856 0.111 6.89 1.58 14.1
2/7/2021 12:15:00 AM -0.08 31.856 0.111 6.89 1.57 14.1
2/7/2021 12:30:00 AM -0.08 31.856 0.111 6.88 1.54 14.1
2/7/2021 12:45:00 AM -0.08 31.856 0.111 6.89 1.58 14.09
2/7/2021 1:00:00 AM -0.08 31.856 0.111 6.9 1.59 14.09
2/7/2021 1:15:00 AM -0.08 31.856 0.111 6.88 1.65 14.09
2/7/2021 1:30:00 AM -0.07 31.874 0.112 6.89 1.62 14.08
2/7/2021 1:45:00 AM -0.08 31.856 0.112 6.88 1.6 14.07
2/7/2021 2:00:00 AM -0.08 31.856 0.112 6.88 1.7 14.07
2/7/2021 2:15:00 AM -0.08 31.856 0.112 6.88 1.61 14.06
2/7/2021 2:30:00 AM -0.08 31.856 0.112 6.88 1.61 14.06
2/7/2021 2:45:00 AM -0.07 31.874 0.113 6.88 1.66 14.05
2/7/2021 3:00:00 AM -0.07 31.874 0.113 6.88 2.71 14.05
2/7/2021 3:15:00 AM -0.07 31.874 0.113 6.88 1.63 14.05
2/7/2021 3:30:00 AM -0.07 31.874 0.113 6.88 1.67 14.04
2/7/2021 3:45:00 AM -0.07 31.874 0.113 6.88 1.59 14.04
2/7/2021 4:00:00 AM -0.07 31.874 0.114 6.87 1.6 14.04
2/7/2021 4:15:00 AM -0.07 31.874 0.114 6.88 1.63 14.03
2/7/2021 4:30:00 AM -0.07 31.874 0.114 6.88 1.66 14.02
2/7/2021 4:45:00 AM -0.07 31.874 0.114 6.87 1.62 14.02
2/7/2021 5:00:00 AM -0.07 31.874 0.114 6.87 1.61 14.01
2/7/2021 5:15:00 AM -0.07 31.874 0.114 6.86 1.6 14.01
2/7/2021 5:30:00 AM -0.07 31.874 0.115 6.87 1.59 14
2/7/2021 5:45:00 AM -0.07 31.874 0.115 6.87 1.6 14
2/7/2021 6:00:00 AM -0.07 31.874 0.115 6.87 1.84 13.99
2/7/2021 6:15:00 AM -0.07 31.874 0.115 6.87 1.61 13.98
2/7/2021 6:30:00 AM -0.07 31.874 0.115 6.86 1.58 13.98
2/7/2021 6:45:00 AM -0.07 31.874 0.115 6.86 1.61 13.97
2/7/2021 7:00:00 AM -0.07 31.874 0.115 6.86 1.65 13.97
2/7/2021 7:15:00 AM -0.07 31.874 0.115 6.87 1.61 13.96
2/7/2021 7:30:00 AM -0.07 31.874 0.115 6.87 1.56 13.97
2/7/2021 7:45:00 AM -0.07 31.874 0.115 6.87 1.57 13.98
2/7/2021 8:00:00 AM -0.07 31.874 0.116 6.87 1.62 14
2/7/2021 8:15:00 AM -0.07 31.874 0.116 6.88 1.57 14.03
2/7/2021 8:30:00 AM -0.07 31.874 0.115 6.89 1.61 14.07
2/7/2021 8:45:00 AM -0.07 31.874 0.115 6.89 1.58 14.12
2/7/2021 9:00:00 AM -0.07 31.874 0.115 6.9 1.58 14.17
2/7/2021 9:15:00 AM -0.07 31.874 0.115 6.91 1.59 14.22
2/7/2021 9:30:00 AM -0.07 31.874 0.115 6.92 1.65 14.26
2/7/2021 9:45:00 AM -0.07 31.874 0.115 6.92 1.57 14.29
2/7/2021 10:00:00 AM -0.06 31.892 0.115 6.93 1.6 14.32
2/7/2021 10:15:00 AM -0.06 31.892 0.115 6.94 1.61 14.35
2/7/2021 10:30:00 AM -0.06 31.892 0.114 6.95 1.61 14.38
2/7/2021 10:45:00 AM -0.06 31.892 0.114 6.96 1.55 14.42
2/7/2021 11:00:00 AM -0.06 31.892 0.114 6.97 1.58 14.46
2/7/2021 11:15:00 AM -0.06 31.892 0.114 6.98 1.6 14.49
2/7/2021 11:30:00 AM -0.06 31.892 0.113 6.99 1.61 14.52
2/7/2021 11:45:00 AM -0.06 31.892 0.113 7 1.6 14.54
2/7/2021 12:00:00 PM -0.06 31.892 0.113 7.01 1.71 14.56
2/7/2021 12:15:00 PM -0.06 31.892 0.113 7.01 1.6 14.58
2/7/2021 12:30:00 PM -0.06 31.892 0.113 7.02 1.63 14.6
2/7/2021 12:45:00 PM -0.05 31.91 0.113 7.02 1.62 14.62
2/7/2021 1:00:00 PM -0.05 31.91 0.113 7.03 1.66 14.62
2/7/2021 1:15:00 PM -0.06 31.892 0.113 7.04 1.67 14.63
2/7/2021 1:30:00 PM -0.06 31.892 0.113 7.04 1.66 14.63
2/7/2021 1:45:00 PM -0.06 31.892 0.112 7.04 1.67 14.63
2/7/2021 2:00:00 PM -0.06 31.892 0.112 7.05 1.66 14.62
2/7/2021 2:15:00 PM -0.05 31.91 0.112 7.05 1.65 14.62
2/7/2021 2:30:00 PM -0.05 31.91 0.112 7.05 1.89 14.62
2/7/2021 2:45:00 PM -0.05 31.91 0.112 7.05 1.8 14.63
2/7/2021 3:00:00 PM -0.06 31.892 0.112 7.05 1.92 14.63
2/7/2021 3:15:00 PM -0.05 31.91 0.112 7.05 2.27 14.63
2/7/2021 3:30:00 PM -0.06 31.892 0.113 7.05 1.87 14.63
2/7/2021 3:45:00 PM -0.06 31.892 0.113 7.05 1.88 14.64
2/7/2021 4:00:00 PM -0.06 31.892 0.113 7.05 2.01 14.64
2/7/2021 4:15:00 PM -0.07 31.874 0.113 7.06 1.96 14.62
2/7/2021 4:30:00 PM -0.07 31.874 0.113 7.05 2.03 14.62
2/7/2021 4:45:00 PM -0.07 31.874 0.113 7.05 1.87 14.61
2/7/2021 5:00:00 PM -0.07 31.874 0.113 7.05 2.35 14.59
2/7/2021 5:15:00 PM -0.08 31.856 0.113 7.04 1.91 14.56
2/7/2021 5:30:00 PM -0.08 31.856 0.114 7.04 2.91 14.52
2/7/2021 5:45:00 PM -0.08 31.856 0.114 7.03 2.04 14.48
2/7/2021 6:00:00 PM -0.08 31.856 0.114 7.02 1.99 14.44
2/7/2021 6:15:00 PM -0.08 31.856 0.114 7.01 1.92 14.41
2/7/2021 6:30:00 PM -0.08 31.856 0.115 7.01 1.86 14.38
2/7/2021 6:45:00 PM -0.08 31.856 0.115 7 1.87 14.36
2/7/2021 7:00:00 PM -0.08 31.856 0.115 6.99 1.86 14.34
2/7/2021 7:15:00 PM -0.08 31.856 0.115 6.98 1.79 14.33
2/7/2021 7:30:00 PM -0.08 31.856 0.116 6.98 2.01 14.31
2/7/2021 7:45:00 PM -0.08 31.856 0.116 6.97 1.83 14.3
2/7/2021 8:00:00 PM -0.08 31.856 0.116 6.97 1.86 14.28
2/7/2021 8:15:00 PM -0.08 31.856 0.116 6.96 1.81 14.27
2/7/2021 8:30:00 PM -0.08 31.856 0.116 6.96 1.89 14.25
2/7/2021 8:45:00 PM -0.08 31.856 0.117 6.95 1.74 14.24
2/7/2021 9:00:00 PM -0.08 31.856 0.117 6.95 1.71 14.23
2/7/2021 9:15:00 PM -0.08 31.856 0.117 6.95 1.75 14.22
2/7/2021 9:30:00 PM -0.08 31.856 0.117 6.95 1.79 14.21
2/7/2021 9:45:00 PM -0.08 31.856 0.117 6.94 1.83 14.19
2/7/2021 10:00:00 PM -0.08 31.856 0.117 6.94 2.56 14.19
2/7/2021 10:15:00 PM -0.08 31.856 0.118 6.94 1.78 14.18
2/7/2021 10:30:00 PM -0.08 31.856 0.118 6.94 1.81 14.17
2/7/2021 10:45:00 PM -0.08 31.856 0.118 6.93 1.86 14.16
2/7/2021 11:00:00 PM -0.08 31.856 0.118 6.94 1.81 14.16
2/7/2021 11:15:00 PM -0.07 31.874 0.118 6.93 1.88 14.15
2/7/2021 11:30:00 PM -0.07 31.874 0.118 6.93 1.99 14.14
2/7/2021 11:45:00 PM -0.07 31.874 0.119 6.93 1.85 14.14
2/8/2021 12:00:00 AM -0.07 31.874 0.119 6.93 1.97 14.13
2/8/2021 12:15:00 AM -0.07 31.874 0.119 6.92 1.83 14.13
2/8/2021 12:30:00 AM -0.07 31.874 0.119 6.92 1.84 14.13
2/8/2021 12:45:00 AM -0.07 31.874 0.119 6.92 1.85 14.12
2/8/2021 1:00:00 AM -0.07 31.874 0.119 6.92 1.81 14.12
2/8/2021 1:15:00 AM -0.07 31.874 0.119 6.91 1.79 14.12
2/8/2021 1:30:00 AM -0.07 31.874 0.118 6.91 2.67 14.12
2/8/2021 1:45:00 AM -0.07 31.874 0.118 6.91 1.79 14.12
2/8/2021 2:00:00 AM -0.07 31.874 0.118 6.91 1.85 14.11
2/8/2021 2:15:00 AM -0.07 31.874 0.118 6.9 1.89 14.12
2/8/2021 2:30:00 AM -0.07 31.874 0.118 6.9 1.82 14.11
2/8/2021 2:45:00 AM -0.07 31.874 0.118 6.9 1.85 14.11
2/8/2021 3:00:00 AM -0.07 31.874 0.119 6.9 1.85 14.11
2/8/2021 3:15:00 AM -0.07 31.874 0.119 6.89 1.87 14.11
2/8/2021 3:30:00 AM -0.07 31.874 0.119 6.89 1.86 14.12
2/8/2021 3:45:00 AM -0.07 31.874 0.119 6.89 1.82 14.11
2/8/2021 4:00:00 AM -0.07 31.874 0.119 6.89 1.87 14.11
2/8/2021 4:15:00 AM -0.07 31.874 0.119 6.89 1.87 14.11
2/8/2021 4:30:00 AM -0.07 31.874 0.119 6.88 1.84 14.11
2/8/2021 4:45:00 AM -0.07 31.874 0.119 6.89 1.82 14.11
2/8/2021 5:00:00 AM -0.07 31.874 0.119 6.88 1.93 14.1
2/8/2021 5:15:00 AM -0.07 31.874 0.12 6.88 1.9 14.11
2/8/2021 5:30:00 AM -0.07 31.874 0.12 6.88 1.83 14.1
2/8/2021 5:45:00 AM -0.07 31.874 0.12 6.88 2.58 14.1
2/8/2021 6:00:00 AM -0.07 31.874 0.12 6.87 1.8 14.1
2/8/2021 6:15:00 AM -0.07 31.874 0.12 6.88 1.89 14.11
2/8/2021 6:30:00 AM -0.07 31.874 0.12 6.87 1.83 14.1
2/8/2021 6:45:00 AM -0.07 31.874 0.121 6.87 1.99 14.11
2/8/2021 7:00:00 AM -0.07 31.874 0.121 6.86 1.92 14.1
2/8/2021 7:15:00 AM -0.07 31.874 0.121 6.86 1.87 14.11
2/8/2021 7:30:00 AM -0.07 31.874 0.121 6.86 1.86 14.12
2/8/2021 7:45:00 AM -0.07 31.874 0.121 6.86 1.88 14.13
2/8/2021 8:00:00 AM -0.07 31.874 0.121 6.87 1.86 14.16
2/8/2021 8:15:00 AM -0.07 31.874 0.121 6.87 1.83 14.2
2/8/2021 8:30:00 AM -0.07 31.874 0.121 6.88 1.91 14.24
2/8/2021 8:45:00 AM -0.07 31.874 0.121 6.88 1.88 14.3
2/8/2021 9:00:00 AM -0.07 31.874 0.121 6.89 1.78 14.32
2/8/2021 9:15:00 AM -0.07 31.874 0.12 6.89 1.86 14.38
2/8/2021 9:30:00 AM -0.07 31.874 0.12 6.9 1.8 14.44
2/8/2021 9:45:00 AM -0.06 31.892 0.12 6.91 1.88 14.48
2/8/2021 10:00:00 AM -0.06 31.892 0.12 6.92 1.87 14.52
2/8/2021 10:15:00 AM -0.06 31.892 0.119 6.92 1.9 14.56
2/8/2021 10:30:00 AM -0.06 31.892 0.119 6.93 1.88 14.62
2/8/2021 10:45:00 AM -0.06 31.892 0.119 6.94 1.82 14.66
2/8/2021 11:00:00 AM -0.06 31.892 0.118 6.94 1.9 14.7
2/8/2021 11:15:00 AM -0.06 31.892 0.118 6.96 1.92 14.73
2/8/2021 11:30:00 AM -0.06 31.892 0.118 6.96 1.89 14.77
2/8/2021 11:45:00 AM -0.06 31.892 0.117 6.96 1.97 14.8
2/8/2021 12:00:00 PM -0.06 31.892 0.116 6.97 1.99 14.82
2/8/2021 12:15:00 PM -0.06 31.892 0.116 6.98 1.98 14.84
2/8/2021 12:30:00 PM -0.06 31.892 0.116 6.98 1.99 14.86
2/8/2021 12:45:00 PM -0.06 31.892 0.115 6.99 2.07 14.88
2/8/2021 1:00:00 PM -0.06 31.892 0.115 6.99 1.93 14.89
2/8/2021 1:15:00 PM -0.06 31.892 0.115 7 2.5 14.89
2/8/2021 1:30:00 PM -0.06 31.892 0.114 7 2 14.9
2/8/2021 1:45:00 PM -0.06 31.892 0.114 7 2 14.91
2/8/2021 2:00:00 PM -0.06 31.892 0.114 7.01 2.09 14.92
2/8/2021 2:15:00 PM -0.06 31.892 0.114 7.01 1.98 14.92
2/8/2021 2:30:00 PM -0.06 31.892 0.113 7.01 1.88 14.93
2/8/2021 2:45:00 PM -0.06 31.892 0.113 7.02 1.94 14.93
2/8/2021 3:00:00 PM -0.06 31.892 0.113 7.02 1.88 14.93
2/8/2021 3:15:00 PM -0.06 31.892 0.113 7.02 1.94 14.93
2/8/2021 3:30:00 PM -0.06 31.892 0.113 7.03 1.95 14.94
2/8/2021 3:45:00 PM -0.06 31.892 0.112 7.03 1.96 14.94
2/8/2021 4:00:00 PM -0.06 31.892 0.113 7.03 1.98 14.93
2/8/2021 4:15:00 PM -0.06 31.892 0.113 7.03 2.03 14.91
2/8/2021 4:30:00 PM -0.06 31.892 0.113 7.04 2 14.9
2/8/2021 4:45:00 PM -0.07 31.874 0.113 7.03 2.03 14.87
2/8/2021 5:00:00 PM -0.07 31.874 0.113 7.03 2.04 14.84
2/8/2021 5:15:00 PM -0.07 31.874 0.114 7.03 2.08 14.8
2/8/2021 5:30:00 PM -0.07 31.874 0.114 7.02 2.04 14.75
2/8/2021 5:45:00 PM -0.07 31.874 0.114 7.01 2.09 14.7
2/8/2021 6:00:00 PM -0.07 31.874 0.115 7 2.06 14.65
2/8/2021 6:15:00 PM -0.07 31.874 0.115 6.99 2.09 14.61
2/8/2021 6:30:00 PM -0.07 31.874 0.116 6.99 2.11 14.58
2/8/2021 6:45:00 PM -0.07 31.874 0.116 6.98 2.01 14.54
2/8/2021 7:00:00 PM -0.07 31.874 0.117 6.97 2.06 14.51
2/8/2021 7:15:00 PM -0.07 31.874 0.117 6.96 2.04 14.48
2/8/2021 7:30:00 PM -0.07 31.874 0.117 6.96 2.08 14.44
2/8/2021 7:45:00 PM -0.07 31.874 0.118 6.95 2.02 14.41
2/8/2021 8:00:00 PM -0.07 31.874 0.118 6.95 1.98 14.37
2/8/2021 8:15:00 PM -0.07 31.874 0.118 6.94 2.06 14.35
2/8/2021 8:30:00 PM -0.07 31.874 0.119 6.94 1.99 14.32
2/8/2021 8:45:00 PM -0.07 31.874 0.119 6.93 1.97 14.3
2/8/2021 9:00:00 PM -0.07 31.874 0.119 6.93 2.04 14.28
2/8/2021 9:15:00 PM -0.07 31.874 0.119 6.92 1.99 14.26
2/8/2021 9:30:00 PM -0.07 31.874 0.119 6.92 1.97 14.24
2/8/2021 9:45:00 PM -0.07 31.874 0.12 6.92 1.93 14.22
2/8/2021 10:00:00 PM -0.07 31.874 0.12 6.91 1.98 14.19
2/8/2021 10:15:00 PM -0.07 31.874 0.12 6.91 1.95 14.18
2/8/2021 10:30:00 PM -0.07 31.874 0.12 6.9 1.96 14.16
2/8/2021 10:45:00 PM -0.07 31.874 0.12 6.9 2.02 14.14
2/8/2021 11:00:00 PM -0.07 31.874 0.12 6.9 1.99 14.12
2/8/2021 11:15:00 PM -0.07 31.874 0.12 6.89 2.11 14.11
2/8/2021 11:30:00 PM -0.07 31.874 0.12 6.89 2.01 14.1
2/8/2021 11:45:00 PM -0.07 31.874 0.12 6.89 2.1 14.08
2/9/2021 12:00:00 AM -0.07 31.874 0.12 6.88 1.99 14.07
2/9/2021 12:15:00 AM -0.07 31.874 0.12 6.88 1.97 14.06
2/9/2021 12:30:00 AM -0.07 31.874 0.12 6.88 2.02 14.05
2/9/2021 12:45:00 AM -0.07 31.874 0.119 6.88 1.97 14.04
2/9/2021 1:00:00 AM -0.07 31.874 0.119 6.87 2.02 14.03
2/9/2021 1:15:00 AM -0.07 31.874 0.119 6.87 2.04 14.02
2/9/2021 1:30:00 AM -0.07 31.874 0.119 6.87 2.06 14.01
2/9/2021 1:45:00 AM -0.07 31.874 0.119 6.87 2.02 14
2/9/2021 2:00:00 AM -0.07 31.874 0.119 6.87 2.01 13.99
2/9/2021 2:15:00 AM -0.07 31.874 0.118 6.86 2.03 13.98
2/9/2021 2:30:00 AM -0.07 31.874 0.118 6.86 2.14 13.97
2/9/2021 2:45:00 AM -0.07 31.874 0.118 6.86 2.19 13.96
2/9/2021 3:00:00 AM -0.07 31.874 0.118 6.86 2.01 13.96
2/9/2021 3:15:00 AM -0.07 31.874 0.118 6.85 1.99 13.95
2/9/2021 3:30:00 AM -0.07 31.874 0.118 6.85 2.08 13.95
2/9/2021 3:45:00 AM -0.07 31.874 0.118 6.85 2.03 13.94
2/9/2021 4:00:00 AM -0.07 31.874 0.118 6.85 2.04 13.93
2/9/2021 4:15:00 AM -0.07 31.874 0.118 6.85 2.03 13.93
2/9/2021 4:30:00 AM -0.07 31.874 0.118 6.85 2.04 13.92
2/9/2021 4:45:00 AM -0.07 31.874 0.118 6.85 2.04 13.92
2/9/2021 5:00:00 AM -0.07 31.874 0.118 6.84 2.05 13.91
2/9/2021 5:15:00 AM -0.07 31.874 0.118 6.84 2.06 13.91
2/9/2021 5:30:00 AM -0.07 31.874 0.118 6.84 2.05 13.91
2/9/2021 5:45:00 AM -0.07 31.874 0.118 6.84 2.01 13.9
2/9/2021 6:00:00 AM -0.07 31.874 0.119 6.84 2.02 13.9
2/9/2021 6:15:00 AM -0.07 31.874 0.119 6.84 2.04 13.89
2/9/2021 6:30:00 AM -0.07 31.874 0.119 6.84 2.07 13.89
2/9/2021 6:45:00 AM -0.07 31.874 0.119 6.84 2.04 13.89
2/9/2021 7:00:00 AM -0.07 31.874 0.119 6.84 2.01 13.88
2/9/2021 7:15:00 AM -0.07 31.874 0.119 6.84 2.02 13.88
2/9/2021 7:30:00 AM -0.07 31.874 0.119 6.84 1.99 13.88
2/9/2021 7:45:00 AM -0.07 31.874 0.119 6.83 2.04 13.89
2/9/2021 8:00:00 AM -0.07 31.874 0.119 6.84 2.05 13.91
2/9/2021 8:15:00 AM -0.07 31.874 0.119 6.84 1.99 13.93
2/9/2021 8:30:00 AM -0.06 31.892 0.119 6.85 1.98 13.96
2/9/2021 8:45:00 AM -0.06 31.892 0.119 6.85 2.21 14
2/9/2021 9:00:00 AM -0.06 31.892 0.119 6.86 2.03 14.02
2/9/2021 9:15:00 AM -0.06 31.892 0.119 6.86 2.04 14.04
2/9/2021 9:30:00 AM -0.06 31.892 0.119 6.86 2.03 14.07
2/9/2021 9:45:00 AM -0.06 31.892 0.119 6.87 2.02 14.11
2/9/2021 10:00:00 AM -0.06 31.892 0.119 6.87 2.06 14.14
2/9/2021 10:15:00 AM -0.06 31.892 0.119 6.87 2.18 14.18
2/9/2021 10:30:00 AM -0.05 31.91 0.119 6.88 2.12 14.21
2/9/2021 10:45:00 AM -0.05 31.91 0.118 6.88 2.09 14.24
2/9/2021 11:00:00 AM -0.05 31.91 0.118 6.89 2.09 14.27
2/9/2021 11:15:00 AM -0.05 31.91 0.118 6.9 2.38 14.3
2/9/2021 11:30:00 AM -0.04 31.928 0.118 6.89 2.41 14.33
2/9/2021 11:45:00 AM -0.05 31.91 0.117 6.9 2.68 14.36
2/9/2021 12:00:00 PM -0.04 31.928 0.117 6.9 2.94 14.39
2/9/2021 12:15:00 PM -0.04 31.928 0.117 6.92 3.68 14.41
2/9/2021 12:30:00 PM -0.05 31.91 0.117 6.93 4.01 14.43
2/9/2021 12:45:00 PM -0.04 31.928 0.116 6.93 4.65 14.45
2/9/2021 1:00:00 PM -0.04 31.928 0.116 6.91 6.36 14.47
2/9/2021 1:15:00 PM -0.05 31.91 0.116 6.9 19.47 14.49
2/9/2021 1:30:00 PM -0.05 31.91 0.116 6.9 7.49 14.49
2/9/2021 1:45:00 PM -0.05 31.91 0.115 6.89 4.73 14.5
2/9/2021 2:00:00 PM -0.05 31.91 0.115 6.89 3.25 14.51
2/9/2021 2:15:00 PM -0.05 31.91 0.115 6.89 2.87 14.52
2/9/2021 2:30:00 PM -0.04 31.928 0.115 6.9 2.59 14.52
2/9/2021 2:45:00 PM -0.04 31.928 0.114 6.92 2.59 14.54
2/9/2021 3:00:00 PM -0.05 31.91 0.114 6.95 2.73 14.54
2/9/2021 3:15:00 PM -0.05 31.91 0.114 6.95 4.76 14.54
2/9/2021 3:30:00 PM -0.05 31.91 0.114 6.96 3.64 14.52
2/9/2021 3:45:00 PM -0.05 31.91 0.114 6.95 3.1 14.52
2/9/2021 4:00:00 PM -0.05 31.91 0.114 6.95 2.87 14.52
2/9/2021 4:15:00 PM -0.06 31.892 0.114 6.95 2.58 14.51
2/9/2021 4:30:00 PM -0.06 31.892 0.114 6.94 2.65 14.5
2/9/2021 4:45:00 PM -0.06 31.892 0.113 6.93 2.65 14.49
2/9/2021 5:00:00 PM -0.06 31.892 0.113 6.92 2.73 14.46
2/9/2021 5:15:00 PM -0.06 31.892 0.113 6.92 2.75 14.44
2/9/2021 5:30:00 PM -0.06 31.892 0.113 6.91 2.7 14.4
2/9/2021 5:45:00 PM -0.07 31.874 0.113 6.91 2.72 14.36
2/9/2021 6:00:00 PM -0.07 31.874 0.113 6.9 2.75 14.33
2/9/2021 6:15:00 PM -0.07 31.874 0.113 6.9 2.78 14.3
2/9/2021 6:30:00 PM -0.07 31.874 0.113 6.89 2.85 14.28
2/9/2021 6:45:00 PM -0.07 31.874 0.113 6.88 3.01 14.25
2/9/2021 7:00:00 PM -0.07 31.874 0.113 6.87 3.14 14.22
2/9/2021 7:15:00 PM -0.07 31.874 0.113 6.88 3.27 14.2
2/9/2021 7:30:00 PM -0.07 31.874 0.113 6.87 3.88 14.18
2/9/2021 7:45:00 PM -0.07 31.874 0.113 6.87 4.06 14.16
2/9/2021 8:00:00 PM -0.07 31.874 0.113 6.87 4.33 14.14
2/9/2021 8:15:00 PM -0.07 31.874 0.113 6.86 4.6 14.13
2/9/2021 8:30:00 PM -0.07 31.874 0.113 6.85 4.69 14.11
2/9/2021 8:45:00 PM -0.07 31.874 0.113 6.84 4.99 14.09
2/9/2021 9:00:00 PM -0.07 31.874 0.112 6.85 5.2 14.08
2/9/2021 9:15:00 PM -0.07 31.874 0.112 6.85 5.23 14.07
2/9/2021 9:30:00 PM -0.07 31.874 0.112 6.85 5.34 14.06
2/9/2021 9:45:00 PM -0.07 31.874 0.112 6.84 5.11 14.05
2/9/2021 10:00:00 PM -0.07 31.874 0.112 6.84 4.63 14.04
2/9/2021 10:15:00 PM -0.07 31.874 0.112 6.83 4.52 14.03
2/9/2021 10:30:00 PM -0.07 31.874 0.112 6.82 4.56 14.02
2/9/2021 10:45:00 PM -0.07 31.874 0.112 6.83 4.72 14.01
2/9/2021 11:00:00 PM -0.07 31.874 0.111 6.82 4.92 14
2/9/2021 11:15:00 PM -0.07 31.874 0.111 6.83 4.85 13.99
2/9/2021 11:30:00 PM -0.07 31.874 0.111 6.83 4.63 13.99
2/9/2021 11:45:00 PM -0.07 31.874 0.111 6.82 4.73 13.98
2/10/2021 12:00:00 AM -0.07 31.874 0.111 6.83 4.75 13.97
2/10/2021 12:15:00 AM -0.07 31.874 0.111 6.83 4.63 13.97
2/10/2021 12:30:00 AM -0.07 31.874 0.111 6.83 4.81 13.97
2/10/2021 12:45:00 AM -0.07 31.874 0.111 6.83 4.78 13.97
2/10/2021 1:00:00 AM -0.07 31.874 0.111 6.83 4.76 13.96
2/10/2021 1:15:00 AM -0.07 31.874 0.111 6.82 4.82 13.96
2/10/2021 1:30:00 AM -0.07 31.874 0.111 6.82 4.76 13.96
2/10/2021 1:45:00 AM -0.07 31.874 0.111 6.82 4.79 13.96
2/10/2021 2:00:00 AM -0.07 31.874 0.111 6.81 4.82 13.96
2/10/2021 2:15:00 AM -0.07 31.874 0.111 6.82 4.75 13.96
2/10/2021 2:30:00 AM -0.07 31.874 0.111 6.81 4.78 13.96
2/10/2021 2:45:00 AM -0.07 31.874 0.111 6.81 4.62 13.96
2/10/2021 3:00:00 AM -0.07 31.874 0.111 6.82 4.56 13.96
2/10/2021 3:15:00 AM -0.07 31.874 0.111 6.81 4.64 13.96
2/10/2021 3:30:00 AM -0.07 31.874 0.111 6.81 4.63 13.96
2/10/2021 3:45:00 AM -0.07 31.874 0.111 6.81 4.66 13.96
2/10/2021 4:00:00 AM -0.07 31.874 0.111 6.81 4.74 13.96
2/10/2021 4:15:00 AM -0.07 31.874 0.111 6.81 4.83 13.96
2/10/2021 4:30:00 AM -0.08 31.856 0.111 6.81 4.75 13.97
2/10/2021 4:45:00 AM -0.08 31.856 0.112 6.8 4.76 13.97
2/10/2021 5:00:00 AM -0.08 31.856 0.112 6.81 4.94 13.98
2/10/2021 5:15:00 AM -0.08 31.856 0.112 6.81 4.94 13.98
2/10/2021 5:30:00 AM -0.08 31.856 0.112 6.81 4.91 13.98
2/10/2021 5:45:00 AM -0.08 31.856 0.112 6.82 5.12 13.99
2/10/2021 6:00:00 AM -0.08 31.856 0.112 6.82 5.61 13.99
2/10/2021 6:15:00 AM -0.08 31.856 0.112 6.82 5.87 13.99
2/10/2021 6:30:00 AM -0.08 31.856 0.112 6.82 5.99 13.99
2/10/2021 6:45:00 AM -0.08 31.856 0.113 6.82 5.93 14
2/10/2021 7:00:00 AM -0.08 31.856 0.113 6.82 6.15 14
2/10/2021 7:15:00 AM -0.08 31.856 0.113 6.82 6.15 14
2/10/2021 7:30:00 AM -0.07 31.874 0.113 6.83 6.25 14.02
2/10/2021 7:45:00 AM -0.07 31.874 0.113 6.83 6.26 14.06
2/10/2021 8:00:00 AM -0.07 31.874 0.113 6.84 6.25 14.1
2/10/2021 8:15:00 AM -0.07 31.874 0.113 6.85 6.31 14.14
2/10/2021 8:30:00 AM -0.07 31.874 0.114 6.85 6.32 14.16
2/10/2021 8:45:00 AM -0.07 31.874 0.114 6.85 6.28 14.19
2/10/2021 9:00:00 AM -0.06 31.892 0.114 6.86 6.3 14.22
2/10/2021 9:15:00 AM -0.06 31.892 0.114 6.87 6.33 14.27
2/10/2021 9:30:00 AM -0.06 31.892 0.114 6.89 6.41 14.3
2/10/2021 9:45:00 AM -0.05 31.91 0.114 6.89 6.52 14.34
2/10/2021 10:00:00 AM -0.05 31.91 0.113 6.89 2.96 14.39
2/10/2021 10:15:00 AM -0.04 31.928 0.113 6.87 2.5 14.42
2/10/2021 10:30:00 AM -0.04 31.928 0.113 6.84 2.74 14.46
2/10/2021 10:45:00 AM -0.05 31.91 0.113 6.85 2.68 14.49
2/10/2021 11:00:00 AM -0.04 31.928 0.113 6.85 2.66 14.52
2/10/2021 11:15:00 AM -0.03 31.946 0.113 6.86 2.68 14.55
2/10/2021 11:30:00 AM -0.03 31.946 0.113 6.87 2.55 14.58
2/10/2021 11:45:00 AM -0.03 31.946 0.113 6.88 2.43 14.61
2/10/2021 12:00:00 PM -0.03 31.946 0.113 6.88 2.42 14.63
2/10/2021 12:15:00 PM -0.03 31.946 0.112 6.88 2.62 14.65
2/10/2021 12:30:00 PM -0.03 31.946 0.112 6.89 2.46 14.67
2/10/2021 12:45:00 PM -0.03 31.946 0.112 6.9 2.39 14.68
2/10/2021 1:00:00 PM -0.03 31.946 0.112 6.91 2.35 14.69
2/10/2021 1:15:00 PM -0.02 31.964 0.112 6.91 2.29 14.71
2/10/2021 1:30:00 PM -0.03 31.946 0.111 6.92 2.37 14.72
2/10/2021 1:45:00 PM -0.03 31.946 0.111 6.92 2.26 14.73
2/10/2021 2:00:00 PM -0.03 31.946 0.111 6.92 2.33 14.74
2/10/2021 2:15:00 PM -0.03 31.946 0.111 6.93 2.28 14.75
2/10/2021 2:30:00 PM -0.03 31.946 0.111 6.93 2.2 14.76
2/10/2021 2:45:00 PM -0.03 31.946 0.11 6.93 2.21 14.75
2/10/2021 3:00:00 PM -0.04 31.928 0.11 6.95 2.2 14.76
2/10/2021 3:15:00 PM -0.04 31.928 0.11 6.95 2.28 14.75
2/10/2021 3:30:00 PM -0.04 31.928 0.11 6.96 2.18 14.75
2/10/2021 3:45:00 PM -0.04 31.928 0.109 6.95 2.15 14.74
2/10/2021 4:00:00 PM -0.05 31.91 0.109 6.95 2.16 14.73
2/10/2021 4:15:00 PM -0.05 31.91 0.109 6.95 2.09 14.72
2/10/2021 4:30:00 PM -0.05 31.91 0.109 6.95 2.15 14.7
2/10/2021 4:45:00 PM -0.06 31.892 0.109 6.95 2.12 14.67
2/10/2021 5:00:00 PM -0.06 31.892 0.109 6.94 2.15 14.64
2/10/2021 5:15:00 PM -0.06 31.892 0.109 6.94 2.11 14.6
2/10/2021 5:30:00 PM -0.07 31.874 0.109 6.93 2.11 14.55
2/10/2021 5:45:00 PM -0.07 31.874 0.108 6.92 2.14 14.5
2/10/2021 6:00:00 PM -0.07 31.874 0.108 6.91 2.14 14.46
2/10/2021 6:15:00 PM -0.07 31.874 0.108 6.9 2.1 14.43
2/10/2021 6:30:00 PM -0.07 31.874 0.108 6.89 2.09 14.4
2/10/2021 6:45:00 PM -0.07 31.874 0.108 6.89 2.14 14.36
2/10/2021 7:00:00 PM -0.07 31.874 0.108 6.88 2.13 14.33
2/10/2021 7:15:00 PM -0.07 31.874 0.108 6.87 2.13 14.3
2/10/2021 7:30:00 PM -0.07 31.874 0.108 6.87 2.1 14.27
2/10/2021 7:45:00 PM -0.07 31.874 0.108 6.86 2.14 14.25
2/10/2021 8:00:00 PM -0.07 31.874 0.108 6.86 2.13 14.23
2/10/2021 8:15:00 PM -0.07 31.874 0.108 6.85 2.11 14.21
2/10/2021 8:30:00 PM -0.07 31.874 0.108 6.84 2.08 14.19
2/10/2021 8:45:00 PM -0.07 31.874 0.108 6.84 2.08 14.17
2/10/2021 9:00:00 PM -0.07 31.874 0.108 6.84 2.03 14.16
2/10/2021 9:15:00 PM -0.07 31.874 0.108 6.84 2 14.14
2/10/2021 9:30:00 PM -0.07 31.874 0.108 6.84 2.11 14.13
2/10/2021 9:45:00 PM -0.07 31.874 0.108 6.83 2.09 14.11
2/10/2021 10:00:00 PM -0.07 31.874 0.108 6.84 2.08 14.1
2/10/2021 10:15:00 PM -0.07 31.874 0.108 6.84 2.15 14.09
2/10/2021 10:30:00 PM -0.07 31.874 0.108 6.82 2.13 14.08
2/10/2021 10:45:00 PM -0.07 31.874 0.108 6.83 2.19 14.07
2/10/2021 11:00:00 PM -0.07 31.874 0.108 6.85 2.11 14.05
2/10/2021 11:15:00 PM -0.07 31.874 0.108 6.86 2.07 14.05
2/10/2021 11:30:00 PM -0.07 31.874 0.108 6.84 2.12 14.03
2/10/2021 11:45:00 PM -0.07 31.874 0.108 6.85 2.32 14.03
2/11/2021 12:00:00 AM -0.07 31.874 0.108 6.85 2.61 14.02
2/11/2021 12:15:00 AM -0.07 31.874 0.108 6.85 2.56 14.01
2/11/2021 12:30:00 AM -0.07 31.874 0.108 6.84 2.54 14
2/11/2021 12:45:00 AM -0.07 31.874 0.108 6.84 2.51 13.99
2/11/2021 1:00:00 AM -0.07 31.874 0.108 6.84 2.4 13.99
2/11/2021 1:15:00 AM -0.07 31.874 0.108 6.84 2.4 13.98
2/11/2021 1:30:00 AM -0.07 31.874 0.108 6.83 2.35 13.97
2/11/2021 1:45:00 AM -0.07 31.874 0.108 6.84 2.33 13.97
2/11/2021 2:00:00 AM -0.07 31.874 0.108 6.83 2.34 13.96
2/11/2021 2:15:00 AM -0.07 31.874 0.108 6.83 2.28 13.96
2/11/2021 2:30:00 AM -0.07 31.874 0.108 6.83 2.32 13.95
2/11/2021 2:45:00 AM -0.07 31.874 0.108 6.83 2.3 13.95
2/11/2021 3:00:00 AM -0.07 31.874 0.108 6.83 2.32 13.94
2/11/2021 3:15:00 AM -0.07 31.874 0.108 6.83 2.32 13.94
2/11/2021 3:30:00 AM -0.07 31.874 0.108 6.83 2.33 13.93
2/11/2021 3:45:00 AM -0.07 31.874 0.108 6.83 2.3 13.93
2/11/2021 4:00:00 AM -0.07 31.874 0.108 6.82 2.27 13.93
2/11/2021 4:15:00 AM -0.07 31.874 0.108 6.83 2.29 13.93
2/11/2021 4:30:00 AM -0.07 31.874 0.108 6.83 2.32 13.92
2/11/2021 4:45:00 AM -0.07 31.874 0.108 6.82 2.3 13.92
2/11/2021 5:00:00 AM -0.07 31.874 0.108 6.82 2.34 13.92
2/11/2021 5:15:00 AM -0.07 31.874 0.108 6.82 2.33 13.92
2/11/2021 5:30:00 AM -0.07 31.874 0.108 6.81 2.32 13.92
2/11/2021 5:45:00 AM -0.07 31.874 0.108 6.82 2.3 13.91
2/11/2021 6:00:00 AM -0.07 31.874 0.108 6.82 2.31 13.92
2/11/2021 6:15:00 AM -0.07 31.874 0.108 6.81 2.32 13.91
2/11/2021 6:30:00 AM -0.07 31.874 0.109 6.81 2.31 13.91
2/11/2021 6:45:00 AM -0.07 31.874 0.109 6.81 2.3 13.91
2/11/2021 7:00:00 AM -0.07 31.874 0.109 6.81 2.4 13.91
2/11/2021 7:15:00 AM -0.07 31.874 0.109 6.81 2.31 13.92
2/11/2021 7:30:00 AM -0.07 31.874 0.109 6.81 2.31 13.92
2/11/2021 7:45:00 AM -0.07 31.874 0.109 6.81 2.32 13.93
2/11/2021 8:00:00 AM -0.07 31.874 0.109 6.82 2.32 13.96
2/11/2021 8:15:00 AM -0.07 31.874 0.109 6.82 2.32 13.98
2/11/2021 8:30:00 AM -0.07 31.874 0.109 6.82 2.33 14
2/11/2021 8:45:00 AM -0.07 31.874 0.109 6.83 2.28 14.02
2/11/2021 9:00:00 AM -0.07 31.874 0.109 6.82 2.25 14.04
2/11/2021 9:15:00 AM -0.07 31.874 0.109 6.83 2.25 14.06
2/11/2021 9:30:00 AM -0.07 31.874 0.109 6.83 2.21 14.08
2/11/2021 9:45:00 AM -0.07 31.874 0.109 6.83 2.19 14.11
2/11/2021 10:00:00 AM -0.07 31.874 0.109 6.83 2.22 14.13
2/11/2021 10:15:00 AM -0.06 31.892 0.109 6.84 2.19 14.14
2/11/2021 10:30:00 AM -0.06 31.892 0.109 6.79 2.1 14.17
2/11/2021 10:45:00 AM -0.05 31.91 0.108 6.83 1.62 14.21
2/11/2021 11:00:00 AM -0.04 31.928 0.108 6.84 1.62 14.25
2/11/2021 11:15:00 AM -0.03 31.946 0.108 6.85 1.6 14.27
2/11/2021 11:30:00 AM -0.03 31.946 0.108 6.86 1.57 14.28
2/11/2021 11:45:00 AM -0.02 31.964 0.108 6.86 1.66 14.3
2/11/2021 12:00:00 PM -0.02 31.964 0.108 6.87 1.61 14.32
2/11/2021 12:15:00 PM 0 32 0.108 6.88 1.62 14.34
2/11/2021 12:30:00 PM 0 32 0.108 6.87 1.65 14.36
2/11/2021 12:45:00 PM 0 32 0.108 6.87 1.65 14.38
2/11/2021 1:00:00 PM -0.01 31.982 0.108 6.89 1.67 14.39
2/11/2021 1:15:00 PM -0.01 31.982 0.108 6.89 1.65 14.39
2/11/2021 1:30:00 PM -0.01 31.982 0.107 6.9 1.64 14.4
2/11/2021 1:45:00 PM -0.01 31.982 0.107 6.9 1.66 14.4
2/11/2021 2:00:00 PM -0.02 31.964 0.107 6.91 1.7 14.41
2/11/2021 2:15:00 PM -0.02 31.964 0.107 6.92 1.63 14.42
2/11/2021 2:30:00 PM -0.02 31.964 0.107 6.93 1.64 14.42
2/11/2021 2:45:00 PM -0.03 31.946 0.107 6.93 1.63 14.43
2/11/2021 3:00:00 PM -0.03 31.946 0.107 6.93 1.65 14.43
2/11/2021 3:15:00 PM -0.03 31.946 0.107 6.94 1.68 14.44
2/11/2021 3:30:00 PM -0.03 31.946 0.107 6.94 1.6 14.44
2/11/2021 3:45:00 PM -0.04 31.928 0.107 6.94 1.67 14.45
2/11/2021 4:00:00 PM -0.05 31.91 0.107 6.94 1.62 14.45
2/11/2021 4:15:00 PM -0.05 31.91 0.107 6.94 1.63 14.45
2/11/2021 4:30:00 PM -0.06 31.892 0.106 6.94 1.65 14.44
2/11/2021 4:45:00 PM -0.06 31.892 0.106 6.94 1.66 14.43
2/11/2021 5:00:00 PM -0.06 31.892 0.106 6.94 1.65 14.42
2/11/2021 5:15:00 PM -0.07 31.874 0.106 6.94 1.67 14.4
2/11/2021 5:30:00 PM -0.07 31.874 0.106 6.93 1.66 14.37
2/11/2021 5:45:00 PM -0.07 31.874 0.106 6.92 1.67 14.33
2/11/2021 6:00:00 PM -0.08 31.856 0.106 6.92 1.69 14.31
2/11/2021 6:15:00 PM -0.08 31.856 0.106 6.91 1.66 14.28
2/11/2021 6:30:00 PM -0.08 31.856 0.106 6.9 1.65 14.26
2/11/2021 6:45:00 PM -0.08 31.856 0.106 6.89 1.68 14.25
2/11/2021 7:00:00 PM -0.07 31.874 0.106 6.88 1.65 14.23
2/11/2021 7:15:00 PM -0.07 31.874 0.107 6.88 1.65 14.21
2/11/2021 7:30:00 PM -0.07 31.874 0.107 6.87 1.65 14.19
2/11/2021 7:45:00 PM -0.07 31.874 0.107 6.87 1.61 14.17
2/11/2021 8:00:00 PM -0.07 31.874 0.107 6.87 1.65 14.16
2/11/2021 8:15:00 PM -0.07 31.874 0.107 6.86 1.66 14.15
2/11/2021 8:30:00 PM -0.07 31.874 0.107 6.86 1.68 14.13
2/11/2021 8:45:00 PM -0.07 31.874 0.107 6.86 1.69 14.12
2/11/2021 9:00:00 PM -0.07 31.874 0.107 6.85 1.69 14.12
2/11/2021 9:15:00 PM -0.07 31.874 0.107 6.84 1.66 14.11
2/11/2021 9:30:00 PM -0.07 31.874 0.107 6.84 1.7 14.1
2/11/2021 9:45:00 PM -0.07 31.874 0.107 6.84 1.68 14.1
2/11/2021 10:00:00 PM -0.08 31.856 0.107 6.83 1.7 14.09
2/11/2021 10:15:00 PM -0.08 31.856 0.107 6.82 1.67 14.08
2/11/2021 10:30:00 PM -0.08 31.856 0.107 6.83 1.69 14.08
2/11/2021 10:45:00 PM -0.08 31.856 0.107 6.82 1.69 14.07
2/11/2021 11:00:00 PM -0.08 31.856 0.107 6.82 1.69 14.07
2/11/2021 11:15:00 PM -0.08 31.856 0.107 6.82 1.68 14.07
2/11/2021 11:30:00 PM -0.08 31.856 0.107 6.82 1.7 14.06
2/11/2021 11:45:00 PM -0.08 31.856 0.107 6.82 1.72 14.06
2/12/2021 12:00:00 AM -0.08 31.856 0.107 6.82 1.73 14.05
2/12/2021 12:15:00 AM -0.08 31.856 0.107 6.83 1.73 14.05
2/12/2021 12:30:00 AM -0.08 31.856 0.107 6.83 1.71 14.05
2/12/2021 12:45:00 AM -0.08 31.856 0.107 6.82 1.7 14.05
2/12/2021 1:00:00 AM -0.08 31.856 0.107 6.83 1.75 14.05
2/12/2021 1:15:00 AM -0.08 31.856 0.107 6.83 1.74 14.04
2/12/2021 1:30:00 AM -0.08 31.856 0.107 6.83 1.74 14.04
2/12/2021 1:45:00 AM -0.08 31.856 0.108 6.84 1.73 14.04
2/12/2021 2:00:00 AM -0.08 31.856 0.108 6.84 1.71 14.04
2/12/2021 2:15:00 AM -0.08 31.856 0.108 6.84 1.73 14.04
2/12/2021 2:30:00 AM -0.08 31.856 0.108 6.84 1.74 14.03
2/12/2021 2:45:00 AM -0.08 31.856 0.108 6.84 1.73 14.03
2/12/2021 3:00:00 AM -0.08 31.856 0.108 6.84 1.7 14.03
2/12/2021 3:15:00 AM -0.08 31.856 0.108 6.84 1.72 14.03
2/12/2021 3:30:00 AM -0.08 31.856 0.108 6.84 1.73 14.03
2/12/2021 3:45:00 AM -0.08 31.856 0.109 6.84 1.77 14.02
2/12/2021 4:00:00 AM -0.08 31.856 0.109 6.83 1.73 14.02
2/12/2021 4:15:00 AM -0.08 31.856 0.109 6.83 1.72 14.02
2/12/2021 4:30:00 AM -0.07 31.874 0.109 6.83 1.75 14.01
2/12/2021 4:45:00 AM -0.07 31.874 0.109 6.84 1.78 14.01
2/12/2021 5:00:00 AM -0.07 31.874 0.109 6.83 1.73 14.01
2/12/2021 5:15:00 AM -0.07 31.874 0.109 6.83 1.73 14
2/12/2021 5:30:00 AM -0.07 31.874 0.109 6.83 1.75 14
2/12/2021 5:45:00 AM -0.07 31.874 0.109 6.83 1.76 14
2/12/2021 6:00:00 AM -0.07 31.874 0.109 6.83 1.77 14
2/12/2021 6:15:00 AM -0.07 31.874 0.109 6.83 1.79 13.99
2/12/2021 6:30:00 AM -0.07 31.874 0.109 6.83 1.81 13.99
2/12/2021 6:45:00 AM -0.07 31.874 0.109 6.82 1.75 13.99
2/12/2021 7:00:00 AM -0.07 31.874 0.109 6.83 1.82 13.99
2/12/2021 7:15:00 AM -0.07 31.874 0.109 6.82 1.79 13.99
2/12/2021 7:30:00 AM -0.07 31.874 0.109 6.82 1.83 14
2/12/2021 7:45:00 AM -0.07 31.874 0.109 6.82 1.8 14.02
2/12/2021 8:00:00 AM -0.07 31.874 0.109 6.83 1.8 14.04
2/12/2021 8:15:00 AM -0.07 31.874 0.109 6.83 1.78 14.06
2/12/2021 8:30:00 AM -0.07 31.874 0.109 6.84 1.75 14.09
2/12/2021 8:45:00 AM -0.07 31.874 0.109 6.84 1.76 14.12
2/12/2021 9:00:00 AM -0.07 31.874 0.109 6.84 1.74 14.14
2/12/2021 9:15:00 AM -0.06 31.892 0.109 6.85 1.71 14.17
2/12/2021 9:30:00 AM -0.06 31.892 0.109 6.86 1.75 14.2
2/12/2021 9:45:00 AM -0.06 31.892 0.109 6.86 1.75 14.23
2/12/2021 10:00:00 AM -0.06 31.892 0.109 6.87 1.73 14.26
2/12/2021 10:15:00 AM -0.06 31.892 0.109 6.88 1.72 14.3
2/12/2021 10:30:00 AM -0.06 31.892 0.108 6.89 1.74 14.32
2/12/2021 10:45:00 AM -0.06 31.892 0.108 6.9 1.77 14.34
2/12/2021 11:00:00 AM -0.06 31.892 0.108 6.9 1.75 14.37
2/12/2021 11:15:00 AM -0.06 31.892 0.108 6.9 1.73 14.39
2/12/2021 11:30:00 AM -0.06 31.892 0.108 6.9 1.71 14.41
2/12/2021 11:45:00 AM -0.06 31.892 0.108 6.91 1.74 14.45
2/12/2021 12:00:00 PM -0.06 31.892 0.108 6.9 1.76 14.46
2/12/2021 12:15:00 PM -0.06 31.892 0.108 6.9 1.75 14.47
2/12/2021 12:30:00 PM -0.06 31.892 0.108 6.9 1.77 14.48
2/12/2021 12:45:00 PM -0.06 31.892 0.108 6.9 1.75 14.49
2/12/2021 1:00:00 PM -0.06 31.892 0.108 6.91 1.68 14.48
2/12/2021 1:15:00 PM -0.06 31.892 0.108 6.9 1.73 14.49
2/12/2021 1:30:00 PM -0.06 31.892 0.108 6.9 1.69 14.49
2/12/2021 1:45:00 PM -0.06 31.892 0.108 6.9 1.72 14.49
2/12/2021 2:00:00 PM -0.06 31.892 0.108 6.9 1.77 14.49
2/12/2021 2:15:00 PM -0.06 31.892 0.107 6.89 1.7 14.5
2/12/2021 2:30:00 PM -0.06 31.892 0.107 6.9 1.74 14.5
2/12/2021 2:45:00 PM -0.06 31.892 0.107 6.9 1.74 14.5
2/12/2021 3:00:00 PM -0.06 31.892 0.107 6.9 1.74 14.5
2/12/2021 3:15:00 PM -0.06 31.892 0.107 6.9 1.75 14.49
2/12/2021 3:30:00 PM -0.06 31.892 0.107 6.9 1.75 14.49
2/12/2021 3:45:00 PM -0.06 31.892 0.107 6.9 1.76 14.48
2/12/2021 4:00:00 PM -0.06 31.892 0.107 6.9 1.76 14.48
2/12/2021 4:15:00 PM -0.07 31.874 0.107 6.9 1.75 14.47
2/12/2021 4:30:00 PM -0.07 31.874 0.107 6.89 1.74 14.44
2/12/2021 4:45:00 PM -0.07 31.874 0.107 6.89 1.76 14.41
2/12/2021 5:00:00 PM -0.07 31.874 0.107 6.89 1.77 14.39
2/12/2021 5:15:00 PM -0.07 31.874 0.107 6.89 1.76 14.36
2/12/2021 5:30:00 PM -0.07 31.874 0.107 6.88 1.8 14.34
2/12/2021 5:45:00 PM -0.07 31.874 0.107 6.87 1.74 14.31
2/12/2021 6:00:00 PM -0.07 31.874 0.107 6.87 1.78 14.29
2/12/2021 6:15:00 PM -0.07 31.874 0.107 6.86 1.77 14.26
2/12/2021 6:30:00 PM -0.07 31.874 0.107 6.86 1.74 14.24
2/12/2021 6:45:00 PM -0.07 31.874 0.107 6.85 1.76 14.22
2/12/2021 7:00:00 PM -0.07 31.874 0.107 6.85 1.74 14.2
2/12/2021 7:15:00 PM -0.07 31.874 0.107 6.84 1.77 14.18
2/12/2021 7:30:00 PM -0.07 31.874 0.107 6.84 1.76 14.17
2/12/2021 7:45:00 PM -0.07 31.874 0.107 6.83 1.75 14.15
2/12/2021 8:00:00 PM -0.07 31.874 0.107 6.83 1.77 14.13
2/12/2021 8:15:00 PM -0.07 31.874 0.107 6.84 1.79 14.12
2/12/2021 8:30:00 PM -0.07 31.874 0.107 6.83 1.78 14.11
2/12/2021 8:45:00 PM -0.07 31.874 0.107 6.83 1.8 14.09
2/12/2021 9:00:00 PM -0.07 31.874 0.107 6.83 1.75 14.08
2/12/2021 9:15:00 PM -0.07 31.874 0.107 6.82 1.78 14.07
2/12/2021 9:30:00 PM -0.07 31.874 0.107 6.82 1.8 14.06
2/12/2021 9:45:00 PM -0.07 31.874 0.107 6.82 1.8 14.05
2/12/2021 10:00:00 PM -0.07 31.874 0.107 6.82 1.8 14.04
2/12/2021 10:15:00 PM -0.07 31.874 0.107 6.82 1.81 14.03
2/12/2021 10:30:00 PM -0.07 31.874 0.107 6.82 1.81 14.02
2/12/2021 10:45:00 PM -0.07 31.874 0.107 6.81 1.81 14.02
2/12/2021 11:00:00 PM -0.07 31.874 0.107 6.82 1.82 14.01
2/12/2021 11:15:00 PM -0.07 31.874 0.107 6.81 1.84 14
2/12/2021 11:30:00 PM -0.07 31.874 0.107 6.82 1.8 14
2/12/2021 11:45:00 PM -0.07 31.874 0.107 6.81 1.81 13.99
2/13/2021 12:00:00 AM -0.07 31.874 0.107 6.81 1.82 13.99
2/13/2021 12:15:00 AM -0.07 31.874 0.107 6.82 1.88 13.98
2/13/2021 12:30:00 AM -0.07 31.874 0.107 6.82 1.82 13.98
2/13/2021 12:45:00 AM -0.07 31.874 0.107 6.82 1.88 13.97
2/13/2021 1:00:00 AM -0.07 31.874 0.107 6.82 1.81 13.97
2/13/2021 1:15:00 AM -0.07 31.874 0.108 6.82 1.83 13.97
2/13/2021 1:30:00 AM -0.08 31.856 0.108 6.82 1.83 13.97
2/13/2021 1:45:00 AM -0.08 31.856 0.108 6.82 1.88 13.97
2/13/2021 2:00:00 AM -0.08 31.856 0.108 6.82 1.82 13.96
2/13/2021 2:15:00 AM -0.08 31.856 0.108 6.82 1.85 13.96
2/13/2021 2:30:00 AM -0.08 31.856 0.108 6.83 1.83 13.96
2/13/2021 2:45:00 AM -0.08 31.856 0.108 6.83 1.84 13.96
2/13/2021 3:00:00 AM -0.08 31.856 0.108 6.83 1.79 13.96
2/13/2021 3:15:00 AM -0.07 31.874 0.108 6.83 1.88 13.96
2/13/2021 3:30:00 AM -0.07 31.874 0.108 6.83 1.84 13.95
2/13/2021 3:45:00 AM -0.07 31.874 0.108 6.83 1.82 13.95
2/13/2021 4:00:00 AM -0.08 31.856 0.109 6.83 1.88 13.95
2/13/2021 4:15:00 AM -0.08 31.856 0.109 6.83 1.84 13.94
2/13/2021 4:30:00 AM -0.08 31.856 0.109 6.82 1.94 13.94
2/13/2021 4:45:00 AM -0.07 31.874 0.109 6.83 1.88 13.94
2/13/2021 5:00:00 AM -0.07 31.874 0.109 6.82 1.87 13.94
2/13/2021 5:15:00 AM -0.07 31.874 0.109 6.82 1.9 13.93
2/13/2021 5:30:00 AM -0.07 31.874 0.109 6.82 1.91 13.93
2/13/2021 5:45:00 AM -0.07 31.874 0.109 6.82 1.9 13.94
2/13/2021 6:00:00 AM -0.07 31.874 0.109 6.82 1.9 13.93
2/13/2021 6:15:00 AM -0.08 31.856 0.109 6.83 1.94 13.93
2/13/2021 6:30:00 AM -0.08 31.856 0.109 6.82 1.9 13.93
2/13/2021 6:45:00 AM -0.08 31.856 0.11 6.82 1.9 13.93
2/13/2021 7:00:00 AM -0.08 31.856 0.11 6.81 1.88 13.93
2/13/2021 7:15:00 AM -0.08 31.856 0.11 6.82 1.86 13.93
2/13/2021 7:30:00 AM -0.07 31.874 0.11 6.82 1.87 13.95
2/13/2021 7:45:00 AM -0.07 31.874 0.11 6.82 1.87 13.97
2/13/2021 8:00:00 AM -0.07 31.874 0.11 6.83 1.84 13.99
2/13/2021 8:15:00 AM -0.07 31.874 0.11 6.83 1.84 14.02
2/13/2021 8:30:00 AM -0.07 31.874 0.11 6.83 1.87 14.05
2/13/2021 8:45:00 AM -0.07 31.874 0.109 6.84 1.85 14.08
2/13/2021 9:00:00 AM -0.07 31.874 0.11 6.84 1.78 14.11
2/13/2021 9:15:00 AM -0.06 31.892 0.11 6.85 1.85 14.15
2/13/2021 9:30:00 AM -0.06 31.892 0.11 6.85 1.82 14.19
2/13/2021 9:45:00 AM -0.06 31.892 0.109 6.86 1.83 14.23
2/13/2021 10:00:00 AM -0.06 31.892 0.109 6.87 1.84 14.27
2/13/2021 10:15:00 AM -0.06 31.892 0.109 6.88 1.83 14.3
2/13/2021 10:30:00 AM -0.06 31.892 0.109 6.88 2.12 14.34
2/13/2021 10:45:00 AM -0.06 31.892 0.109 6.89 1.83 14.37
2/13/2021 11:00:00 AM -0.06 31.892 0.109 6.89 1.86 14.4
2/13/2021 11:15:00 AM -0.05 31.91 0.109 6.89 1.9 14.43
2/13/2021 11:30:00 AM -0.05 31.91 0.109 6.9 1.9 14.46
2/13/2021 11:45:00 AM -0.05 31.91 0.109 6.9 1.88 14.49
2/13/2021 12:00:00 PM -0.06 31.892 0.108 6.9 1.89 14.51
2/13/2021 12:15:00 PM -0.05 31.91 0.108 6.9 1.9 14.53
2/13/2021 12:30:00 PM -0.05 31.91 0.108 6.91 1.86 14.55
2/13/2021 12:45:00 PM -0.05 31.91 0.108 6.91 1.87 14.57
2/13/2021 1:00:00 PM -0.05 31.91 0.108 6.92 1.9 14.59
2/13/2021 1:15:00 PM -0.04 31.928 0.108 6.92 1.89 14.6
2/13/2021 1:30:00 PM -0.05 31.91 0.108 6.92 1.86 14.62
2/13/2021 1:45:00 PM -0.05 31.91 0.108 6.93 1.84 14.64
2/13/2021 2:00:00 PM -0.06 31.892 0.108 6.93 1.84 14.64
2/13/2021 2:15:00 PM -0.06 31.892 0.108 6.94 1.85 14.63
2/13/2021 2:30:00 PM -0.06 31.892 0.108 6.94 1.84 14.63
2/13/2021 2:45:00 PM -0.06 31.892 0.108 6.94 1.85 14.63
2/13/2021 3:00:00 PM -0.06 31.892 0.108 6.94 1.86 14.62
2/13/2021 3:15:00 PM -0.06 31.892 0.108 6.93 1.9 14.62
2/13/2021 3:30:00 PM -0.06 31.892 0.108 6.94 1.97 14.61
2/13/2021 3:45:00 PM -0.06 31.892 0.108 6.94 1.93 14.59
2/13/2021 4:00:00 PM -0.06 31.892 0.108 6.94 1.94 14.57
2/13/2021 4:15:00 PM -0.06 31.892 0.108 6.94 1.92 14.55
2/13/2021 4:30:00 PM -0.07 31.874 0.108 6.93 2.01 14.53
2/13/2021 4:45:00 PM -0.07 31.874 0.108 6.93 1.99 14.5
2/13/2021 5:00:00 PM -0.07 31.874 0.108 6.93 1.97 14.46
2/13/2021 5:15:00 PM -0.07 31.874 0.108 6.92 2.03 14.43
2/13/2021 5:30:00 PM -0.07 31.874 0.108 6.92 2.01 14.4
2/13/2021 5:45:00 PM -0.07 31.874 0.108 6.91 2 14.36
2/13/2021 6:00:00 PM -0.07 31.874 0.108 6.9 2.04 14.33
2/13/2021 6:15:00 PM -0.07 31.874 0.108 6.89 2.05 14.3
2/13/2021 6:30:00 PM -0.07 31.874 0.108 6.88 2.05 14.27
2/13/2021 6:45:00 PM -0.07 31.874 0.108 6.88 2.06 14.25
2/13/2021 7:00:00 PM -0.07 31.874 0.108 6.88 2.05 14.22
2/13/2021 7:15:00 PM -0.07 31.874 0.108 6.88 2.09 14.2
2/13/2021 7:30:00 PM -0.07 31.874 0.108 6.87 2.09 14.18
2/13/2021 7:45:00 PM -0.07 31.874 0.108 6.87 2.09 14.15
2/13/2021 8:00:00 PM -0.07 31.874 0.108 6.86 2.14 14.13
2/13/2021 8:15:00 PM -0.07 31.874 0.108 6.86 2.14 14.11
2/13/2021 8:30:00 PM -0.07 31.874 0.108 6.86 2.22 14.09
2/13/2021 8:45:00 PM -0.07 31.874 0.108 6.86 2.18 14.08
2/13/2021 9:00:00 PM -0.07 31.874 0.108 6.85 2.23 14.06
2/13/2021 9:15:00 PM -0.07 31.874 0.108 6.85 2.17 14.05
2/13/2021 9:30:00 PM -0.07 31.874 0.108 6.85 2.21 14.04
2/13/2021 9:45:00 PM -0.07 31.874 0.108 6.85 2.17 14.02
2/13/2021 10:00:00 PM -0.07 31.874 0.108 6.85 2.19 14.01
2/13/2021 10:15:00 PM -0.07 31.874 0.108 6.84 2.23 13.99
2/13/2021 10:30:00 PM -0.07 31.874 0.108 6.84 2.17 13.98
2/13/2021 10:45:00 PM -0.07 31.874 0.108 6.84 2.18 13.97
2/13/2021 11:00:00 PM -0.07 31.874 0.108 6.84 2.24 13.96
2/13/2021 11:15:00 PM -0.07 31.874 0.108 6.84 2.23 13.94
2/13/2021 11:30:00 PM -0.07 31.874 0.108 6.84 2.24 13.93
2/13/2021 11:45:00 PM -0.07 31.874 0.108 6.83 2.26 13.93
2/14/2021 12:00:00 AM -0.07 31.874 0.108 6.83 2.25 13.92
2/14/2021 12:15:00 AM -0.07 31.874 0.108 6.83 2.24 13.91
2/14/2021 12:30:00 AM -0.07 31.874 0.108 6.83 2.28 13.9
2/14/2021 12:45:00 AM -0.07 31.874 0.108 6.82 2.27 13.9
2/14/2021 1:00:00 AM -0.07 31.874 0.108 6.82 2.24 13.89
2/14/2021 1:15:00 AM -0.07 31.874 0.108 6.82 2.22 13.88
2/14/2021 1:30:00 AM -0.07 31.874 0.108 6.82 2.25 13.88
2/14/2021 1:45:00 AM -0.07 31.874 0.108 6.82 2.29 13.87
2/14/2021 2:00:00 AM -0.07 31.874 0.108 6.82 2.27 13.87
2/14/2021 2:15:00 AM -0.07 31.874 0.108 6.82 2.27 13.87
2/14/2021 2:30:00 AM -0.07 31.874 0.108 6.81 2.26 13.86
2/14/2021 2:45:00 AM -0.07 31.874 0.108 6.81 2.3 13.85
2/14/2021 3:00:00 AM -0.07 31.874 0.108 6.81 2.33 13.85
2/14/2021 3:15:00 AM -0.07 31.874 0.108 6.82 2.3 13.84
2/14/2021 3:30:00 AM -0.07 31.874 0.108 6.81 2.29 13.84
2/14/2021 3:45:00 AM -0.07 31.874 0.108 6.81 2.32 13.84
2/14/2021 4:00:00 AM -0.07 31.874 0.108 6.81 2.23 13.84
2/14/2021 4:15:00 AM -0.07 31.874 0.108 6.8 2.3 13.83
2/14/2021 4:30:00 AM -0.07 31.874 0.108 6.81 2.28 13.83
2/14/2021 4:45:00 AM -0.07 31.874 0.108 6.8 2.3 13.83
2/14/2021 5:00:00 AM -0.07 31.874 0.108 6.81 2.27 13.83
2/14/2021 5:15:00 AM -0.07 31.874 0.108 6.8 2.29 13.83
2/14/2021 5:30:00 AM -0.07 31.874 0.108 6.8 2.29 13.82
2/14/2021 5:45:00 AM -0.07 31.874 0.108 6.8 2.33 13.82
2/14/2021 6:00:00 AM -0.07 31.874 0.108 6.81 2.31 13.82
2/14/2021 6:15:00 AM -0.07 31.874 0.108 6.81 2.36 13.82
2/14/2021 6:30:00 AM -0.07 31.874 0.108 6.81 2.47 13.82
2/14/2021 6:45:00 AM -0.07 31.874 0.108 6.8 2.37 13.82
2/14/2021 7:00:00 AM -0.07 31.874 0.108 6.8 2.4 13.82
2/14/2021 7:15:00 AM -0.07 31.874 0.108 6.8 2.42 13.82
2/14/2021 7:30:00 AM -0.07 31.874 0.108 6.8 2.46 13.83
2/14/2021 7:45:00 AM -0.07 31.874 0.107 6.8 2.44 13.85
2/14/2021 8:00:00 AM -0.06 31.892 0.107 6.81 2.42 13.87
2/14/2021 8:15:00 AM -0.06 31.892 0.107 6.81 2.43 13.89
2/14/2021 8:30:00 AM -0.06 31.892 0.107 6.81 2.45 13.91
2/14/2021 8:45:00 AM -0.06 31.892 0.107 6.81 2.45 13.93
2/14/2021 9:00:00 AM -0.06 31.892 0.107 6.82 2.52 13.95
2/14/2021 9:15:00 AM -0.06 31.892 0.107 6.82 2.5 13.97
2/14/2021 9:30:00 AM -0.06 31.892 0.107 6.82 2.47 14
2/14/2021 9:45:00 AM -0.06 31.892 0.107 6.83 2.52 14.03
2/14/2021 10:00:00 AM -0.06 31.892 0.107 6.84 2.47 14.07
2/14/2021 10:15:00 AM -0.05 31.91 0.107 6.84 2.51 14.11
2/14/2021 10:30:00 AM -0.05 31.91 0.107 6.84 2.49 14.15
2/14/2021 10:45:00 AM -0.05 31.91 0.107 6.85 2.51 14.19
2/14/2021 11:00:00 AM -0.05 31.91 0.107 6.85 2.55 14.22
2/14/2021 11:15:00 AM -0.04 31.928 0.107 6.86 2.54 14.26
2/14/2021 11:30:00 AM -0.04 31.928 0.106 6.87 2.54 14.29
2/14/2021 11:45:00 AM -0.04 31.928 0.106 6.88 2.53 14.33
2/14/2021 12:00:00 PM -0.03 31.946 0.106 6.89 2.56 14.36
2/14/2021 12:15:00 PM -0.03 31.946 0.106 6.9 2.53 14.4
2/14/2021 12:30:00 PM -0.02 31.964 0.106 6.9 2.6 14.43
2/14/2021 12:45:00 PM -0.03 31.946 0.106 6.91 2.6 14.46
2/14/2021 1:00:00 PM -0.03 31.946 0.106 6.91 2.58 14.48
2/14/2021 1:15:00 PM -0.03 31.946 0.106 6.92 2.61 14.5
2/14/2021 1:30:00 PM -0.03 31.946 0.106 6.92 2.56 14.52
2/14/2021 1:45:00 PM -0.03 31.946 0.106 6.92 2.55 14.55
2/14/2021 2:00:00 PM -0.03 31.946 0.105 6.92 2.56 14.56
2/14/2021 2:15:00 PM -0.03 31.946 0.105 6.93 2.64 14.58
2/14/2021 2:30:00 PM -0.03 31.946 0.105 6.94 2.81 14.59
2/14/2021 2:45:00 PM -0.04 31.928 0.105 6.94 2.62 14.59
2/14/2021 3:00:00 PM -0.04 31.928 0.105 6.94 2.59 14.58
2/14/2021 3:15:00 PM -0.05 31.91 0.105 6.94 2.83 14.58
2/14/2021 3:30:00 PM -0.05 31.91 0.105 6.94 2.54 14.57
2/14/2021 3:45:00 PM -0.05 31.91 0.105 6.94 2.56 14.57
2/14/2021 4:00:00 PM -0.05 31.91 0.105 6.93 2.43 14.57
2/14/2021 4:15:00 PM -0.05 31.91 0.105 6.94 2.43 14.57
2/14/2021 4:30:00 PM -0.05 31.91 0.105 6.94 2.46 14.55
2/14/2021 4:45:00 PM -0.06 31.892 0.105 6.93 2.44 14.53
2/14/2021 5:00:00 PM -0.06 31.892 0.105 6.93 2.45 14.51
2/14/2021 5:15:00 PM -0.06 31.892 0.105 6.92 2.5 14.47
2/14/2021 5:30:00 PM -0.06 31.892 0.105 6.91 2.41 14.43
2/14/2021 5:45:00 PM -0.06 31.892 0.105 6.91 2.48 14.39
2/14/2021 6:00:00 PM -0.07 31.874 0.105 6.9 2.45 14.36
2/14/2021 6:15:00 PM -0.07 31.874 0.105 6.89 2.44 14.33
2/14/2021 6:30:00 PM -0.07 31.874 0.105 6.89 2.4 14.3
2/14/2021 6:45:00 PM -0.07 31.874 0.105 6.88 2.44 14.27
2/14/2021 7:00:00 PM -0.07 31.874 0.105 6.88 2.4 14.25
2/14/2021 7:15:00 PM -0.07 31.874 0.105 6.87 2.4 14.22
2/14/2021 7:30:00 PM -0.07 31.874 0.105 6.87 2.41 14.21
2/14/2021 7:45:00 PM -0.07 31.874 0.105 6.86 2.38 14.18
2/14/2021 8:00:00 PM -0.07 31.874 0.105 6.86 2.39 14.17
2/14/2021 8:15:00 PM -0.07 31.874 0.105 6.86 2.41 14.15
2/14/2021 8:30:00 PM -0.07 31.874 0.105 6.85 2.38 14.13
2/14/2021 8:45:00 PM -0.07 31.874 0.105 6.84 2.36 14.12
2/14/2021 9:00:00 PM -0.07 31.874 0.105 6.84 2.37 14.11
2/14/2021 9:15:00 PM -0.07 31.874 0.105 6.84 2.37 14.09
2/14/2021 9:30:00 PM -0.07 31.874 0.105 6.84 2.41 14.08
2/14/2021 9:45:00 PM -0.07 31.874 0.105 6.83 2.36 14.07
2/14/2021 10:00:00 PM -0.07 31.874 0.105 6.83 2.36 14.05
2/14/2021 10:15:00 PM -0.07 31.874 0.105 6.83 2.36 14.04
2/14/2021 10:30:00 PM -0.07 31.874 0.105 6.83 2.37 14.04
2/14/2021 10:45:00 PM -0.07 31.874 0.105 6.82 2.36 14.02
2/14/2021 11:00:00 PM -0.07 31.874 0.105 6.82 2.38 14.02
2/14/2021 11:15:00 PM -0.07 31.874 0.105 6.82 2.39 14
2/14/2021 11:30:00 PM -0.07 31.874 0.105 6.82 2.36 13.99
2/14/2021 11:45:00 PM -0.07 31.874 0.105 6.82 2.39 13.99
2/15/2021 12:00:00 AM -0.07 31.874 0.105 6.81 2.4 13.98
2/15/2021 12:15:00 AM -0.07 31.874 0.105 6.81 2.38 13.97
2/15/2021 12:30:00 AM -0.07 31.874 0.105 6.81 2.37 13.97
2/15/2021 12:45:00 AM -0.07 31.874 0.105 6.81 2.43 13.96
2/15/2021 1:00:00 AM -0.07 31.874 0.105 6.81 2.39 13.95
2/15/2021 1:15:00 AM -0.07 31.874 0.105 6.81 2.37 13.95
2/15/2021 1:30:00 AM -0.07 31.874 0.105 6.81 2.42 13.94
2/15/2021 1:45:00 AM -0.07 31.874 0.105 6.8 2.36 13.94
2/15/2021 2:00:00 AM -0.07 31.874 0.105 6.8 2.4 13.93
2/15/2021 2:15:00 AM -0.06 31.892 0.105 6.8 2.37 13.93
2/15/2021 2:30:00 AM -0.06 31.892 0.105 6.8 2.39 13.92
2/15/2021 2:45:00 AM -0.06 31.892 0.105 6.8 2.33 13.92
2/15/2021 3:00:00 AM -0.07 31.874 0.105 6.8 2.38 13.92
2/15/2021 3:15:00 AM -0.07 31.874 0.105 6.8 2.36 13.91
2/15/2021 3:30:00 AM -0.07 31.874 0.105 6.8 2.32 13.91
2/15/2021 3:45:00 AM -0.07 31.874 0.105 6.79 2.34 13.91
2/15/2021 4:00:00 AM -0.07 31.874 0.105 6.8 2.32 13.9
2/15/2021 4:15:00 AM -0.07 31.874 0.105 6.85 2.33 13.9
2/15/2021 4:30:00 AM -0.07 31.874 0.105 6.8 2.37 13.9
2/15/2021 4:45:00 AM -0.07 31.874 0.105 6.79 2.33 13.9
2/15/2021 5:00:00 AM -0.07 31.874 0.105 6.79 2.32 13.89
2/15/2021 5:15:00 AM -0.07 31.874 0.105 6.79 2.4 13.89
2/15/2021 5:30:00 AM -0.07 31.874 0.105 6.79 2.32 13.89
2/15/2021 5:45:00 AM -0.07 31.874 0.105 6.79 2.35 13.88
2/15/2021 6:00:00 AM -0.07 31.874 0.105 6.79 2.36 13.88
2/15/2021 6:15:00 AM -0.07 31.874 0.105 6.79 2.33 13.88
2/15/2021 6:30:00 AM -0.07 31.874 0.105 6.79 2.3 13.88
2/15/2021 6:45:00 AM -0.07 31.874 0.105 6.79 2.3 13.88
2/15/2021 7:00:00 AM -0.07 31.874 0.105 6.79 2.28 13.88
2/15/2021 7:15:00 AM -0.07 31.874 0.105 6.79 2.26 13.88
2/15/2021 7:30:00 AM -0.07 31.874 0.105 6.79 2.28 13.89
2/15/2021 7:45:00 AM -0.06 31.892 0.105 6.79 2.27 13.91
2/15/2021 8:00:00 AM -0.06 31.892 0.105 6.8 2.29 13.94
2/15/2021 8:15:00 AM -0.06 31.892 0.105 6.81 2.25 13.97
2/15/2021 8:30:00 AM -0.06 31.892 0.105 6.81 2.3 14
2/15/2021 8:45:00 AM -0.06 31.892 0.105 6.82 2.26 14.03
2/15/2021 9:00:00 AM -0.06 31.892 0.105 6.82 2.32 14.05
2/15/2021 9:15:00 AM -0.05 31.91 0.105 6.83 2.28 14.09
2/15/2021 9:30:00 AM -0.05 31.91 0.105 6.83 2.26 14.1
2/15/2021 9:45:00 AM -0.06 31.892 0.105 6.84 2.27 14.11
2/15/2021 10:00:00 AM -0.06 31.892 0.105 6.84 2.27 14.12
2/15/2021 10:15:00 AM -0.06 31.892 0.105 6.84 2.29 14.14
2/15/2021 10:30:00 AM -0.06 31.892 0.105 6.84 2.28 14.14
2/15/2021 10:45:00 AM -0.06 31.892 0.105 6.85 2.3 14.16
2/15/2021 11:00:00 AM -0.06 31.892 0.104 6.85 2.32 14.18
2/15/2021 11:15:00 AM -0.06 31.892 0.104 6.86 2.26 14.21
2/15/2021 11:30:00 AM -0.05 31.91 0.104 6.86 2.35 14.22
2/15/2021 11:45:00 AM -0.04 31.928 0.104 6.86 2.27 14.24
2/15/2021 12:00:00 PM -0.04 31.928 0.104 6.87 2.21 14.25
2/15/2021 12:15:00 PM -0.04 31.928 0.104 6.87 2.26 14.26
2/15/2021 12:30:00 PM -0.03 31.946 0.104 6.88 2.25 14.28
2/15/2021 12:45:00 PM -0.01 31.982 0.104 6.88 2.21 14.31
2/15/2021 1:00:00 PM -0.02 31.964 0.104 6.89 2.16 14.33
2/15/2021 1:15:00 PM -0.02 31.964 0.104 6.89 2.18 14.34
2/15/2021 1:30:00 PM -0.02 31.964 0.104 6.89 2.22 14.35
2/15/2021 1:45:00 PM -0.01 31.982 0.104 6.9 2.16 14.37
2/15/2021 2:00:00 PM -0.02 31.964 0.104 6.9 2.15 14.38
2/15/2021 2:15:00 PM -0.02 31.964 0.104 6.91 2.2 14.39
2/15/2021 2:30:00 PM -0.03 31.946 0.104 6.91 2.21 14.39
2/15/2021 2:45:00 PM -0.04 31.928 0.104 6.91 2.21 14.38
2/15/2021 3:00:00 PM -0.04 31.928 0.104 6.91 2.24 14.37
2/15/2021 3:15:00 PM -0.05 31.91 0.104 6.9 2.19 14.34
2/15/2021 3:30:00 PM -0.05 31.91 0.104 6.9 2.16 14.32
2/15/2021 3:45:00 PM -0.05 31.91 0.104 6.9 2.19 14.3
2/15/2021 4:00:00 PM -0.05 31.91 0.104 6.9 2.13 14.29
2/15/2021 4:15:00 PM -0.05 31.91 0.104 6.89 2.13 14.28
2/15/2021 4:30:00 PM -0.05 31.91 0.104 6.89 2.14 14.26
2/15/2021 4:45:00 PM -0.06 31.892 0.104 6.89 2.14 14.23
2/15/2021 5:00:00 PM -0.06 31.892 0.104 6.89 2.11 14.21
2/15/2021 5:15:00 PM -0.06 31.892 0.104 6.88 2.18 14.18
2/15/2021 5:30:00 PM -0.06 31.892 0.104 6.88 2.16 14.15
2/15/2021 5:45:00 PM -0.06 31.892 0.104 6.87 2.13 14.13
2/15/2021 6:00:00 PM -0.06 31.892 0.104 6.86 2.13 14.1
2/15/2021 6:15:00 PM -0.06 31.892 0.104 6.86 2.11 14.08
2/15/2021 6:30:00 PM -0.06 31.892 0.104 6.86 2.15 14.06
2/15/2021 6:45:00 PM -0.06 31.892 0.104 6.85 2.14 14.04
2/15/2021 7:00:00 PM -0.06 31.892 0.104 6.85 2.14 14.02
2/15/2021 7:15:00 PM -0.06 31.892 0.104 6.84 2.14 14.01
2/15/2021 7:30:00 PM -0.06 31.892 0.104 6.84 2.11 13.99
2/15/2021 7:45:00 PM -0.06 31.892 0.104 6.84 2.08 13.98
2/15/2021 8:00:00 PM -0.06 31.892 0.104 6.83 2.08 13.96
2/15/2021 8:15:00 PM -0.06 31.892 0.104 6.83 2.09 13.94
2/15/2021 8:30:00 PM -0.06 31.892 0.104 6.83 2.1 13.93
2/15/2021 8:45:00 PM -0.06 31.892 0.104 6.83 2.05 13.92
2/15/2021 9:00:00 PM -0.07 31.874 0.104 6.83 2.04 13.91
2/15/2021 9:15:00 PM -0.07 31.874 0.104 6.82 2.14 13.89
2/15/2021 9:30:00 PM -0.07 31.874 0.104 6.82 2.06 13.88
2/15/2021 9:45:00 PM -0.07 31.874 0.104 6.82 2.05 13.87
2/15/2021 10:00:00 PM -0.07 31.874 0.104 6.82 1.97 13.85
2/15/2021 10:15:00 PM -0.07 31.874 0.104 6.82 2.34 13.84
2/15/2021 10:30:00 PM -0.07 31.874 0.104 6.82 1.95 13.83
2/15/2021 10:45:00 PM -0.07 31.874 0.104 6.83 1.92 13.81
2/15/2021 11:00:00 PM -0.07 31.874 0.104 6.81 1.96 13.8
2/15/2021 11:15:00 PM -0.07 31.874 0.104 6.81 1.91 13.78
2/15/2021 11:30:00 PM -0.07 31.874 0.104 6.8 1.9 13.77
2/15/2021 11:45:00 PM -0.07 31.874 0.104 6.81 1.77 13.75
2/16/2021 12:00:00 AM -0.07 31.874 0.104 6.81 1.75 13.74
2/16/2021 12:15:00 AM -0.07 31.874 0.104 6.8 1.72 13.72
2/16/2021 12:30:00 AM -0.07 31.874 0.104 6.8 1.7 13.71
2/16/2021 12:45:00 AM -0.06 31.892 0.104 6.8 1.64 13.7
2/16/2021 1:00:00 AM -0.06 31.892 0.104 6.8 1.61 13.69
2/16/2021 1:15:00 AM -0.06 31.892 0.104 6.8 1.6 13.68
2/16/2021 1:30:00 AM -0.06 31.892 0.104 6.8 1.56 13.66
2/16/2021 1:45:00 AM -0.06 31.892 0.104 6.79 1.54 13.65
2/16/2021 2:00:00 AM -0.06 31.892 0.104 6.79 1.53 13.64
2/16/2021 2:15:00 AM -0.06 31.892 0.104 6.79 1.56 13.63
2/16/2021 2:30:00 AM -0.06 31.892 0.104 6.79 1.52 13.62
2/16/2021 2:45:00 AM -0.06 31.892 0.104 6.79 1.54 13.61
2/16/2021 3:00:00 AM -0.06 31.892 0.104 6.78 1.52 13.6
2/16/2021 3:15:00 AM -0.06 31.892 0.104 6.77 1.52 13.59
2/16/2021 3:30:00 AM -0.06 31.892 0.104 6.77 1.51 13.58
2/16/2021 3:45:00 AM -0.06 31.892 0.104 6.77 1.53 13.58
2/16/2021 4:00:00 AM -0.06 31.892 0.104 6.77 1.53 13.57
2/16/2021 4:15:00 AM -0.06 31.892 0.104 6.77 1.54 13.56
2/16/2021 4:30:00 AM -0.06 31.892 0.104 6.76 1.54 13.55
2/16/2021 4:45:00 AM -0.06 31.892 0.104 6.77 1.5 13.55
2/16/2021 5:00:00 AM -0.06 31.892 0.104 6.77 1.5 13.54
2/16/2021 5:15:00 AM -0.06 31.892 0.103 6.77 1.52 13.54
2/16/2021 5:30:00 AM -0.06 31.892 0.103 6.77 1.52 13.53
2/16/2021 5:45:00 AM -0.06 31.892 0.103 6.77 1.5 13.52
2/16/2021 6:00:00 AM -0.06 31.892 0.103 6.77 1.52 13.52
2/16/2021 6:15:00 AM -0.06 31.892 0.103 6.77 1.49 13.51
2/16/2021 6:30:00 AM -0.06 31.892 0.103 6.76 1.49 13.51
2/16/2021 6:45:00 AM -0.06 31.892 0.103 6.76 1.5 13.5
2/16/2021 7:00:00 AM -0.06 31.892 0.103 6.76 1.51 13.5
2/16/2021 7:15:00 AM -0.06 31.892 0.103 6.76 1.52 13.5
2/16/2021 7:30:00 AM -0.06 31.892 0.103 6.76 1.51 13.49
2/16/2021 7:45:00 AM -0.06 31.892 0.103 6.76 1.51 13.5
2/16/2021 8:00:00 AM -0.06 31.892 0.103 6.76 1.58 13.5
2/16/2021 8:15:00 AM -0.06 31.892 0.103 6.76 1.5 13.52
2/16/2021 8:30:00 AM -0.06 31.892 0.103 6.77 1.54 13.54
2/16/2021 8:45:00 AM -0.06 31.892 0.103 6.77 1.53 13.56
2/16/2021 9:00:00 AM -0.06 31.892 0.103 6.78 1.5 13.58
2/16/2021 9:15:00 AM -0.06 31.892 0.103 6.78 1.53 13.59
2/16/2021 9:30:00 AM -0.06 31.892 0.104 6.78 1.52 13.61
2/16/2021 9:45:00 AM -0.06 31.892 0.104 6.79 1.55 13.63
2/16/2021 10:00:00 AM -0.06 31.892 0.104 6.79 1.54 13.64
2/16/2021 10:15:00 AM -0.05 31.91 0.104 6.79 1.53 13.66
2/16/2021 10:30:00 AM -0.05 31.91 0.105 6.79 1.53 13.7
2/16/2021 10:45:00 AM -0.04 31.928 0.105 6.81 1.52 13.74
2/16/2021 11:00:00 AM -0.04 31.928 0.105 6.82 1.53 13.79
2/16/2021 11:15:00 AM -0.05 31.91 0.105 6.82 1.55 13.81
2/16/2021 11:30:00 AM -0.05 31.91 0.105 6.83 1.54 13.83
2/16/2021 11:45:00 AM -0.05 31.91 0.105 6.84 1.56 13.84
2/16/2021 12:00:00 PM -0.06 31.892 0.105 6.84 1.57 13.85
2/16/2021 12:15:00 PM -0.06 31.892 0.105 6.84 1.55 13.86
2/16/2021 12:30:00 PM -0.06 31.892 0.105 6.85 1.56 13.89
2/16/2021 12:45:00 PM -0.05 31.91 0.105 6.86 1.54 13.92
2/16/2021 1:00:00 PM -0.05 31.91 0.104 6.86 1.56 13.96
2/16/2021 1:15:00 PM -0.05 31.91 0.104 6.87 1.58 13.98
2/16/2021 1:30:00 PM -0.06 31.892 0.104 6.87 1.54 13.99
2/16/2021 1:45:00 PM -0.06 31.892 0.104 6.87 1.59 13.99
2/16/2021 2:00:00 PM -0.05 31.91 0.104 6.87 1.61 14.01
2/16/2021 2:15:00 PM -0.06 31.892 0.104 6.88 1.57 14.03
2/16/2021 2:30:00 PM -0.05 31.91 0.104 6.88 1.58 14.06
2/16/2021 2:45:00 PM -0.05 31.91 0.103 6.89 1.54 14.1
2/16/2021 3:00:00 PM -0.05 31.91 0.103 6.9 1.53 14.12
2/16/2021 3:15:00 PM -0.05 31.91 0.103 6.9 1.57 14.14
2/16/2021 3:30:00 PM -0.06 31.892 0.103 6.9 1.64 14.13
2/16/2021 3:45:00 PM -0.06 31.892 0.103 6.91 1.64 14.14
2/16/2021 4:00:00 PM -0.06 31.892 0.103 6.91 1.66 14.13
2/16/2021 4:15:00 PM -0.06 31.892 0.103 6.9 1.62 14.13
2/16/2021 4:30:00 PM -0.06 31.892 0.103 6.91 1.6 14.14
2/16/2021 4:45:00 PM -0.06 31.892 0.104 6.91 1.63 14.14
2/16/2021 5:00:00 PM -0.06 31.892 0.104 6.9 1.61 14.14
2/16/2021 5:15:00 PM -0.07 31.874 0.104 6.9 1.56 14.12
2/16/2021 5:30:00 PM -0.07 31.874 0.104 6.9 1.58 14.1
2/16/2021 5:45:00 PM -0.07 31.874 0.104 6.89 1.6 14.07
2/16/2021 6:00:00 PM -0.07 31.874 0.104 6.89 1.59 14.05
2/16/2021 6:15:00 PM -0.07 31.874 0.104 6.88 1.6 14.03
2/16/2021 6:30:00 PM -0.07 31.874 0.104 6.88 1.57 14.02
2/16/2021 6:45:00 PM -0.07 31.874 0.104 6.88 1.62 14.01
2/16/2021 7:00:00 PM -0.07 31.874 0.104 6.87 1.64 13.99
2/16/2021 7:15:00 PM -0.07 31.874 0.104 6.86 1.63 13.97
2/16/2021 7:30:00 PM -0.07 31.874 0.104 6.86 1.63 13.95
2/16/2021 7:45:00 PM -0.07 31.874 0.104 6.86 1.62 13.94
2/16/2021 8:00:00 PM -0.07 31.874 0.103 6.85 1.59 13.93
2/16/2021 8:15:00 PM -0.07 31.874 0.103 6.85 1.57 13.92
2/16/2021 8:30:00 PM -0.07 31.874 0.103 6.85 1.59 13.9
2/16/2021 8:45:00 PM -0.07 31.874 0.103 6.84 1.6 13.9
2/16/2021 9:00:00 PM -0.07 31.874 0.103 6.84 1.57 13.89
2/16/2021 9:15:00 PM -0.07 31.874 0.103 6.84 1.54 13.88
2/16/2021 9:30:00 PM -0.07 31.874 0.103 6.84 1.61 13.87
2/16/2021 9:45:00 PM -0.07 31.874 0.103 6.83 1.59 13.86
2/16/2021 10:00:00 PM -0.07 31.874 0.103 6.82 1.57 13.85
2/16/2021 10:15:00 PM -0.07 31.874 0.103 6.82 1.54 13.84
2/16/2021 10:30:00 PM -0.07 31.874 0.103 6.82 1.57 13.83
2/16/2021 10:45:00 PM -0.07 31.874 0.103 6.81 1.56 13.81
2/16/2021 11:00:00 PM -0.07 31.874 0.103 6.81 1.6 13.8
2/16/2021 11:15:00 PM -0.07 31.874 0.103 6.81 1.59 13.8
2/16/2021 11:30:00 PM -0.07 31.874 0.103 6.81 1.6 13.79
2/16/2021 11:45:00 PM -0.07 31.874 0.103 6.81 1.62 13.79
2/17/2021 12:00:00 AM -0.07 31.874 0.103 6.8 1.58 13.78
2/17/2021 12:15:00 AM -0.07 31.874 0.103 6.79 1.58 13.77
2/17/2021 12:30:00 AM -0.07 31.874 0.103 6.79 1.57 13.77
2/17/2021 12:45:00 AM -0.07 31.874 0.103 6.78 1.58 13.76
2/17/2021 1:00:00 AM -0.07 31.874 0.103 6.78 1.6 13.75
2/17/2021 1:15:00 AM -0.07 31.874 0.103 6.79 1.53 13.75
2/17/2021 1:30:00 AM -0.07 31.874 0.103 6.78 1.56 13.75
2/17/2021 1:45:00 AM -0.07 31.874 0.103 6.78 1.58 13.74
2/17/2021 2:00:00 AM -0.07 31.874 0.103 6.78 1.57 13.74
2/17/2021 2:15:00 AM -0.07 31.874 0.103 6.78 1.58 13.74
2/17/2021 2:30:00 AM -0.07 31.874 0.103 6.78 1.56 13.74
2/17/2021 2:45:00 AM -0.07 31.874 0.103 6.78 1.56 13.73
2/17/2021 3:00:00 AM -0.07 31.874 0.103 6.78 1.58 13.73
2/17/2021 3:15:00 AM -0.07 31.874 0.103 6.78 1.56 13.73
2/17/2021 3:30:00 AM -0.07 31.874 0.103 6.78 1.57 13.73
2/17/2021 3:45:00 AM -0.08 31.856 0.103 6.77 1.59 13.73
2/17/2021 4:00:00 AM -0.08 31.856 0.103 6.78 1.62 13.73
2/17/2021 4:15:00 AM -0.07 31.874 0.103 6.78 1.63 13.73
2/17/2021 4:30:00 AM -0.07 31.874 0.103 6.78 1.66 13.73
2/17/2021 4:45:00 AM -0.08 31.856 0.103 6.78 1.64 13.73
2/17/2021 5:00:00 AM -0.07 31.874 0.103 6.78 1.66 13.73
2/17/2021 5:15:00 AM -0.08 31.856 0.103 6.77 1.63 13.72
2/17/2021 5:30:00 AM -0.07 31.874 0.103 6.78 1.7 13.72
2/17/2021 5:45:00 AM -0.07 31.874 0.103 6.78 1.67 13.72
2/17/2021 6:00:00 AM -0.07 31.874 0.103 6.78 1.61 13.72
2/17/2021 6:15:00 AM -0.07 31.874 0.103 6.78 1.62 13.73
2/17/2021 6:30:00 AM -0.07 31.874 0.103 6.78 1.63 13.73
2/17/2021 6:45:00 AM -0.07 31.874 0.103 6.77 1.65 13.73
2/17/2021 7:00:00 AM -0.07 31.874 0.103 6.77 1.81 13.74
2/17/2021 7:15:00 AM -0.07 31.874 0.103 6.78 1.69 13.75
2/17/2021 7:30:00 AM -0.07 31.874 0.103 6.78 1.68 13.77
2/17/2021 7:45:00 AM -0.07 31.874 0.103 6.78 1.75 13.8
2/17/2021 8:00:00 AM -0.07 31.874 0.103 6.78 1.72 13.84
2/17/2021 8:15:00 AM -0.07 31.874 0.103 6.78 1.69 13.87
2/17/2021 8:30:00 AM -0.07 31.874 0.103 6.79 1.72 13.9
2/17/2021 8:45:00 AM -0.07 31.874 0.103 6.79 1.73 13.92
2/17/2021 9:00:00 AM -0.07 31.874 0.103 6.8 1.71 13.95
2/17/2021 9:15:00 AM -0.06 31.892 0.103 6.8 1.75 13.98
2/17/2021 9:30:00 AM -0.06 31.892 0.103 6.8 1.81 14.01
2/17/2021 9:45:00 AM -0.06 31.892 0.103 6.82 1.73 14.05
2/17/2021 10:00:00 AM -0.06 31.892 0.103 6.82 1.77 14.08
2/17/2021 10:15:00 AM -0.05 31.91 0.103 6.82 1.87 14.12
2/17/2021 10:30:00 AM -0.06 31.892 0.103 6.82 1.79 14.15
2/17/2021 10:45:00 AM -0.05 31.91 0.103 6.83 1.72 14.2
2/17/2021 11:00:00 AM -0.05 31.91 0.103 6.84 1.74 14.24
2/17/2021 11:15:00 AM -0.05 31.91 0.103 6.85 1.76 14.27
2/17/2021 11:30:00 AM -0.05 31.91 0.103 6.85 1.8 14.31
2/17/2021 11:45:00 AM -0.04 31.928 0.103 6.86 2.2 14.36
2/17/2021 12:00:00 PM -0.05 31.91 0.103 6.87 1.79 14.39
2/17/2021 12:15:00 PM -0.05 31.91 0.103 6.87 1.85 14.43
2/17/2021 12:30:00 PM -0.05 31.91 0.103 6.87 1.78 14.46
2/17/2021 12:45:00 PM -0.05 31.91 0.103 6.88 1.8 14.48
2/17/2021 1:00:00 PM -0.04 31.928 0.103 6.89 1.8 14.51
2/17/2021 1:15:00 PM -0.04 31.928 0.103 6.9 1.81 14.55
2/17/2021 1:30:00 PM -0.04 31.928 0.103 6.91 1.81 14.58
2/17/2021 1:45:00 PM -0.04 31.928 0.103 6.92 1.78 14.6
2/17/2021 2:00:00 PM -0.04 31.928 0.103 6.92 1.82 14.63
2/17/2021 2:15:00 PM -0.04 31.928 0.103 6.93 1.81 14.65
2/17/2021 2:30:00 PM -0.03 31.946 0.103 6.93 1.85 14.67
2/17/2021 2:45:00 PM -0.04 31.928 0.104 6.94 1.85 14.69
2/17/2021 3:00:00 PM -0.04 31.928 0.104 6.94 1.81 14.7
2/17/2021 3:15:00 PM -0.05 31.91 0.104 6.94 1.78 14.71
2/17/2021 3:30:00 PM -0.05 31.91 0.104 6.94 1.8 14.71
2/17/2021 3:45:00 PM -0.05 31.91 0.104 6.94 1.82 14.71
2/17/2021 4:00:00 PM -0.05 31.91 0.104 6.93 1.81 14.71
2/17/2021 4:15:00 PM -0.06 31.892 0.104 6.94 1.82 14.7
2/17/2021 4:30:00 PM -0.06 31.892 0.104 6.94 1.78 14.69
2/17/2021 4:45:00 PM -0.06 31.892 0.104 6.94 1.82 14.67
2/17/2021 5:00:00 PM -0.07 31.874 0.104 6.93 1.8 14.65
2/17/2021 5:15:00 PM -0.07 31.874 0.104 6.93 1.78 14.62
2/17/2021 5:30:00 PM -0.07 31.874 0.105 6.92 1.79 14.6
2/17/2021 5:45:00 PM -0.07 31.874 0.105 6.92 1.81 14.56
2/17/2021 6:00:00 PM -0.07 31.874 0.105 6.91 1.81 14.52
2/17/2021 6:15:00 PM -0.07 31.874 0.105 6.9 1.79 14.49
2/17/2021 6:30:00 PM -0.07 31.874 0.105 6.9 1.99 14.46
2/17/2021 6:45:00 PM -0.07 31.874 0.105 6.9 1.87 14.44
2/17/2021 7:00:00 PM -0.07 31.874 0.106 6.89 1.94 14.41
2/17/2021 7:15:00 PM -0.07 31.874 0.106 6.89 1.99 14.38
2/17/2021 7:30:00 PM -0.07 31.874 0.106 6.88 1.97 14.34
2/17/2021 7:45:00 PM -0.07 31.874 0.106 6.88 1.92 14.31
2/17/2021 8:00:00 PM -0.07 31.874 0.107 6.88 1.86 14.28
2/17/2021 8:15:00 PM -0.07 31.874 0.107 6.86 1.88 14.25
2/17/2021 8:30:00 PM -0.07 31.874 0.107 6.86 1.83 14.22
2/17/2021 8:45:00 PM -0.07 31.874 0.107 6.86 1.78 14.19
2/17/2021 9:00:00 PM -0.07 31.874 0.108 6.85 1.82 14.17
2/17/2021 9:15:00 PM -0.07 31.874 0.108 6.85 1.82 14.14
2/17/2021 9:30:00 PM -0.07 31.874 0.108 6.85 1.81 14.12
2/17/2021 9:45:00 PM -0.07 31.874 0.109 6.84 1.79 14.09
2/17/2021 10:00:00 PM -0.07 31.874 0.109 6.84 1.8 14.07
2/17/2021 10:15:00 PM -0.07 31.874 0.109 6.84 1.78 14.05
2/17/2021 10:30:00 PM -0.07 31.874 0.109 6.83 1.78 14.04
2/17/2021 10:45:00 PM -0.07 31.874 0.11 6.83 1.77 14.02
2/17/2021 11:00:00 PM -0.07 31.874 0.11 6.83 1.81 14
2/17/2021 11:15:00 PM -0.07 31.874 0.11 6.83 1.77 13.99
2/17/2021 11:30:00 PM -0.07 31.874 0.11 6.83 1.75 13.97
2/17/2021 11:45:00 PM -0.07 31.874 0.11 6.82 1.78 13.97
2/18/2021 12:00:00 AM -0.07 31.874 0.111 6.82 1.78 13.95
2/18/2021 12:15:00 AM -0.07 31.874 0.111 6.82 1.77 13.94
2/18/2021 12:30:00 AM -0.07 31.874 0.111 6.82 1.79 13.93
2/18/2021 12:45:00 AM -0.07 31.874 0.111 6.82 1.76 13.92
2/18/2021 1:00:00 AM -0.07 31.874 0.111 6.82 1.76 13.91
2/18/2021 1:15:00 AM -0.07 31.874 0.112 6.81 1.78 13.91
2/18/2021 1:30:00 AM -0.07 31.874 0.112 6.81 1.8 13.9
2/18/2021 1:45:00 AM -0.07 31.874 0.112 6.81 1.79 13.89
2/18/2021 2:00:00 AM -0.07 31.874 0.112 6.81 1.79 13.89
2/18/2021 2:15:00 AM -0.07 31.874 0.112 6.81 1.79 13.89
2/18/2021 2:30:00 AM -0.07 31.874 0.113 6.81 1.82 13.88
2/18/2021 2:45:00 AM -0.07 31.874 0.113 6.81 1.77 13.88
2/18/2021 3:00:00 AM -0.07 31.874 0.113 6.81 1.78 13.87
2/18/2021 3:15:00 AM -0.07 31.874 0.113 6.81 1.77 13.87
2/18/2021 3:30:00 AM -0.07 31.874 0.113 6.81 1.75 13.86
2/18/2021 3:45:00 AM -0.07 31.874 0.113 6.81 1.79 13.86
2/18/2021 4:00:00 AM -0.07 31.874 0.114 6.81 1.77 13.86
2/18/2021 4:15:00 AM -0.07 31.874 0.114 6.81 1.76 13.86
2/18/2021 4:30:00 AM -0.07 31.874 0.114 6.81 1.78 13.85
2/18/2021 4:45:00 AM -0.07 31.874 0.114 6.8 1.75 13.85
2/18/2021 5:00:00 AM -0.07 31.874 0.114 6.8 1.75 13.85
2/18/2021 5:15:00 AM -0.07 31.874 0.114 6.8 1.79 13.84
2/18/2021 5:30:00 AM -0.07 31.874 0.114 6.8 1.75 13.85
2/18/2021 5:45:00 AM -0.07 31.874 0.115 6.8 1.77 13.84
2/18/2021 6:00:00 AM -0.07 31.874 0.115 6.8 1.76 13.84
2/18/2021 6:15:00 AM -0.07 31.874 0.115 6.8 1.75 13.84
2/18/2021 6:30:00 AM -0.07 31.874 0.115 6.8 1.8 13.84
2/18/2021 6:45:00 AM -0.07 31.874 0.115 6.8 1.75 13.84
2/18/2021 7:00:00 AM -0.07 31.874 0.115 6.8 1.76 13.84
2/18/2021 7:15:00 AM -0.07 31.874 0.115 6.81 1.77 13.84
2/18/2021 7:30:00 AM -0.07 31.874 0.115 6.81 1.81 13.85
2/18/2021 7:45:00 AM -0.07 31.874 0.115 6.81 1.79 13.86
2/18/2021 8:00:00 AM -0.07 31.874 0.115 6.81 1.76 13.87
2/18/2021 8:15:00 AM -0.07 31.874 0.115 6.81 1.78 13.88
2/18/2021 8:30:00 AM -0.07 31.874 0.115 6.81 1.72 13.89
2/18/2021 8:45:00 AM -0.07 31.874 0.116 6.82 1.76 13.92
2/18/2021 9:00:00 AM -0.07 31.874 0.116 6.8 1.68 13.95
2/18/2021 9:15:00 AM -0.07 31.874 0.116 6.81 1.66 13.97
2/18/2021 9:30:00 AM -0.07 31.874 0.116 6.81 1.67 13.99
2/18/2021 9:45:00 AM -0.06 31.892 0.116 6.81 1.66 14.01
2/18/2021 10:00:00 AM -0.06 31.892 0.116 6.82 1.67 14.03
2/18/2021 10:15:00 AM -0.06 31.892 0.116 6.83 1.68 14.06
2/18/2021 10:30:00 AM -0.06 31.892 0.116 6.82 1.66 14.08
2/18/2021 10:45:00 AM -0.06 31.892 0.116 6.83 1.68 14.12
2/18/2021 11:00:00 AM -0.05 31.91 0.116 6.83 1.66 14.14
2/18/2021 11:15:00 AM -0.05 31.91 0.116 6.84 1.64 14.18
2/18/2021 11:30:00 AM -0.05 31.91 0.116 6.84 1.66 14.21
2/18/2021 11:45:00 AM -0.06 31.892 0.116 6.85 1.63 14.23
2/18/2021 12:00:00 PM -0.05 31.91 0.116 6.85 1.61 14.24
2/18/2021 12:15:00 PM -0.05 31.91 0.116 6.86 1.66 14.27
2/18/2021 12:30:00 PM -0.05 31.91 0.116 6.87 1.65 14.29
2/18/2021 12:45:00 PM -0.05 31.91 0.116 6.87 1.66 14.31
2/18/2021 1:00:00 PM -0.05 31.91 0.116 6.88 1.68 14.32
2/18/2021 1:15:00 PM -0.05 31.91 0.116 6.88 1.68 14.33
2/18/2021 1:30:00 PM -0.06 31.892 0.116 6.88 1.68 14.34
2/18/2021 1:45:00 PM -0.06 31.892 0.116 6.88 1.68 14.35
2/18/2021 2:00:00 PM -0.06 31.892 0.116 6.89 1.68 14.36
2/18/2021 2:15:00 PM -0.06 31.892 0.116 6.89 1.65 14.37
2/18/2021 2:30:00 PM -0.06 31.892 0.116 6.89 1.65 14.37
2/18/2021 2:45:00 PM -0.06 31.892 0.116 6.89 1.67 14.36
2/18/2021 3:00:00 PM -0.06 31.892 0.116 6.89 1.65 14.35
2/18/2021 3:15:00 PM -0.06 31.892 0.116 6.89 1.63 14.36
2/18/2021 3:30:00 PM -0.06 31.892 0.116 6.89 1.65 14.37
2/18/2021 3:45:00 PM -0.06 31.892 0.116 6.89 1.65 14.36
2/18/2021 4:00:00 PM -0.06 31.892 0.117 6.89 1.64 14.35
2/18/2021 4:15:00 PM -0.06 31.892 0.117 6.89 1.67 14.33
2/18/2021 4:30:00 PM -0.06 31.892 0.117 6.88 1.7 14.32
2/18/2021 4:45:00 PM -0.06 31.892 0.117 6.88 1.73 14.31
2/18/2021 5:00:00 PM -0.06 31.892 0.117 6.88 1.68 14.3
2/18/2021 5:15:00 PM -0.06 31.892 0.117 6.88 1.72 14.28
2/18/2021 5:30:00 PM -0.07 31.874 0.117 6.87 1.7 14.26
2/18/2021 5:45:00 PM -0.07 31.874 0.117 6.86 1.67 14.23
2/18/2021 6:00:00 PM -0.07 31.874 0.117 6.87 1.67 14.2
2/18/2021 6:15:00 PM -0.07 31.874 0.117 6.86 1.63 14.17
2/18/2021 6:30:00 PM -0.07 31.874 0.117 6.86 1.63 14.15
2/18/2021 6:45:00 PM -0.07 31.874 0.117 6.85 1.63 14.14
2/18/2021 7:00:00 PM -0.07 31.874 0.117 6.85 1.57 14.12
2/18/2021 7:15:00 PM -0.07 31.874 0.117 6.85 1.61 14.1
2/18/2021 7:30:00 PM -0.07 31.874 0.117 6.84 1.62 14.08
2/18/2021 7:45:00 PM -0.07 31.874 0.116 6.84 1.63 14.06
2/18/2021 8:00:00 PM -0.07 31.874 0.116 6.83 1.66 14.05
2/18/2021 8:15:00 PM -0.07 31.874 0.116 6.83 1.61 14.03
2/18/2021 8:30:00 PM -0.07 31.874 0.116 6.82 1.63 14.02
2/18/2021 8:45:00 PM -0.07 31.874 0.116 6.82 1.61 14
2/18/2021 9:00:00 PM -0.07 31.874 0.116 6.82 1.63 13.99
2/18/2021 9:15:00 PM -0.07 31.874 0.116 6.82 1.62 13.98
2/18/2021 9:30:00 PM -0.07 31.874 0.116 6.82 1.63 13.97
2/18/2021 9:45:00 PM -0.07 31.874 0.116 6.82 1.63 13.96
2/18/2021 10:00:00 PM -0.07 31.874 0.116 6.81 1.61 13.95
2/18/2021 10:15:00 PM -0.07 31.874 0.115 6.81 1.63 13.94
2/18/2021 10:30:00 PM -0.07 31.874 0.115 6.81 1.6 13.93
2/18/2021 10:45:00 PM -0.07 31.874 0.115 6.81 1.61 13.92
2/18/2021 11:00:00 PM -0.07 31.874 0.115 6.8 1.65 13.91
2/18/2021 11:15:00 PM -0.07 31.874 0.115 6.8 1.62 13.91
2/18/2021 11:30:00 PM -0.07 31.874 0.115 6.8 1.63 13.9
2/18/2021 11:45:00 PM -0.07 31.874 0.115 6.8 1.59 13.89
2/19/2021 12:00:00 AM -0.07 31.874 0.115 6.8 1.59 13.88
2/19/2021 12:15:00 AM -0.07 31.874 0.115 6.8 1.57 13.88
2/19/2021 12:30:00 AM -0.07 31.874 0.115 6.79 1.63 13.87
2/19/2021 12:45:00 AM -0.07 31.874 0.115 6.79 1.62 13.87
2/19/2021 1:00:00 AM -0.07 31.874 0.115 6.79 1.57 13.86
2/19/2021 1:15:00 AM -0.07 31.874 0.115 6.8 1.6 13.86
2/19/2021 1:30:00 AM -0.07 31.874 0.115 6.8 1.61 13.85
2/19/2021 1:45:00 AM -0.07 31.874 0.115 6.8 1.55 13.85
2/19/2021 2:00:00 AM -0.07 31.874 0.115 6.8 1.61 13.85
2/19/2021 2:15:00 AM -0.07 31.874 0.115 6.8 1.62 13.84
2/19/2021 2:30:00 AM -0.07 31.874 0.115 6.8 1.6 13.83
2/19/2021 2:45:00 AM -0.07 31.874 0.115 6.8 1.63 13.83
2/19/2021 3:00:00 AM -0.07 31.874 0.115 6.79 1.61 13.83
2/19/2021 3:15:00 AM -0.07 31.874 0.115 6.79 1.59 13.82
2/19/2021 3:30:00 AM -0.07 31.874 0.115 6.8 1.66 13.82
2/19/2021 3:45:00 AM -0.07 31.874 0.115 6.79 1.61 13.82
2/19/2021 4:00:00 AM -0.07 31.874 0.114 6.79 1.58 13.81
2/19/2021 4:15:00 AM -0.07 31.874 0.114 6.79 1.58 13.81
2/19/2021 4:30:00 AM -0.07 31.874 0.114 6.79 1.6 13.8
2/19/2021 4:45:00 AM -0.07 31.874 0.114 6.79 1.59 13.8
2/19/2021 5:00:00 AM -0.07 31.874 0.114 6.79 1.62 13.8
2/19/2021 5:15:00 AM -0.07 31.874 0.114 6.79 1.62 13.79
2/19/2021 5:30:00 AM -0.07 31.874 0.114 6.79 1.57 13.79
2/19/2021 5:45:00 AM -0.07 31.874 0.114 6.78 1.6 13.79
2/19/2021 6:00:00 AM -0.07 31.874 0.114 6.79 1.62 13.79
2/19/2021 6:15:00 AM -0.07 31.874 0.114 6.79 1.58 13.79
2/19/2021 6:30:00 AM -0.07 31.874 0.114 6.79 1.59 13.79
2/19/2021 6:45:00 AM -0.07 31.874 0.114 6.78 1.56 13.78
2/19/2021 7:00:00 AM -0.07 31.874 0.114 6.79 1.6 13.78
2/19/2021 7:15:00 AM -0.06 31.892 0.114 6.79 1.59 13.79
2/19/2021 7:30:00 AM -0.06 31.892 0.114 6.79 1.57 13.8
2/19/2021 7:45:00 AM -0.06 31.892 0.114 6.79 1.56 13.8
2/19/2021 8:00:00 AM -0.06 31.892 0.114 6.79 1.56 13.82
2/19/2021 8:15:00 AM -0.06 31.892 0.114 6.79 1.57 13.84
2/19/2021 8:30:00 AM -0.06 31.892 0.114 6.8 1.61 13.86
2/19/2021 8:45:00 AM -0.06 31.892 0.114 6.8 1.55 13.88
2/19/2021 9:00:00 AM -0.05 31.91 0.114 6.8 1.56 13.91
2/19/2021 9:15:00 AM -0.05 31.91 0.113 6.8 1.57 13.92
2/19/2021 9:30:00 AM -0.05 31.91 0.113 6.81 1.53 13.94
2/19/2021 9:45:00 AM -0.05 31.91 0.113 6.81 1.58 13.96
2/19/2021 10:00:00 AM -0.05 31.91 0.113 6.81 1.57 13.98
2/19/2021 10:15:00 AM -0.05 31.91 0.113 6.82 1.58 14.01
2/19/2021 10:30:00 AM -0.04 31.928 0.113 6.82 1.55 14.04
2/19/2021 10:45:00 AM -0.05 31.91 0.113 6.83 1.54 14.06
2/19/2021 11:00:00 AM -0.05 31.91 0.113 6.84 1.56 14.08
2/19/2021 11:15:00 AM -0.05 31.91 0.113 6.85 1.55 14.08
2/19/2021 11:30:00 AM -0.05 31.91 0.113 6.84 1.55 14.09
2/19/2021 11:45:00 AM -0.05 31.91 0.112 6.85 1.57 14.1
2/19/2021 12:00:00 PM -0.05 31.91 0.112 6.85 1.57 14.1
2/19/2021 12:15:00 PM -0.05 31.91 0.112 6.85 1.55 14.11
2/19/2021 12:30:00 PM -0.05 31.91 0.112 6.85 1.57 14.12
2/19/2021 12:45:00 PM -0.05 31.91 0.112 6.85 1.55 14.12
2/19/2021 1:00:00 PM -0.05 31.91 0.112 6.85 1.57 14.13
2/19/2021 1:15:00 PM -0.05 31.91 0.112 6.86 1.6 14.13
2/19/2021 1:30:00 PM -0.05 31.91 0.112 6.86 1.54 14.14
2/19/2021 1:45:00 PM -0.04 31.928 0.112 6.86 1.55 14.16
2/19/2021 2:00:00 PM -0.04 31.928 0.112 6.87 1.56 14.18
2/19/2021 2:15:00 PM -0.05 31.91 0.112 6.87 1.56 14.17
2/19/2021 2:30:00 PM -0.05 31.91 0.112 6.87 1.55 14.17
2/19/2021 2:45:00 PM -0.05 31.91 0.112 6.87 1.54 14.16
2/19/2021 3:00:00 PM -0.05 31.91 0.112 6.88 1.57 14.17
2/19/2021 3:15:00 PM -0.05 31.91 0.111 6.88 1.57 14.18
2/19/2021 3:30:00 PM -0.05 31.91 0.111 6.88 1.57 14.19
2/19/2021 3:45:00 PM -0.05 31.91 0.111 6.88 1.63 14.18
2/19/2021 4:00:00 PM -0.05 31.91 0.111 6.88 1.6 14.17
2/19/2021 4:15:00 PM -0.06 31.892 0.111 6.88 1.59 14.16
2/19/2021 4:30:00 PM -0.06 31.892 0.111 6.88 1.56 14.15
2/19/2021 4:45:00 PM -0.06 31.892 0.112 6.87 1.56 14.14
2/19/2021 5:00:00 PM -0.06 31.892 0.112 6.88 1.55 14.12
2/19/2021 5:15:00 PM -0.06 31.892 0.112 6.87 1.56 14.11
2/19/2021 5:30:00 PM -0.06 31.892 0.112 6.87 1.59 14.09
2/19/2021 5:45:00 PM -0.06 31.892 0.112 6.87 1.57 14.07
2/19/2021 6:00:00 PM -0.06 31.892 0.112 6.86 1.56 14.05
2/19/2021 6:15:00 PM -0.06 31.892 0.112 6.86 1.64 14.03
2/19/2021 6:30:00 PM -0.06 31.892 0.112 6.86 1.53 14.01
2/19/2021 6:45:00 PM -0.06 31.892 0.112 6.86 1.52 14
2/19/2021 7:00:00 PM -0.06 31.892 0.112 6.85 1.59 13.99
2/19/2021 7:15:00 PM -0.07 31.874 0.112 6.85 1.56 13.98
2/19/2021 7:30:00 PM -0.07 31.874 0.112 6.85 1.57 13.97
2/19/2021 7:45:00 PM -0.07 31.874 0.112 6.84 1.59 13.96
2/19/2021 8:00:00 PM -0.07 31.874 0.112 6.84 1.54 13.95
2/19/2021 8:15:00 PM -0.07 31.874 0.112 6.84 1.58 13.94
2/19/2021 8:30:00 PM -0.07 31.874 0.112 6.84 1.56 13.93
2/19/2021 8:45:00 PM -0.07 31.874 0.112 6.84 1.55 13.92
2/19/2021 9:00:00 PM -0.07 31.874 0.112 6.84 1.58 13.92
2/19/2021 9:15:00 PM -0.07 31.874 0.112 6.83 1.61 13.91
2/19/2021 9:30:00 PM -0.07 31.874 0.112 6.83 1.6 13.91
2/19/2021 9:45:00 PM -0.07 31.874 0.112 6.83 1.59 13.9
2/19/2021 10:00:00 PM -0.07 31.874 0.112 6.83 1.57 13.9
2/19/2021 10:15:00 PM -0.07 31.874 0.112 6.83 1.57 13.89
2/19/2021 10:30:00 PM -0.07 31.874 0.112 6.83 1.55 13.89
2/19/2021 10:45:00 PM -0.07 31.874 0.112 6.82 1.53 13.89
2/19/2021 11:00:00 PM -0.07 31.874 0.112 6.82 1.54 13.88
2/19/2021 11:15:00 PM -0.07 31.874 0.112 6.82 1.55 13.88
2/19/2021 11:30:00 PM -0.07 31.874 0.112 6.82 1.54 13.88
2/19/2021 11:45:00 PM -0.07 31.874 0.112 6.82 1.55 13.88
2/20/2021 12:00:00 AM -0.07 31.874 0.112 6.82 1.55 13.87
2/20/2021 12:15:00 AM -0.07 31.874 0.112 6.82 1.52 13.87
2/20/2021 12:30:00 AM -0.07 31.874 0.112 6.82 1.55 13.87
2/20/2021 12:45:00 AM -0.07 31.874 0.112 6.82 1.52 13.87
2/20/2021 1:00:00 AM -0.07 31.874 0.112 6.82 1.54 13.87
2/20/2021 1:15:00 AM -0.07 31.874 0.112 6.82 1.54 13.87
2/20/2021 1:30:00 AM -0.07 31.874 0.112 6.82 1.56 13.86
2/20/2021 1:45:00 AM -0.07 31.874 0.112 6.82 1.57 13.86
2/20/2021 2:00:00 AM -0.07 31.874 0.112 6.81 1.51 13.86
2/20/2021 2:15:00 AM -0.07 31.874 0.112 6.81 1.54 13.86
2/20/2021 2:30:00 AM -0.07 31.874 0.112 6.81 1.55 13.86
2/20/2021 2:45:00 AM -0.07 31.874 0.112 6.81 1.56 13.86
2/20/2021 3:00:00 AM -0.07 31.874 0.112 6.81 1.53 13.86
2/20/2021 3:15:00 AM -0.07 31.874 0.112 6.81 1.55 13.85
2/20/2021 3:30:00 AM -0.07 31.874 0.112 6.81 1.56 13.85
2/20/2021 3:45:00 AM -0.07 31.874 0.112 6.82 1.59 13.85
2/20/2021 4:00:00 AM -0.07 31.874 0.112 6.81 1.56 13.85
2/20/2021 4:15:00 AM -0.07 31.874 0.112 6.81 1.6 13.85
2/20/2021 4:30:00 AM -0.07 31.874 0.112 6.81 1.56 13.85
2/20/2021 4:45:00 AM -0.07 31.874 0.112 6.82 1.54 13.85
2/20/2021 5:00:00 AM -0.07 31.874 0.112 6.81 1.57 13.85
2/20/2021 5:15:00 AM -0.07 31.874 0.112 6.81 1.6 13.85
2/20/2021 5:30:00 AM -0.07 31.874 0.112 6.81 1.65 13.85
2/20/2021 5:45:00 AM -0.07 31.874 0.112 6.81 1.58 13.85
2/20/2021 6:00:00 AM -0.07 31.874 0.112 6.81 1.59 13.85
2/20/2021 6:15:00 AM -0.07 31.874 0.112 6.81 1.64 13.85
2/20/2021 6:30:00 AM -0.07 31.874 0.112 6.81 1.62 13.84
2/20/2021 6:45:00 AM -0.07 31.874 0.112 6.81 1.68 13.84
2/20/2021 7:00:00 AM -0.07 31.874 0.112 6.81 1.62 13.84
2/20/2021 7:15:00 AM -0.07 31.874 0.112 6.81 1.65 13.85
2/20/2021 7:30:00 AM -0.07 31.874 0.112 6.81 1.64 13.87
2/20/2021 7:45:00 AM -0.07 31.874 0.112 6.81 1.6 13.89
2/20/2021 8:00:00 AM -0.07 31.874 0.112 6.82 1.63 13.91
2/20/2021 8:15:00 AM -0.07 31.874 0.112 6.81 1.63 13.93
2/20/2021 8:30:00 AM -0.07 31.874 0.112 6.82 1.56 13.95
2/20/2021 8:45:00 AM -0.06 31.892 0.112 6.83 1.56 13.97
2/20/2021 9:00:00 AM -0.06 31.892 0.112 6.83 1.53 13.99
2/20/2021 9:15:00 AM -0.06 31.892 0.112 6.83 1.54 14.01
2/20/2021 9:30:00 AM -0.06 31.892 0.112 6.84 1.53 14.05
2/20/2021 9:45:00 AM -0.06 31.892 0.112 6.84 1.55 14.08
2/20/2021 10:00:00 AM -0.06 31.892 0.112 6.85 1.54 14.11
2/20/2021 10:15:00 AM -0.05 31.91 0.112 6.86 1.53 14.14
2/20/2021 10:30:00 AM -0.05 31.91 0.112 6.86 1.54 14.18
2/20/2021 10:45:00 AM -0.04 31.928 0.112 6.87 1.51 14.21
2/20/2021 11:00:00 AM -0.04 31.928 0.112 6.87 1.49 14.24
2/20/2021 11:15:00 AM -0.04 31.928 0.112 6.87 1.52 14.27
2/20/2021 11:30:00 AM -0.03 31.946 0.112 6.87 1.52 14.3
2/20/2021 11:45:00 AM -0.04 31.928 0.112 6.88 1.53 14.33
2/20/2021 12:00:00 PM -0.04 31.928 0.112 6.89 1.53 14.35
2/20/2021 12:15:00 PM -0.04 31.928 0.111 6.9 1.49 14.37
2/20/2021 12:30:00 PM -0.04 31.928 0.111 6.9 1.49 14.38
2/20/2021 12:45:00 PM -0.04 31.928 0.111 6.91 1.46 14.4
2/20/2021 1:00:00 PM -0.05 31.91 0.111 6.91 1.49 14.41
2/20/2021 1:15:00 PM -0.05 31.91 0.111 6.91 1.48 14.42
2/20/2021 1:30:00 PM -0.05 31.91 0.111 6.91 1.46 14.43
2/20/2021 1:45:00 PM -0.05 31.91 0.111 6.92 1.48 14.44
2/20/2021 2:00:00 PM -0.04 31.928 0.111 6.92 1.47 14.45
2/20/2021 2:15:00 PM -0.03 31.946 0.111 6.92 1.46 14.47
2/20/2021 2:30:00 PM -0.04 31.928 0.111 6.92 1.45 14.49
2/20/2021 2:45:00 PM -0.05 31.91 0.111 6.92 1.46 14.49
2/20/2021 3:00:00 PM -0.04 31.928 0.111 6.92 1.47 14.49
2/20/2021 3:15:00 PM -0.05 31.91 0.111 6.93 1.49 14.49
2/20/2021 3:30:00 PM -0.04 31.928 0.111 6.93 1.48 14.5
2/20/2021 3:45:00 PM -0.05 31.91 0.111 6.93 1.47 14.5
2/20/2021 4:00:00 PM -0.05 31.91 0.111 6.93 1.5 14.5
2/20/2021 4:15:00 PM -0.05 31.91 0.111 6.93 1.47 14.49
2/20/2021 4:30:00 PM -0.05 31.91 0.111 6.92 1.45 14.49
2/20/2021 4:45:00 PM -0.06 31.892 0.11 6.92 1.46 14.48
2/20/2021 5:00:00 PM -0.06 31.892 0.11 6.92 1.5 14.46
2/20/2021 5:15:00 PM -0.06 31.892 0.111 6.91 1.5 14.43
2/20/2021 5:30:00 PM -0.07 31.874 0.111 6.91 1.46 14.4
2/20/2021 5:45:00 PM -0.07 31.874 0.111 6.9 1.49 14.37
2/20/2021 6:00:00 PM -0.07 31.874 0.111 6.9 1.44 14.34
2/20/2021 6:15:00 PM -0.07 31.874 0.111 6.89 1.43 14.32
2/20/2021 6:30:00 PM -0.07 31.874 0.111 6.89 1.46 14.29
2/20/2021 6:45:00 PM -0.07 31.874 0.111 6.89 1.46 14.27
2/20/2021 7:00:00 PM -0.08 31.856 0.111 6.88 1.46 14.25
2/20/2021 7:15:00 PM -0.07 31.874 0.111 6.89 1.5 14.23
2/20/2021 7:30:00 PM -0.07 31.874 0.111 6.88 1.47 14.21
2/20/2021 7:45:00 PM -0.07 31.874 0.111 6.88 1.47 14.19
2/20/2021 8:00:00 PM -0.07 31.874 0.111 6.87 1.49 14.18
2/20/2021 8:15:00 PM -0.07 31.874 0.111 6.87 1.56 14.16
2/20/2021 8:30:00 PM -0.07 31.874 0.111 6.87 1.53 14.14
2/20/2021 8:45:00 PM -0.07 31.874 0.111 6.86 1.53 14.13
2/20/2021 9:00:00 PM -0.07 31.874 0.111 6.86 1.52 14.12
2/20/2021 9:15:00 PM -0.07 31.874 0.111 6.86 1.51 14.11
2/20/2021 9:30:00 PM -0.07 31.874 0.111 6.85 1.49 14.1
2/20/2021 9:45:00 PM -0.07 31.874 0.111 6.85 1.48 14.09
2/20/2021 10:00:00 PM -0.07 31.874 0.111 6.85 1.49 14.08
2/20/2021 10:15:00 PM -0.07 31.874 0.111 6.84 1.49 14.07
2/20/2021 10:30:00 PM -0.07 31.874 0.111 6.85 1.48 14.07
2/20/2021 10:45:00 PM -0.07 31.874 0.111 6.84 1.5 14.06
2/20/2021 11:00:00 PM -0.07 31.874 0.111 6.84 1.47 14.05
2/20/2021 11:15:00 PM -0.07 31.874 0.111 6.84 1.5 14.04
2/20/2021 11:30:00 PM -0.07 31.874 0.111 6.84 1.51 14.04
2/20/2021 11:45:00 PM -0.08 31.856 0.111 6.84 1.46 14.04
2/21/2021 12:00:00 AM -0.08 31.856 0.111 6.84 1.51 14.03
2/21/2021 12:15:00 AM -0.08 31.856 0.111 6.84 1.48 14.03
2/21/2021 12:30:00 AM -0.08 31.856 0.111 6.83 1.49 14.03
2/21/2021 12:45:00 AM -0.07 31.874 0.111 6.83 1.54 14.03
2/21/2021 1:00:00 AM -0.07 31.874 0.112 6.83 1.56 14.02
2/21/2021 1:15:00 AM -0.07 31.874 0.112 6.83 1.54 14.01
2/21/2021 1:30:00 AM -0.07 31.874 0.112 6.83 1.53 14.01
2/21/2021 1:45:00 AM -0.07 31.874 0.112 6.83 1.54 14.01
2/21/2021 2:00:00 AM -0.07 31.874 0.112 6.82 1.54 14.01
2/21/2021 2:15:00 AM -0.07 31.874 0.112 6.82 1.52 14
2/21/2021 2:30:00 AM -0.07 31.874 0.112 6.82 1.53 14
2/21/2021 2:45:00 AM -0.07 31.874 0.112 6.82 1.54 14
2/21/2021 3:00:00 AM -0.08 31.856 0.112 6.82 1.54 14
2/21/2021 3:15:00 AM -0.08 31.856 0.112 6.82 1.52 14
2/21/2021 3:30:00 AM -0.07 31.874 0.112 6.82 1.56 14
2/21/2021 3:45:00 AM -0.08 31.856 0.112 6.82 1.55 14
2/21/2021 4:00:00 AM -0.08 31.856 0.112 6.81 1.49 14
2/21/2021 4:15:00 AM -0.08 31.856 0.112 6.81 1.51 14
2/21/2021 4:30:00 AM -0.08 31.856 0.112 6.81 1.6 14
2/21/2021 4:45:00 AM -0.08 31.856 0.112 6.81 1.52 14
2/21/2021 5:00:00 AM -0.08 31.856 0.112 6.81 1.52 14
2/21/2021 5:15:00 AM -0.08 31.856 0.112 6.8 1.5 13.99
2/21/2021 5:30:00 AM -0.08 31.856 0.112 6.8 1.5 13.99
2/21/2021 5:45:00 AM -0.08 31.856 0.112 6.8 1.53 13.99
2/21/2021 6:00:00 AM -0.08 31.856 0.112 6.8 1.5 14
2/21/2021 6:15:00 AM -0.08 31.856 0.112 6.8 1.55 13.99
2/21/2021 6:30:00 AM -0.08 31.856 0.112 6.8 1.55 13.98
2/21/2021 6:45:00 AM -0.08 31.856 0.112 6.8 1.52 14
2/21/2021 7:00:00 AM -0.08 31.856 0.112 6.8 1.53 14
2/21/2021 7:15:00 AM -0.08 31.856 0.112 6.8 1.52 14.01
2/21/2021 7:30:00 AM -0.07 31.874 0.112 6.81 1.54 14.03
2/21/2021 7:45:00 AM -0.07 31.874 0.112 6.81 1.51 14.05
2/21/2021 8:00:00 AM -0.07 31.874 0.112 6.81 1.56 14.07
2/21/2021 8:15:00 AM -0.07 31.874 0.112 6.81 1.54 14.09
2/21/2021 8:30:00 AM -0.07 31.874 0.112 6.81 1.53 14.12
2/21/2021 8:45:00 AM -0.07 31.874 0.112 6.82 1.54 14.14
2/21/2021 9:00:00 AM -0.06 31.892 0.112 6.82 1.52 14.17
2/21/2021 9:15:00 AM -0.06 31.892 0.112 6.83 1.5 14.19
2/21/2021 9:30:00 AM -0.06 31.892 0.112 6.83 1.46 14.22
2/21/2021 9:45:00 AM -0.06 31.892 0.112 6.84 1.52 14.25
2/21/2021 10:00:00 AM -0.05 31.91 0.112 6.85 1.55 14.28
2/21/2021 10:15:00 AM -0.05 31.91 0.112 6.85 1.5 14.31
2/21/2021 10:30:00 AM -0.05 31.91 0.112 6.85 1.51 14.33
2/21/2021 10:45:00 AM -0.05 31.91 0.112 6.85 1.5 14.35
2/21/2021 11:00:00 AM -0.04 31.928 0.112 6.84 1.55 14.38
2/21/2021 11:15:00 AM -0.04 31.928 0.112 6.85 1.55 14.4
2/21/2021 11:30:00 AM -0.03 31.946 0.112 6.85 1.51 14.42
2/21/2021 11:45:00 AM -0.03 31.946 0.112 6.85 1.52 14.44
2/21/2021 12:00:00 PM -0.03 31.946 0.112 6.86 1.49 14.47
2/21/2021 12:15:00 PM -0.02 31.964 0.112 6.87 1.54 14.48
2/21/2021 12:30:00 PM -0.02 31.964 0.112 6.88 1.5 14.5
2/21/2021 12:45:00 PM -0.02 31.964 0.112 6.89 1.51 14.51
2/21/2021 1:00:00 PM -0.01 31.982 0.112 6.89 1.47 14.53
2/21/2021 1:15:00 PM -0.01 31.982 0.112 6.89 1.49 14.54
2/21/2021 1:30:00 PM -0.01 31.982 0.112 6.9 1.5 14.55
2/21/2021 1:45:00 PM -0.01 31.982 0.112 6.91 1.51 14.57
2/21/2021 2:00:00 PM -0.01 31.982 0.112 6.92 1.48 14.58
2/21/2021 2:15:00 PM -0.01 31.982 0.112 6.92 1.47 14.59
2/21/2021 2:30:00 PM -0.01 31.982 0.112 6.92 1.47 14.61
2/21/2021 2:45:00 PM -0.02 31.964 0.111 6.92 1.52 14.62
2/21/2021 3:00:00 PM -0.02 31.964 0.111 6.93 1.52 14.62
2/21/2021 3:15:00 PM -0.02 31.964 0.111 6.93 1.5 14.62
2/21/2021 3:30:00 PM -0.03 31.946 0.111 6.93 1.5 14.63
2/21/2021 3:45:00 PM -0.03 31.946 0.111 6.94 1.51 14.63
2/21/2021 4:00:00 PM -0.04 31.928 0.111 6.94 1.49 14.64
2/21/2021 4:15:00 PM -0.05 31.91 0.111 6.94 1.47 14.63
2/21/2021 4:30:00 PM -0.05 31.91 0.111 6.94 1.54 14.62
2/21/2021 4:45:00 PM -0.06 31.892 0.111 6.94 1.5 14.61
2/21/2021 5:00:00 PM -0.06 31.892 0.111 6.94 1.56 14.59
2/21/2021 5:15:00 PM -0.06 31.892 0.111 6.93 1.55 14.57
2/21/2021 5:30:00 PM -0.06 31.892 0.111 6.93 1.59 14.55
2/21/2021 5:45:00 PM -0.07 31.874 0.111 6.92 1.62 14.52
2/21/2021 6:00:00 PM -0.07 31.874 0.111 6.92 1.62 14.49
2/21/2021 6:15:00 PM -0.07 31.874 0.111 6.91 1.61 14.46
2/21/2021 6:30:00 PM -0.07 31.874 0.111 6.91 1.6 14.43
2/21/2021 6:45:00 PM -0.07 31.874 0.111 6.9 1.59 14.41
2/21/2021 7:00:00 PM -0.07 31.874 0.111 6.9 1.59 14.39
2/21/2021 7:15:00 PM -0.07 31.874 0.112 6.9 1.61 14.36
2/21/2021 7:30:00 PM -0.07 31.874 0.112 6.89 1.55 14.33
2/21/2021 7:45:00 PM -0.07 31.874 0.112 6.88 1.56 14.3
2/21/2021 8:00:00 PM -0.07 31.874 0.112 6.88 1.56 14.27
2/21/2021 8:15:00 PM -0.07 31.874 0.112 6.87 1.54 14.24
2/21/2021 8:30:00 PM -0.07 31.874 0.112 6.87 1.55 14.22
2/21/2021 8:45:00 PM -0.07 31.874 0.112 6.87 1.54 14.19
2/21/2021 9:00:00 PM -0.07 31.874 0.112 6.86 1.56 14.18
2/21/2021 9:15:00 PM -0.07 31.874 0.112 6.86 1.53 14.16
2/21/2021 9:30:00 PM -0.07 31.874 0.112 6.86 1.54 14.14
2/21/2021 9:45:00 PM -0.07 31.874 0.112 6.85 1.52 14.12
2/21/2021 10:00:00 PM -0.06 31.892 0.112 6.86 1.54 14.1
2/21/2021 10:15:00 PM -0.06 31.892 0.112 6.85 1.53 14.08
2/21/2021 10:30:00 PM -0.06 31.892 0.112 6.85 1.54 14.07
2/21/2021 10:45:00 PM -0.06 31.892 0.112 6.85 1.52 14.05
2/21/2021 11:00:00 PM -0.06 31.892 0.112 6.84 1.54 14.03
2/21/2021 11:15:00 PM -0.06 31.892 0.112 6.83 1.52 14.02
2/21/2021 11:30:00 PM -0.06 31.892 0.112 6.83 1.5 14
2/21/2021 11:45:00 PM -0.06 31.892 0.112 6.83 1.48 13.99
2/22/2021 12:00:00 AM -0.06 31.892 0.112 6.83 1.51 13.98
2/22/2021 12:15:00 AM -0.06 31.892 0.112 6.83 1.52 13.96
2/22/2021 12:30:00 AM -0.06 31.892 0.112 6.82 1.52 13.95
2/22/2021 12:45:00 AM -0.06 31.892 0.112 6.82 1.51 13.94
2/22/2021 1:00:00 AM -0.06 31.892 0.112 6.82 1.52 13.93
2/22/2021 1:15:00 AM -0.07 31.874 0.112 6.82 1.5 13.92
2/22/2021 1:30:00 AM -0.06 31.892 0.112 6.82 1.51 13.91
2/22/2021 1:45:00 AM -0.06 31.892 0.112 6.81 1.54 13.9
2/22/2021 2:00:00 AM -0.06 31.892 0.112 6.81 1.53 13.89
2/22/2021 2:15:00 AM -0.06 31.892 0.112 6.81 1.55 13.89
2/22/2021 2:30:00 AM -0.06 31.892 0.112 6.81 1.58 13.87
2/22/2021 2:45:00 AM -0.06 31.892 0.112 6.81 1.58 13.87
2/22/2021 3:00:00 AM -0.06 31.892 0.112 6.81 1.53 13.86
2/22/2021 3:15:00 AM -0.06 31.892 0.112 6.81 1.55 13.85
2/22/2021 3:30:00 AM -0.06 31.892 0.112 6.81 1.55 13.85
2/22/2021 3:45:00 AM -0.06 31.892 0.112 6.81 1.54 13.84
2/22/2021 4:00:00 AM -0.06 31.892 0.113 6.81 1.5 13.83
2/22/2021 4:15:00 AM -0.06 31.892 0.113 6.81 1.53 13.83
2/22/2021 4:30:00 AM -0.06 31.892 0.113 6.8 1.54 13.82
2/22/2021 4:45:00 AM -0.06 31.892 0.113 6.8 1.52 13.81
2/22/2021 5:00:00 AM -0.06 31.892 0.113 6.8 1.5 13.81
2/22/2021 5:15:00 AM -0.06 31.892 0.113 6.8 1.54 13.8
2/22/2021 5:30:00 AM -0.06 31.892 0.113 6.8 1.52 13.8
2/22/2021 5:45:00 AM -0.06 31.892 0.113 6.8 1.53 13.79
2/22/2021 6:00:00 AM -0.06 31.892 0.113 6.8 1.53 13.78
2/22/2021 6:15:00 AM -0.06 31.892 0.113 6.8 1.5 13.78
2/22/2021 6:30:00 AM -0.07 31.874 0.113 6.8 1.6 13.77
2/22/2021 6:45:00 AM -0.07 31.874 0.113 6.8 1.53 13.77
2/22/2021 7:00:00 AM -0.07 31.874 0.113 6.81 1.54 13.76
2/22/2021 7:15:00 AM -0.07 31.874 0.113 6.8 1.53 13.76
2/22/2021 7:30:00 AM -0.07 31.874 0.113 6.8 1.59 13.75
2/22/2021 7:45:00 AM -0.07 31.874 0.113 6.8 1.68 13.75
2/22/2021 8:00:00 AM -0.07 31.874 0.113 6.8 1.56 13.75
2/22/2021 8:15:00 AM -0.07 31.874 0.113 6.81 1.54 13.76
2/22/2021 8:30:00 AM -0.07 31.874 0.113 6.81 1.51 13.76
2/22/2021 8:45:00 AM -0.07 31.874 0.113 6.81 1.52 13.77
2/22/2021 9:00:00 AM -0.07 31.874 0.113 6.81 1.52 13.77
2/22/2021 9:15:00 AM -0.07 31.874 0.113 6.8 1.54 13.76
2/22/2021 9:30:00 AM -0.07 31.874 0.113 6.8 1.55 13.76
2/22/2021 9:45:00 AM -0.07 31.874 0.113 6.8 1.57 13.76
2/22/2021 10:00:00 AM -0.07 31.874 0.113 6.8 1.56 13.77
2/22/2021 10:15:00 AM -0.07 31.874 0.113 6.8 1.56 13.77
2/22/2021 10:30:00 AM -0.07 31.874 0.113 6.8 1.53 13.77
2/22/2021 10:45:00 AM -0.06 31.892 0.113 6.8 1.5 13.77
2/22/2021 11:00:00 AM -0.07 31.874 0.113 6.81 1.52 13.77
2/22/2021 11:15:00 AM -0.06 31.892 0.113 6.81 1.52 13.78
2/22/2021 11:30:00 AM -0.06 31.892 0.112 6.81 1.51 13.78
2/22/2021 11:45:00 AM -0.06 31.892 0.112 6.81 1.53 13.77
2/22/2021 12:00:00 PM -0.06 31.892 0.112 6.8 1.5 13.76
2/22/2021 12:15:00 PM -0.06 31.892 0.112 6.8 1.52 13.76
2/22/2021 12:30:00 PM -0.06 31.892 0.112 6.8 1.59 13.76
2/22/2021 12:45:00 PM -0.06 31.892 0.112 6.81 1.52 13.76
2/22/2021 1:00:00 PM -0.06 31.892 0.112 6.81 1.52 13.76
2/22/2021 1:15:00 PM -0.06 31.892 0.112 6.8 1.5 13.76
2/22/2021 1:30:00 PM -0.06 31.892 0.112 6.81 1.48 13.76
2/22/2021 1:45:00 PM -0.06 31.892 0.112 6.81 1.49 13.75
2/22/2021 2:00:00 PM -0.06 31.892 0.112 6.81 1.5 13.76
2/22/2021 2:15:00 PM -0.06 31.892 0.112 6.81 1.46 13.75
2/22/2021 2:30:00 PM -0.06 31.892 0.112 6.81 1.49 13.75
2/22/2021 2:45:00 PM -0.06 31.892 0.112 6.81 1.48 13.75
2/22/2021 3:00:00 PM -0.06 31.892 0.112 6.82 1.5 13.74
2/22/2021 3:15:00 PM -0.06 31.892 0.112 6.82 1.5 13.74
2/22/2021 3:30:00 PM -0.05 31.91 0.112 6.82 1.52 13.74
2/22/2021 3:45:00 PM -0.05 31.91 0.112 6.82 1.48 13.74
2/22/2021 4:00:00 PM -0.05 31.91 0.112 6.81 1.5 13.73
2/22/2021 4:15:00 PM -0.06 31.892 0.112 6.82 1.52 13.71
2/22/2021 4:30:00 PM -0.06 31.892 0.112 6.81 1.48 13.71
2/22/2021 4:45:00 PM -0.06 31.892 0.112 6.81 1.49 13.7
2/22/2021 5:00:00 PM -0.06 31.892 0.112 6.8 1.49 13.69
2/22/2021 5:15:00 PM -0.06 31.892 0.112 6.8 1.53 13.68
2/22/2021 5:30:00 PM -0.06 31.892 0.112 6.8 1.54 13.67
2/22/2021 5:45:00 PM -0.06 31.892 0.113 6.8 1.54 13.66
2/22/2021 6:00:00 PM -0.06 31.892 0.113 6.8 1.53 13.65
2/22/2021 6:15:00 PM -0.06 31.892 0.113 6.8 1.51 13.64
2/22/2021 6:30:00 PM -0.06 31.892 0.113 6.79 1.49 13.63
2/22/2021 6:45:00 PM -0.06 31.892 0.113 6.8 1.56 13.63
2/22/2021 7:00:00 PM -0.06 31.892 0.113 6.79 1.53 13.62
2/22/2021 7:15:00 PM -0.06 31.892 0.113 6.79 1.52 13.61
2/22/2021 7:30:00 PM -0.06 31.892 0.113 6.79 1.51 13.61
2/22/2021 7:45:00 PM -0.06 31.892 0.113 6.79 1.49 13.6
2/22/2021 8:00:00 PM -0.06 31.892 0.113 6.79 1.51 13.6
2/22/2021 8:15:00 PM -0.06 31.892 0.113 6.79 1.51 13.59
2/22/2021 8:30:00 PM -0.06 31.892 0.113 6.79 1.49 13.59
2/22/2021 8:45:00 PM -0.06 31.892 0.113 6.79 1.59 13.58
2/22/2021 9:00:00 PM -0.06 31.892 0.113 6.79 1.52 13.58
2/22/2021 9:15:00 PM -0.06 31.892 0.114 6.79 1.52 13.58
2/22/2021 9:30:00 PM -0.06 31.892 0.114 6.79 1.53 13.58
2/22/2021 9:45:00 PM -0.06 31.892 0.114 6.79 1.53 13.57
2/22/2021 10:00:00 PM -0.06 31.892 0.114 6.79 1.51 13.57
2/22/2021 10:15:00 PM -0.06 31.892 0.114 6.79 1.56 13.56
2/22/2021 10:30:00 PM -0.06 31.892 0.114 6.79 1.55 13.56
2/22/2021 10:45:00 PM -0.06 31.892 0.115 6.79 1.51 13.56
2/22/2021 11:00:00 PM -0.06 31.892 0.115 6.79 1.55 13.56
2/22/2021 11:15:00 PM -0.06 31.892 0.115 6.79 1.53 13.55
2/22/2021 11:30:00 PM -0.06 31.892 0.115 6.79 1.52 13.55
2/22/2021 11:45:00 PM -0.06 31.892 0.115 6.79 1.51 13.55
2/23/2021 12:00:00 AM -0.06 31.892 0.115 6.78 1.51 13.54
2/23/2021 12:15:00 AM -0.06 31.892 0.115 6.79 1.53 13.54
2/23/2021 12:30:00 AM -0.06 31.892 0.115 6.78 1.53 13.54
2/23/2021 12:45:00 AM -0.06 31.892 0.115 6.79 1.51 13.54
2/23/2021 1:00:00 AM -0.06 31.892 0.115 6.79 1.5 13.53
2/23/2021 1:15:00 AM -0.06 31.892 0.114 6.78 1.54 13.53
2/23/2021 1:30:00 AM -0.06 31.892 0.114 6.78 1.52 13.53
2/23/2021 1:45:00 AM -0.06 31.892 0.114 6.79 1.65 13.52
2/23/2021 2:00:00 AM -0.06 31.892 0.114 6.78 1.57 13.52
2/23/2021 2:15:00 AM -0.06 31.892 0.114 6.78 1.58 13.52
2/23/2021 2:30:00 AM -0.06 31.892 0.114 6.78 1.57 13.51
2/23/2021 2:45:00 AM -0.06 31.892 0.114 6.79 1.52 13.51
2/23/2021 3:00:00 AM -0.07 31.874 0.114 6.78 1.5 13.5
2/23/2021 3:15:00 AM -0.07 31.874 0.114 6.78 1.58 13.51
2/23/2021 3:30:00 AM -0.07 31.874 0.114 6.78 1.55 13.5
2/23/2021 3:45:00 AM -0.07 31.874 0.114 6.78 1.55 13.5
2/23/2021 4:00:00 AM -0.07 31.874 0.114 6.78 1.53 13.49
2/23/2021 4:15:00 AM -0.07 31.874 0.114 6.78 1.53 13.49
2/23/2021 4:30:00 AM -0.07 31.874 0.113 6.78 1.56 13.49
2/23/2021 4:45:00 AM -0.07 31.874 0.113 6.78 1.53 13.48
2/23/2021 5:00:00 AM -0.07 31.874 0.113 6.78 1.53 13.48
2/23/2021 5:15:00 AM -0.07 31.874 0.113 6.78 1.51 13.48
2/23/2021 5:30:00 AM -0.07 31.874 0.113 6.78 1.54 13.47
2/23/2021 5:45:00 AM -0.07 31.874 0.113 6.77 1.58 13.47
2/23/2021 6:00:00 AM -0.07 31.874 0.113 6.78 1.53 13.47
2/23/2021 6:15:00 AM -0.07 31.874 0.113 6.77 1.54 13.46
2/23/2021 6:30:00 AM -0.07 31.874 0.113 6.77 1.51 13.46
2/23/2021 6:45:00 AM -0.06 31.892 0.113 6.77 1.55 13.46
2/23/2021 7:00:00 AM -0.06 31.892 0.113 6.77 1.53 13.45
2/23/2021 7:15:00 AM -0.06 31.892 0.113 6.77 1.58 13.45
2/23/2021 7:30:00 AM -0.06 31.892 0.113 6.77 1.55 13.46
2/23/2021 7:45:00 AM -0.06 31.892 0.113 6.77 1.52 13.47
2/23/2021 8:00:00 AM -0.06 31.892 0.113 6.78 1.57 13.48
2/23/2021 8:15:00 AM -0.06 31.892 0.113 6.78 1.54 13.48
2/23/2021 8:30:00 AM -0.06 31.892 0.113 6.78 1.53 13.48
2/23/2021 8:45:00 AM -0.06 31.892 0.112 6.78 1.55 13.48
2/23/2021 9:00:00 AM -0.06 31.892 0.112 6.78 1.51 13.47
2/23/2021 9:15:00 AM -0.06 31.892 0.112 6.78 1.44 13.47
2/23/2021 9:30:00 AM -0.06 31.892 0.112 6.78 1.51 13.48
2/23/2021 9:45:00 AM -0.06 31.892 0.112 6.78 1.53 13.49
2/23/2021 10:00:00 AM -0.06 31.892 0.112 6.78 1.52 13.49
2/23/2021 10:15:00 AM -0.05 31.91 0.112 6.78 1.5 13.51
2/23/2021 10:30:00 AM -0.05 31.91 0.112 6.78 1.5 13.51
2/23/2021 10:45:00 AM -0.05 31.91 0.112 6.79 1.49 13.53
2/23/2021 11:00:00 AM -0.05 31.91 0.112 6.79 1.53 13.53
2/23/2021 11:15:00 AM -0.05 31.91 0.112 6.79 1.5 13.54
2/23/2021 11:30:00 AM -0.05 31.91 0.112 6.79 1.49 13.54
2/23/2021 11:45:00 AM -0.05 31.91 0.112 6.79 1.48 13.54
2/23/2021 12:00:00 PM -0.05 31.91 0.112 6.79 1.48 13.55
2/23/2021 12:15:00 PM -0.05 31.91 0.112 6.79 1.49 13.56
2/23/2021 12:30:00 PM -0.05 31.91 0.111 6.79 1.53 13.56
2/23/2021 12:45:00 PM -0.05 31.91 0.111 6.79 1.47 13.57
2/23/2021 1:00:00 PM -0.05 31.91 0.111 6.8 1.5 13.58
2/23/2021 1:15:00 PM -0.05 31.91 0.111 6.79 1.5 13.58
2/23/2021 1:30:00 PM -0.05 31.91 0.111 6.8 1.51 13.59
2/23/2021 1:45:00 PM -0.05 31.91 0.111 6.8 1.48 13.59
2/23/2021 2:00:00 PM -0.05 31.91 0.111 6.8 1.5 13.6
2/23/2021 2:15:00 PM -0.05 31.91 0.111 6.8 1.49 13.6
2/23/2021 2:30:00 PM -0.05 31.91 0.111 6.8 1.47 13.61
2/23/2021 2:45:00 PM -0.05 31.91 0.111 6.8 1.49 13.62
2/23/2021 3:00:00 PM -0.05 31.91 0.11 6.8 1.44 13.63
2/23/2021 3:15:00 PM -0.05 31.91 0.11 6.81 1.47 13.64
2/23/2021 3:30:00 PM -0.05 31.91 0.11 6.8 1.48 13.64
2/23/2021 3:45:00 PM -0.05 31.91 0.11 6.8 1.48 13.64
2/23/2021 4:00:00 PM -0.05 31.91 0.11 6.81 1.48 13.65
2/23/2021 4:15:00 PM -0.05 31.91 0.11 6.81 1.46 13.65
2/23/2021 4:30:00 PM -0.05 31.91 0.11 6.81 1.47 13.66
2/23/2021 4:45:00 PM -0.05 31.91 0.11 6.81 1.45 13.66
2/23/2021 5:00:00 PM -0.05 31.91 0.11 6.81 1.47 13.65
2/23/2021 5:15:00 PM -0.06 31.892 0.11 6.81 1.52 13.64
2/23/2021 5:30:00 PM -0.06 31.892 0.111 6.8 1.45 13.63
2/23/2021 5:45:00 PM -0.06 31.892 0.111 6.8 1.47 13.63
2/23/2021 6:00:00 PM -0.06 31.892 0.111 6.8 1.45 13.63
2/23/2021 6:15:00 PM -0.06 31.892 0.111 6.8 1.45 13.62
2/23/2021 6:30:00 PM -0.06 31.892 0.111 6.79 1.46 13.62
2/23/2021 6:45:00 PM -0.06 31.892 0.111 6.8 1.42 13.62
2/23/2021 7:00:00 PM -0.06 31.892 0.111 6.79 1.47 13.61
2/23/2021 7:15:00 PM -0.06 31.892 0.111 6.79 1.43 13.61
2/23/2021 7:30:00 PM -0.06 31.892 0.111 6.79 1.44 13.61
2/23/2021 7:45:00 PM -0.06 31.892 0.111 6.79 1.43 13.61
2/23/2021 8:00:00 PM -0.06 31.892 0.111 6.79 1.47 13.6
2/23/2021 8:15:00 PM -0.06 31.892 0.111 6.78 1.44 13.6
2/23/2021 8:30:00 PM -0.06 31.892 0.111 6.78 1.47 13.6
2/23/2021 8:45:00 PM -0.06 31.892 0.111 6.78 1.46 13.6
2/23/2021 9:00:00 PM -0.06 31.892 0.111 6.78 1.48 13.6
2/23/2021 9:15:00 PM -0.06 31.892 0.111 6.77 1.45 13.59
2/23/2021 9:30:00 PM -0.06 31.892 0.111 6.77 1.42 13.59
2/23/2021 9:45:00 PM -0.06 31.892 0.111 6.77 1.43 13.59
2/23/2021 10:00:00 PM -0.06 31.892 0.111 6.77 1.42 13.59
2/23/2021 10:15:00 PM -0.06 31.892 0.111 6.77 1.45 13.59
2/23/2021 10:30:00 PM -0.06 31.892 0.111 6.76 1.43 13.59
2/23/2021 10:45:00 PM -0.06 31.892 0.111 6.76 1.45 13.59
2/23/2021 11:00:00 PM -0.06 31.892 0.111 6.77 1.47 13.59
2/23/2021 11:15:00 PM -0.06 31.892 0.111 6.76 1.45 13.59
2/23/2021 11:30:00 PM -0.06 31.892 0.111 6.76 1.42 13.59
2/23/2021 11:45:00 PM -0.06 31.892 0.111 6.76 1.46 13.59
2/24/2021 12:00:00 AM -0.07 31.874 0.111 6.76 1.43 13.59
2/24/2021 12:15:00 AM -0.07 31.874 0.111 6.76 1.41 13.59
2/24/2021 12:30:00 AM -0.07 31.874 0.111 6.76 1.46 13.59
2/24/2021 12:45:00 AM -0.07 31.874 0.111 6.76 1.42 13.59
2/24/2021 1:00:00 AM -0.07 31.874 0.112 6.75 1.43 13.59
2/24/2021 1:15:00 AM -0.07 31.874 0.112 6.75 1.43 13.59
2/24/2021 1:30:00 AM -0.07 31.874 0.112 6.76 1.43 13.59
2/24/2021 1:45:00 AM -0.07 31.874 0.112 6.75 1.43 13.59
2/24/2021 2:00:00 AM -0.07 31.874 0.112 6.75 1.42 13.59
2/24/2021 2:15:00 AM -0.07 31.874 0.112 6.75 1.47 13.59
2/24/2021 2:30:00 AM -0.07 31.874 0.112 6.76 1.43 13.59
2/24/2021 2:45:00 AM -0.07 31.874 0.112 6.76 1.43 13.59
2/24/2021 3:00:00 AM -0.07 31.874 0.112 6.76 1.44 13.59
2/24/2021 3:15:00 AM -0.07 31.874 0.112 6.76 1.43 13.59
2/24/2021 3:30:00 AM -0.07 31.874 0.112 6.75 1.42 13.58
2/24/2021 3:45:00 AM -0.07 31.874 0.112 6.75 1.48 13.58
2/24/2021 4:00:00 AM -0.07 31.874 0.112 6.75 1.42 13.58
2/24/2021 4:15:00 AM -0.07 31.874 0.112 6.75 1.43 13.58
2/24/2021 4:30:00 AM -0.07 31.874 0.112 6.75 1.43 13.58
2/24/2021 4:45:00 AM -0.07 31.874 0.113 6.75 1.45 13.58
2/24/2021 5:00:00 AM -0.07 31.874 0.113 6.75 1.43 13.58
2/24/2021 5:15:00 AM -0.07 31.874 0.113 6.75 1.44 13.58
2/24/2021 5:30:00 AM -0.07 31.874 0.113 6.75 1.39 13.58
2/24/2021 5:45:00 AM -0.07 31.874 0.113 6.75 1.42 13.58
2/24/2021 6:00:00 AM -0.07 31.874 0.113 6.75 1.43 13.58
2/24/2021 6:15:00 AM -0.07 31.874 0.113 6.74 1.43 13.58
2/24/2021 6:30:00 AM -0.07 31.874 0.113 6.75 1.44 13.59
2/24/2021 6:45:00 AM -0.07 31.874 0.113 6.74 1.45 13.59
2/24/2021 7:00:00 AM -0.07 31.874 0.113 6.75 1.45 13.59
2/24/2021 7:15:00 AM -0.07 31.874 0.113 6.75 1.43 13.6
2/24/2021 7:30:00 AM -0.07 31.874 0.113 6.75 1.45 13.62
2/24/2021 7:45:00 AM -0.07 31.874 0.113 6.74 1.45 13.64
2/24/2021 8:00:00 AM -0.06 31.892 0.113 6.75 1.43 13.66
2/24/2021 8:15:00 AM -0.06 31.892 0.113 6.75 1.46 13.68
2/24/2021 8:30:00 AM -0.06 31.892 0.113 6.76 1.42 13.69
2/24/2021 8:45:00 AM -0.06 31.892 0.113 6.76 1.44 13.71
2/24/2021 9:00:00 AM -0.05 31.91 0.113 6.76 1.41 13.73
2/24/2021 9:15:00 AM -0.05 31.91 0.113 6.76 1.45 13.75
2/24/2021 9:30:00 AM -0.04 31.928 0.113 6.77 1.45 13.77
2/24/2021 9:45:00 AM -0.04 31.928 0.112 6.76 1.42 13.78
2/24/2021 10:00:00 AM -0.03 31.946 0.112 6.77 1.41 13.8
2/24/2021 10:15:00 AM -0.03 31.946 0.112 6.77 1.4 13.82
2/24/2021 10:30:00 AM -0.02 31.964 0.112 6.77 1.45 13.83
2/24/2021 10:45:00 AM -0.02 31.964 0.112 6.78 1.42 13.85
2/24/2021 11:00:00 AM -0.01 31.982 0.112 6.79 1.4 13.86
2/24/2021 11:15:00 AM -0.01 31.982 0.112 6.78 1.44 13.87
2/24/2021 11:30:00 AM -0.01 31.982 0.112 6.79 1.39 13.89
2/24/2021 11:45:00 AM 0 32 0.112 6.79 1.41 13.9
2/24/2021 12:00:00 PM 0 32 0.111 6.8 1.39 13.91
2/24/2021 12:15:00 PM 0 32 0.111 6.81 1.42 13.92
2/24/2021 12:30:00 PM 0 32 0.111 6.8 1.4 13.93
2/24/2021 12:45:00 PM 0 32 0.111 6.81 1.44 13.94
2/24/2021 1:00:00 PM 0.01 32.018 0.111 6.82 1.4 13.96
2/24/2021 1:15:00 PM 0 32 0.111 6.82 1.43 13.97
2/24/2021 1:30:00 PM -0.01 31.982 0.111 6.82 1.4 13.98
2/24/2021 1:45:00 PM -0.02 31.964 0.111 6.82 1.43 13.98
2/24/2021 2:00:00 PM -0.03 31.946 0.111 6.82 1.44 13.99
2/24/2021 2:15:00 PM -0.03 31.946 0.111 6.82 1.45 14
2/24/2021 2:30:00 PM -0.03 31.946 0.111 6.83 1.47 14.02
2/24/2021 2:45:00 PM -0.02 31.964 0.11 6.83 1.46 14.04
2/24/2021 3:00:00 PM -0.02 31.964 0.111 6.83 1.44 14.06
2/24/2021 3:15:00 PM -0.04 31.928 0.111 6.83 1.56 14.05
2/24/2021 3:30:00 PM -0.04 31.928 0.112 6.84 1.48 14.04
2/24/2021 3:45:00 PM -0.04 31.928 0.112 6.82 1.55 14.05
2/24/2021 4:00:00 PM -0.04 31.928 0.112 6.83 1.53 14.03
2/24/2021 4:15:00 PM -0.05 31.91 0.113 6.83 1.56 14.03
2/24/2021 4:30:00 PM -0.05 31.91 0.113 6.83 1.64 14.02
2/24/2021 4:45:00 PM -0.05 31.91 0.114 6.84 1.67 14
2/24/2021 5:00:00 PM -0.05 31.91 0.114 6.82 1.71 13.98
2/24/2021 5:15:00 PM -0.05 31.91 0.114 6.82 1.75 13.95
2/24/2021 5:30:00 PM -0.05 31.91 0.114 6.81 1.78 13.93
2/24/2021 5:45:00 PM -0.05 31.91 0.114 6.79 1.81 13.91
2/24/2021 6:00:00 PM -0.05 31.91 0.114 6.78 1.79 13.89
2/24/2021 6:15:00 PM -0.05 31.91 0.113 6.77 1.84 13.86
2/24/2021 6:30:00 PM -0.06 31.892 0.113 6.77 1.87 13.84
2/24/2021 6:45:00 PM -0.06 31.892 0.113 6.75 1.89 13.82
2/24/2021 7:00:00 PM -0.05 31.91 0.113 6.76 1.92 13.79
2/24/2021 7:15:00 PM -0.05 31.91 0.113 6.75 1.95 13.77
2/24/2021 7:30:00 PM -0.06 31.892 0.113 6.75 2.01 13.75
2/24/2021 7:45:00 PM -0.06 31.892 0.113 6.75 2.04 13.73
2/24/2021 8:00:00 PM -0.06 31.892 0.113 6.75 1.97 13.72
2/24/2021 8:15:00 PM -0.06 31.892 0.114 6.74 1.97 13.7
2/24/2021 8:30:00 PM -0.06 31.892 0.114 6.75 2.06 13.68
2/24/2021 8:45:00 PM -0.06 31.892 0.114 6.74 2.08 13.66
2/24/2021 9:00:00 PM -0.06 31.892 0.114 6.74 2.12 13.65
2/24/2021 9:15:00 PM -0.06 31.892 0.115 6.74 2.12 13.63
2/24/2021 9:30:00 PM -0.06 31.892 0.115 6.74 2.06 13.62
2/24/2021 9:45:00 PM -0.06 31.892 0.115 6.75 2.24 13.62
2/24/2021 10:00:00 PM -0.06 31.892 0.115 6.76 2.36 13.61
2/24/2021 10:15:00 PM -0.06 31.892 0.116 6.77 2.35 13.6
2/24/2021 10:30:00 PM -0.06 31.892 0.116 6.77 2.36 13.59
2/24/2021 10:45:00 PM -0.06 31.892 0.117 6.78 2.46 13.58
2/24/2021 11:00:00 PM -0.06 31.892 0.118 6.78 2.36 13.58
2/24/2021 11:15:00 PM -0.06 31.892 0.118 6.8 2.47 13.58
2/24/2021 11:30:00 PM -0.06 31.892 0.118 6.79 2.41 13.58
2/24/2021 11:45:00 PM -0.06 31.892 0.119 6.79 2.43 13.58
2/25/2021 12:00:00 AM -0.06 31.892 0.119 6.79 2.49 13.58
2/25/2021 12:15:00 AM -0.06 31.892 0.119 6.78 2.48 13.58
2/25/2021 12:30:00 AM -0.06 31.892 0.119 6.79 2.54 13.59
2/25/2021 12:45:00 AM -0.06 31.892 0.119 6.79 2.6 13.59
2/25/2021 1:00:00 AM -0.06 31.892 0.119 6.79 2.59 13.59
2/25/2021 1:15:00 AM -0.06 31.892 0.119 6.79 2.75 13.6
2/25/2021 1:30:00 AM -0.06 31.892 0.12 6.74 3.09 13.61
2/25/2021 1:45:00 AM -0.06 31.892 0.12 6.74 3.07 13.61
2/25/2021 2:00:00 AM -0.06 31.892 0.12 6.74 2.98 13.62
2/25/2021 2:15:00 AM -0.06 31.892 0.121 6.75 3.1 13.63
2/25/2021 2:30:00 AM -0.06 31.892 0.121 6.74 3.2 13.64
2/25/2021 2:45:00 AM -0.06 31.892 0.121 6.74 3.19 13.64
2/25/2021 3:00:00 AM -0.07 31.874 0.121 6.75 3.13 13.65
2/25/2021 3:15:00 AM -0.07 31.874 0.121 6.75 3.2 13.66
2/25/2021 3:30:00 AM -0.07 31.874 0.121 6.75 3.06 13.67
2/25/2021 3:45:00 AM -0.07 31.874 0.121 6.74 3 13.68
2/25/2021 4:00:00 AM -0.07 31.874 0.121 6.74 3.01 13.69
2/25/2021 4:15:00 AM -0.07 31.874 0.12 6.73 3.12 13.69
2/25/2021 4:30:00 AM -0.07 31.874 0.12 6.74 3.13 13.71
2/25/2021 4:45:00 AM -0.07 31.874 0.12 6.75 3.21 13.71
2/25/2021 5:00:00 AM -0.07 31.874 0.119 6.76 3.35 13.72
2/25/2021 5:15:00 AM -0.07 31.874 0.119 6.75 3.32 13.73
2/25/2021 5:30:00 AM -0.07 31.874 0.119 6.74 3.22 13.74
2/25/2021 5:45:00 AM -0.07 31.874 0.119 6.74 3.28 13.75
2/25/2021 6:00:00 AM -0.07 31.874 0.119 6.75 3.44 13.75
2/25/2021 6:15:00 AM -0.07 31.874 0.118 6.76 3.48 13.76
2/25/2021 6:30:00 AM -0.07 31.874 0.118 6.74 3.33 13.77
2/25/2021 6:45:00 AM -0.07 31.874 0.119 6.76 3.28 13.78
2/25/2021 7:00:00 AM -0.07 31.874 0.119 6.79 3.32 13.79
2/25/2021 7:15:00 AM -0.07 31.874 0.119 6.78 3.44 13.82
2/25/2021 7:30:00 AM -0.06 31.892 0.119 6.79 3.48 13.84
2/25/2021 7:45:00 AM -0.06 31.892 0.119 6.8 3.46 13.87
2/25/2021 8:00:00 AM -0.06 31.892 0.119 6.79 3.63 13.9
2/25/2021 8:15:00 AM -0.06 31.892 0.119 6.76 3.5 13.93
2/25/2021 8:30:00 AM -0.06 31.892 0.119 6.78 3.78 13.96
2/25/2021 8:45:00 AM -0.06 31.892 0.12 6.79 3.53 13.99
2/25/2021 9:00:00 AM -0.06 31.892 0.12 6.79 3.91 14.02
2/25/2021 9:15:00 AM -0.05 31.91 0.12 6.8 4 14.04
2/25/2021 9:30:00 AM -0.05 31.91 0.12 6.8 3.93 14.06
2/25/2021 9:45:00 AM -0.04 31.928 0.12 6.8 3.89 14.08
2/25/2021 10:00:00 AM -0.04 31.928 0.12 6.8 3.93 14.09
2/25/2021 10:15:00 AM -0.04 31.928 0.12 6.79 3.94 14.11
2/25/2021 10:30:00 AM -0.04 31.928 0.12 6.79 3.8 14.12
2/25/2021 10:45:00 AM -0.04 31.928 0.12 6.8 3.89 14.14
2/25/2021 11:00:00 AM -0.04 31.928 0.12 6.82 4.23 14.15
2/25/2021 11:15:00 AM -0.04 31.928 0.12 6.82 4.99 14.16
2/25/2021 11:30:00 AM -0.03 31.946 0.121 6.78 6.49 14.16
2/25/2021 11:45:00 AM -0.03 31.946 0.121 6.79 5.88 14.16
2/25/2021 12:00:00 PM -0.03 31.946 0.12 6.78 6.03 14.16
2/25/2021 12:15:00 PM -0.03 31.946 0.12 6.79 5.86 14.17
2/25/2021 12:30:00 PM -0.02 31.964 0.12 6.82 5.41 14.17
2/25/2021 12:45:00 PM -0.02 31.964 0.121 6.82 5.81 14.17
2/25/2021 1:00:00 PM 0 32 0.14 6.82 5.51 14.15
2/25/2021 1:15:00 PM -0.01 31.982 0.129 6.82 5.78 14.17
2/25/2021 1:30:00 PM -0.01 31.982 0.123 6.84 5.61 14.19
2/25/2021 1:45:00 PM -0.01 31.982 0.118 6.85 5.65 14.19
2/25/2021 2:00:00 PM -0.01 31.982 0.116 6.82 5.61 14.19
2/25/2021 2:15:00 PM -0.01 31.982 0.115 6.81 5.26 14.18
2/25/2021 2:30:00 PM -0.01 31.982 0.115 6.83 5.39 14.18
2/25/2021 2:45:00 PM -0.02 31.964 0.116 6.8 5.23 14.18
2/25/2021 3:00:00 PM -0.02 31.964 0.118 6.8 5.44 14.18
2/25/2021 3:15:00 PM -0.05 31.91 0.12 6.85 12.64 14.17
2/25/2021 3:30:00 PM -0.03 31.946 0.123 6.87 5.86 14.18
2/25/2021 3:45:00 PM -0.04 31.928 0.127 6.88 5.74 14.17
2/25/2021 4:00:00 PM -0.04 31.928 0.132 6.87 5.45 14.17
2/25/2021 4:15:00 PM -0.04 31.928 0.136 6.88 5.56 14.17
2/25/2021 4:30:00 PM -0.05 31.91 0.141 6.89 5.47 14.16
2/25/2021 4:45:00 PM -0.05 31.91 0.146 6.89 5.49 14.16
2/25/2021 5:00:00 PM -0.05 31.91 0.151 6.89 5.44 14.15
2/25/2021 5:15:00 PM -0.05 31.91 0.155 6.89 5.64 14.15
2/25/2021 5:30:00 PM -0.06 31.892 0.16 6.89 5.63 14.13
2/25/2021 5:45:00 PM -0.06 31.892 0.164 6.88 5.55 14.12
2/25/2021 6:00:00 PM -0.06 31.892 0.168 6.84 5.4 14.11
2/25/2021 6:15:00 PM -0.06 31.892 0.172 6.86 5.46 14.09
2/25/2021 6:30:00 PM -0.06 31.892 0.175 6.85 5.52 14.08
2/25/2021 6:45:00 PM -0.06 31.892 0.178 6.88 5.56 14.07
2/25/2021 7:00:00 PM -0.06 31.892 0.181 6.85 5.56 14.05
2/25/2021 7:15:00 PM -0.06 31.892 0.184 6.86 5.45 14.04
2/25/2021 7:30:00 PM -0.06 31.892 0.186 6.85 5.21 14.03
2/25/2021 7:45:00 PM -0.06 31.892 0.188 6.87 5.23 14.02
2/25/2021 8:00:00 PM -0.06 31.892 0.189 6.87 5.07 14.01
2/25/2021 8:15:00 PM -0.06 31.892 0.191 6.85 5.09 14
2/25/2021 8:30:00 PM -0.06 31.892 0.192 6.85 5.07 13.99
2/25/2021 8:45:00 PM -0.06 31.892 0.193 6.85 5.01 13.98
2/25/2021 9:00:00 PM -0.06 31.892 0.193 6.86 4.91 13.98
2/25/2021 9:15:00 PM -0.06 31.892 0.194 6.85 4.97 13.97
2/25/2021 9:30:00 PM -0.06 31.892 0.195 6.86 4.9 13.97
2/25/2021 9:45:00 PM -0.06 31.892 0.195 6.85 4.73 13.97
2/25/2021 10:00:00 PM -0.06 31.892 0.195 6.84 4.8 13.96
2/25/2021 10:15:00 PM -0.06 31.892 0.195 6.83 4.66 13.96
2/25/2021 10:30:00 PM -0.06 31.892 0.195 6.84 4.85 13.95
2/25/2021 10:45:00 PM -0.06 31.892 0.195 6.82 5.07 13.95
2/25/2021 11:00:00 PM -0.06 31.892 0.194 6.8 4.92 13.95
2/25/2021 11:15:00 PM -0.06 31.892 0.194 6.82 4.98 13.95
2/25/2021 11:30:00 PM -0.06 31.892 0.193 6.83 4.94 13.94
2/25/2021 11:45:00 PM -0.06 31.892 0.193 6.81 5.07 13.94
2/26/2021 12:00:00 AM -0.06 31.892 0.192 6.79 5.05 13.94
2/26/2021 12:15:00 AM -0.07 31.874 0.191 6.8 4.85 13.93
2/26/2021 12:30:00 AM -0.06 31.892 0.19 6.8 4.89 13.93
2/26/2021 12:45:00 AM -0.06 31.892 0.189 6.8 4.94 13.93
2/26/2021 1:00:00 AM -0.06 31.892 0.189 6.8 4.94 13.93
2/26/2021 1:15:00 AM -0.06 31.892 0.188 6.79 4.93 13.92
2/26/2021 1:30:00 AM -0.06 31.892 0.187 6.79 5 13.92
2/26/2021 1:45:00 AM -0.07 31.874 0.186 6.8 4.97 13.92
2/26/2021 2:00:00 AM -0.07 31.874 0.185 6.79 4.93 13.93
2/26/2021 2:15:00 AM -0.07 31.874 0.184 6.79 4.91 13.92
2/26/2021 2:30:00 AM -0.07 31.874 0.183 6.79 4.88 13.93
2/26/2021 2:45:00 AM -0.06 31.892 0.182 6.78 4.78 13.93
2/26/2021 3:00:00 AM -0.06 31.892 0.181 6.78 4.84 13.92
2/26/2021 3:15:00 AM -0.06 31.892 0.18 6.79 4.91 13.93
2/26/2021 3:30:00 AM -0.06 31.892 0.18 6.79 4.84 13.93
2/26/2021 3:45:00 AM -0.06 31.892 0.179 6.79 4.73 13.92
2/26/2021 4:00:00 AM -0.06 31.892 0.178 6.78 4.8 13.93
2/26/2021 4:15:00 AM -0.06 31.892 0.177 6.78 4.85 13.92
2/26/2021 4:30:00 AM -0.06 31.892 0.176 6.78 4.82 13.92
2/26/2021 4:45:00 AM -0.06 31.892 0.175 6.77 4.74 13.92
2/26/2021 5:00:00 AM -0.06 31.892 0.175 6.78 4.74 13.92
2/26/2021 5:15:00 AM -0.07 31.874 0.174 6.78 4.78 13.92
2/26/2021 5:30:00 AM -0.07 31.874 0.173 6.79 4.69 13.92
2/26/2021 5:45:00 AM -0.07 31.874 0.172 6.79 4.55 13.93
2/26/2021 6:00:00 AM -0.07 31.874 0.172 6.79 4.57 13.93
2/26/2021 6:15:00 AM -0.07 31.874 0.171 6.79 4.42 13.93
2/26/2021 6:30:00 AM -0.07 31.874 0.17 6.79 4.33 13.94
2/26/2021 6:45:00 AM -0.07 31.874 0.169 6.79 4.5 13.94
2/26/2021 7:00:00 AM -0.07 31.874 0.168 6.79 4.33 13.95
2/26/2021 7:15:00 AM -0.07 31.874 0.168 6.79 4.36 13.97
2/26/2021 7:30:00 AM -0.07 31.874 0.167 6.78 4.19 13.98
2/26/2021 7:45:00 AM -0.07 31.874 0.166 6.79 4.19 13.99
2/26/2021 8:00:00 AM -0.06 31.892 0.165 6.79 4.21 14.01
2/26/2021 8:15:00 AM -0.06 31.892 0.165 6.79 4.05 14.03
2/26/2021 8:30:00 AM -0.05 31.91 0.164 6.8 4.13 14.04
2/26/2021 8:45:00 AM -0.05 31.91 0.163 6.79 4.24 14.06
2/26/2021 9:00:00 AM -0.04 31.928 0.162 6.79 4.26 14.08
2/26/2021 9:15:00 AM -0.04 31.928 0.162 6.87 4.14 14.09
2/26/2021 9:30:00 AM -0.03 31.946 0.161 6.87 4.06 14.1
2/26/2021 9:45:00 AM -0.02 31.964 0.16 6.87 3.97 14.12
2/26/2021 10:00:00 AM -0.02 31.964 0.159 6.89 4.12 14.13
2/26/2021 10:15:00 AM -0.01 31.982 0.158 6.82 4.09 14.14
2/26/2021 10:30:00 AM 0 32 0.158 6.82 3.94 14.15
2/26/2021 10:45:00 AM 0 32 0.157 6.82 4.08 14.15
2/26/2021 11:00:00 AM 0 32 0.156 6.79 3.96 14.16
2/26/2021 11:15:00 AM -0.01 31.982 0.155 6.8 3.96 14.17
2/26/2021 11:30:00 AM 0.01 32.018 0.155 6.8 4 14.18
2/26/2021 11:45:00 AM 0.01 32.018 0.154 6.81 4.04 14.19
2/26/2021 12:00:00 PM 0.01 32.018 0.153 6.83 3.93 14.21
2/26/2021 12:15:00 PM 0 32 0.152 6.82 4.13 14.21
2/26/2021 12:30:00 PM 0.01 32.018 0.152 6.83 4.09 14.22
2/26/2021 12:45:00 PM 0.01 32.018 0.151 6.83 3.99 14.23
2/26/2021 1:00:00 PM 0.01 32.018 0.151 6.83 3.86 14.24
2/26/2021 1:15:00 PM 0 32 0.15 6.84 4.22 14.25
2/26/2021 1:30:00 PM 0 32 0.15 6.85 4.11 14.25
2/26/2021 1:45:00 PM 0 32 0.149 6.84 4.02 14.26
2/26/2021 2:00:00 PM 0.01 32.018 0.149 6.85 3.95 14.26
2/26/2021 2:15:00 PM 0.01 32.018 0.148 6.85 3.98 14.27
2/26/2021 2:30:00 PM 0 32 0.148 6.87 4.03 14.27
2/26/2021 2:45:00 PM 0 32 0.148 6.87 3.76 14.28
2/26/2021 3:00:00 PM -0.01 31.982 0.147 6.9 5.93 14.27
2/26/2021 3:15:00 PM -0.01 31.982 0.147 6.9 3.92 14.28
2/26/2021 3:30:00 PM -0.01 31.982 0.147 6.88 3.89 14.28
2/26/2021 3:45:00 PM -0.02 31.964 0.146 6.87 3.89 14.28
2/26/2021 4:00:00 PM -0.02 31.964 0.146 6.86 3.92 14.27
2/26/2021 4:15:00 PM -0.02 31.964 0.146 6.86 3.79 14.27
2/26/2021 4:30:00 PM -0.02 31.964 0.146 6.87 3.78 14.25
2/26/2021 4:45:00 PM -0.02 31.964 0.146 6.85 3.74 14.24
2/26/2021 5:00:00 PM -0.03 31.946 0.146 6.86 3.77 14.24
2/26/2021 5:15:00 PM -0.03 31.946 0.146 6.85 3.72 14.22
2/26/2021 5:30:00 PM -0.03 31.946 0.146 6.85 3.76 14.19
2/26/2021 5:45:00 PM -0.04 31.928 0.145 6.85 3.94 14.17
2/26/2021 6:00:00 PM -0.04 31.928 0.145 6.85 3.75 14.15
2/26/2021 6:15:00 PM -0.04 31.928 0.145 6.85 3.67 14.14
2/26/2021 6:30:00 PM -0.04 31.928 0.145 6.84 3.67 14.12
2/26/2021 6:45:00 PM -0.04 31.928 0.145 6.84 3.74 14.09
2/26/2021 7:00:00 PM -0.05 31.91 0.145 6.83 3.78 14.08
2/26/2021 7:15:00 PM -0.05 31.91 0.145 6.83 3.73 14.07
2/26/2021 7:30:00 PM -0.05 31.91 0.145 6.82 3.75 14.05
2/26/2021 7:45:00 PM -0.05 31.91 0.144 6.81 3.63 14.04
2/26/2021 8:00:00 PM -0.05 31.91 0.144 6.81 3.54 14.02
2/26/2021 8:15:00 PM -0.05 31.91 0.144 6.8 3.55 14.01
2/26/2021 8:30:00 PM -0.05 31.91 0.144 6.8 3.5 13.99
2/26/2021 8:45:00 PM -0.05 31.91 0.144 6.8 3.47 13.98
2/26/2021 9:00:00 PM -0.05 31.91 0.143 6.8 3.43 13.97
2/26/2021 9:15:00 PM -0.04 31.928 0.143 6.81 3.5 13.97
2/26/2021 9:30:00 PM -0.04 31.928 0.143 6.81 3.45 13.96
2/26/2021 9:45:00 PM -0.04 31.928 0.142 6.8 3.43 13.95
2/26/2021 10:00:00 PM -0.04 31.928 0.142 6.8 3.54 13.94
2/26/2021 10:15:00 PM -0.04 31.928 0.142 6.79 3.46 13.94
2/26/2021 10:30:00 PM -0.04 31.928 0.142 6.78 3.38 13.93
2/26/2021 10:45:00 PM -0.04 31.928 0.141 6.79 3.4 13.92
2/26/2021 11:00:00 PM -0.04 31.928 0.141 6.8 3.46 13.91
2/26/2021 11:15:00 PM -0.04 31.928 0.141 6.85 3.27 13.91
2/26/2021 11:30:00 PM -0.03 31.946 0.14 6.85 3.4 13.91
2/26/2021 11:45:00 PM -0.03 31.946 0.14 6.8 3.27 13.9
2/27/2021 12:00:00 AM -0.03 31.946 0.14 6.79 3.23 13.89
2/27/2021 12:15:00 AM -0.03 31.946 0.139 6.8 3.33 13.89
2/27/2021 12:30:00 AM -0.03 31.946 0.139 6.77 3.29 13.88
2/27/2021 12:45:00 AM -0.03 31.946 0.139 6.74 3.11 13.88
2/27/2021 1:00:00 AM -0.03 31.946 0.138 6.74 3.18 13.87
2/27/2021 1:15:00 AM -0.03 31.946 0.138 6.75 3.07 13.87
2/27/2021 1:30:00 AM -0.03 31.946 0.138 6.77 3.15 13.87
2/27/2021 1:45:00 AM -0.02 31.964 0.138 6.76 3.06 13.86
2/27/2021 2:00:00 AM -0.02 31.964 0.138 6.78 3.11 13.85
2/27/2021 2:15:00 AM -0.02 31.964 0.137 6.78 3.14 13.85
2/27/2021 2:30:00 AM -0.02 31.964 0.137 6.79 3.17 13.85
2/27/2021 2:45:00 AM -0.02 31.964 0.137 6.79 3.14 13.84
2/27/2021 3:00:00 AM -0.02 31.964 0.137 6.79 3.24 13.84
2/27/2021 3:15:00 AM -0.02 31.964 0.137 6.77 3.19 13.83
2/27/2021 3:30:00 AM -0.02 31.964 0.137 6.77 3.17 13.83
2/27/2021 3:45:00 AM -0.02 31.964 0.137 6.77 3.26 13.82
2/27/2021 4:00:00 AM -0.02 31.964 0.137 6.77 3.13 13.82
2/27/2021 4:15:00 AM -0.02 31.964 0.136 6.78 3.17 13.82
2/27/2021 4:30:00 AM -0.02 31.964 0.136 6.77 3.11 13.82
2/27/2021 4:45:00 AM -0.02 31.964 0.136 6.76 3.15 13.81
2/27/2021 5:00:00 AM -0.02 31.964 0.136 6.76 3.09 13.81
2/27/2021 5:15:00 AM -0.02 31.964 0.136 6.76 3.14 13.81
2/27/2021 5:30:00 AM -0.02 31.964 0.136 6.76 3.06 13.8
2/27/2021 5:45:00 AM -0.02 31.964 0.136 6.77 3.05 13.8
2/27/2021 6:00:00 AM -0.02 31.964 0.135 6.76 3.16 13.8
2/27/2021 6:15:00 AM -0.02 31.964 0.135 6.76 3.07 13.8
2/27/2021 6:30:00 AM -0.02 31.964 0.135 6.76 3.08 13.79
2/27/2021 6:45:00 AM -0.02 31.964 0.134 6.76 3.2 13.8
2/27/2021 7:00:00 AM -0.02 31.964 0.134 6.76 3.11 13.79
2/27/2021 7:15:00 AM -0.02 31.964 0.134 6.76 3.1 13.79
2/27/2021 7:30:00 AM -0.02 31.964 0.134 6.77 3.13 13.8
2/27/2021 7:45:00 AM -0.01 31.982 0.133 6.77 2.99 13.81
2/27/2021 8:00:00 AM -0.01 31.982 0.133 6.78 3.17 13.82
2/27/2021 8:15:00 AM -0.01 31.982 0.133 6.8 3.16 13.83
2/27/2021 8:30:00 AM 0 32 0.132 6.8 3.08 13.85
2/27/2021 8:45:00 AM -0.01 31.982 0.132 6.81 3.13 13.86
2/27/2021 9:00:00 AM -0.01 31.982 0.132 6.79 3.1 13.86
2/27/2021 9:15:00 AM -0.01 31.982 0.131 6.8 3.05 13.88
2/27/2021 9:30:00 AM 0 32 0.131 6.8 3.01 13.89
2/27/2021 9:45:00 AM 0 32 0.13 6.82 3.11 13.91
2/27/2021 10:00:00 AM 0 32 0.13 6.81 3.14 13.93
2/27/2021 10:15:00 AM 0 32 0.129 6.82 3.07 13.95
2/27/2021 10:30:00 AM 0 32 0.129 6.82 3.04 13.96
2/27/2021 10:45:00 AM 0.01 32.018 0.129 6.8 3.09 13.98
2/27/2021 11:00:00 AM 0.01 32.018 0.128 6.8 3.02 14
2/27/2021 11:15:00 AM 0.01 32.018 0.128 6.81 3.07 14.01
2/27/2021 11:30:00 AM 0.02 32.036 0.127 6.81 3.01 14.03
2/27/2021 11:45:00 AM 0.03 32.054 0.127 6.81 3.08 14.05
2/27/2021 12:00:00 PM 0.03 32.054 0.127 6.83 3.11 14.06
2/27/2021 12:15:00 PM 0.04 32.072 0.126 6.82 3.13 14.08
2/27/2021 12:30:00 PM 0.04 32.072 0.126 6.83 3.08 14.09
2/27/2021 12:45:00 PM 0.03 32.054 0.126 6.83 3.14 14.1
2/27/2021 1:00:00 PM 0.03 32.054 0.125 6.84 3.18 14.11
2/27/2021 1:15:00 PM 0.03 32.054 0.125 6.83 3.19 14.12
2/27/2021 1:30:00 PM 0.04 32.072 0.124 6.84 3.21 14.12
2/27/2021 1:45:00 PM 0.04 32.072 0.124 6.83 3.04 14.12
2/27/2021 2:00:00 PM 0.04 32.072 0.123 6.84 3.22 14.13
2/27/2021 2:15:00 PM 0.04 32.072 0.123 6.83 3.12 14.13
2/27/2021 2:30:00 PM 0.04 32.072 0.123 6.84 3.22 14.13
2/27/2021 2:45:00 PM 0.04 32.072 0.122 6.85 3.25 14.14
2/27/2021 3:00:00 PM 0.04 32.072 0.122 6.83 3.27 14.14
2/27/2021 3:15:00 PM 0.05 32.09 0.121 6.84 3.24 14.15
2/27/2021 3:30:00 PM 0.05 32.09 0.121 6.84 3.37 14.15
2/27/2021 3:45:00 PM 0.04 32.072 0.121 6.84 3.27 14.15
2/27/2021 4:00:00 PM 0.04 32.072 0.121 6.84 3.33 14.15
2/27/2021 4:15:00 PM 0.03 32.054 0.12 6.84 3.38 14.14
2/27/2021 4:30:00 PM 0.03 32.054 0.12 6.83 3.37 14.14
2/27/2021 4:45:00 PM 0.01 32.018 0.12 6.84 3.38 14.13
2/27/2021 5:00:00 PM 0.01 32.018 0.12 6.83 3.37 14.12
2/27/2021 5:15:00 PM 0 32 0.12 6.82 3.38 14.11
2/27/2021 5:30:00 PM -0.01 31.982 0.119 6.83 3.29 14.09
2/27/2021 5:45:00 PM -0.01 31.982 0.119 6.82 3.36 14.08
2/27/2021 6:00:00 PM -0.02 31.964 0.119 6.81 3.33 14.06
2/27/2021 6:15:00 PM -0.02 31.964 0.119 6.8 3.14 14.04
2/27/2021 6:30:00 PM -0.02 31.964 0.119 6.79 3.21 14.03
2/27/2021 6:45:00 PM -0.02 31.964 0.119 6.79 3.3 14.02
2/27/2021 7:00:00 PM -0.02 31.964 0.119 6.78 3.22 14
2/27/2021 7:15:00 PM -0.02 31.964 0.119 6.78 3.3 13.99
2/27/2021 7:30:00 PM -0.02 31.964 0.119 6.78 3.2 13.99
2/27/2021 7:45:00 PM -0.02 31.964 0.119 6.77 3.24 13.97
2/27/2021 8:00:00 PM -0.03 31.946 0.119 6.77 3.34 13.96
2/27/2021 8:15:00 PM -0.03 31.946 0.119 6.77 3.25 13.96
2/27/2021 8:30:00 PM -0.03 31.946 0.12 6.77 3.28 13.95
2/27/2021 8:45:00 PM -0.03 31.946 0.12 6.77 3.28 13.94
2/27/2021 9:00:00 PM -0.03 31.946 0.12 6.77 3.18 13.94
2/27/2021 9:15:00 PM -0.03 31.946 0.12 6.77 3.27 13.93
2/27/2021 9:30:00 PM -0.03 31.946 0.12 6.76 3.3 13.93
2/27/2021 9:45:00 PM -0.03 31.946 0.12 6.75 3.2 13.92
2/27/2021 10:00:00 PM -0.03 31.946 0.12 6.76 3.12 13.92
2/27/2021 10:15:00 PM -0.03 31.946 0.12 6.75 3.15 13.92
2/27/2021 10:30:00 PM -0.04 31.928 0.12 6.74 3.22 13.92
2/27/2021 10:45:00 PM -0.04 31.928 0.12 6.75 3.22 13.92
2/27/2021 11:00:00 PM -0.04 31.928 0.12 6.75 3.16 13.92
2/27/2021 11:15:00 PM -0.04 31.928 0.12 6.75 3.2 13.92
2/27/2021 11:30:00 PM -0.04 31.928 0.12 6.74 3.18 13.93
2/27/2021 11:45:00 PM -0.04 31.928 0.12 6.74 3.16 13.93
2/28/2021 12:00:00 AM -0.04 31.928 0.12 6.74 3.1 13.93
2/28/2021 12:15:00 AM -0.03 31.946 0.12 6.74 3.2 13.93
2/28/2021 12:30:00 AM -0.03 31.946 0.12 6.74 3.19 13.93
2/28/2021 12:45:00 AM -0.03 31.946 0.12 6.73 3.11 13.93
2/28/2021 1:00:00 AM -0.03 31.946 0.12 6.73 3.25 13.93
2/28/2021 1:15:00 AM -0.03 31.946 0.12 6.74 3.11 13.94
2/28/2021 1:30:00 AM -0.03 31.946 0.12 6.73 3.09 13.94
2/28/2021 1:45:00 AM -0.03 31.946 0.119 6.73 3.11 13.94
2/28/2021 2:00:00 AM -0.03 31.946 0.119 6.73 3.03 13.94
2/28/2021 2:15:00 AM -0.03 31.946 0.119 6.73 3.38 13.94
2/28/2021 2:30:00 AM -0.03 31.946 0.119 6.73 3.18 13.94
2/28/2021 2:45:00 AM -0.03 31.946 0.119 6.73 3.2 13.94
2/28/2021 3:00:00 AM -0.03 31.946 0.119 6.73 3.2 13.94
2/28/2021 3:15:00 AM -0.03 31.946 0.119 6.73 3.3 13.95
2/28/2021 3:30:00 AM -0.03 31.946 0.119 6.73 3.32 13.94
2/28/2021 3:45:00 AM -0.04 31.928 0.119 6.73 3.22 13.95
2/28/2021 4:00:00 AM -0.03 31.946 0.118 6.73 3.22 13.95
2/28/2021 4:15:00 AM -0.03 31.946 0.118 6.73 3.26 13.94
2/28/2021 4:30:00 AM -0.03 31.946 0.118 6.73 3.27 13.95
2/28/2021 4:45:00 AM -0.03 31.946 0.118 6.73 3.28 13.95
2/28/2021 5:00:00 AM -0.03 31.946 0.118 6.72 3.2 13.95
2/28/2021 5:15:00 AM -0.04 31.928 0.118 6.73 3.27 13.95
2/28/2021 5:30:00 AM -0.04 31.928 0.118 6.72 3.25 13.95
2/28/2021 5:45:00 AM -0.04 31.928 0.117 6.72 3.19 13.95
2/28/2021 6:00:00 AM -0.03 31.946 0.117 6.72 3.24 13.94
2/28/2021 6:15:00 AM -0.03 31.946 0.118 6.72 3.26 13.95
2/28/2021 6:30:00 AM -0.03 31.946 0.117 6.71 3.29 13.95
2/28/2021 6:45:00 AM -0.03 31.946 0.117 6.72 3.25 13.95
2/28/2021 7:00:00 AM -0.03 31.946 0.117 6.72 3.1 13.95
2/28/2021 7:15:00 AM -0.03 31.946 0.117 6.71 3.17 13.95
2/28/2021 7:30:00 AM -0.02 31.964 0.117 6.72 3.22 13.96
2/28/2021 7:45:00 AM -0.02 31.964 0.118 6.72 3.15 13.95
2/28/2021 8:00:00 AM -0.02 31.964 0.118 6.72 3.17 13.96
2/28/2021 8:15:00 AM -0.02 31.964 0.118 6.73 3.1 13.97
2/28/2021 8:30:00 AM -0.02 31.964 0.118 6.72 3.13 13.98
2/28/2021 8:45:00 AM -0.02 31.964 0.118 6.73 3.12 13.99
2/28/2021 9:00:00 AM -0.02 31.964 0.118 6.73 3.17 14
2/28/2021 9:15:00 AM -0.01 31.982 0.119 6.73